<?xml version="1.0" encoding="UTF-8" standalone="no" ?>
<gpx xmlns="http://www.topografix.com/GPX/1/1" xmlns:xsi="http://www.w3.org/2001/XMLSchema-instance" xsi:schemaLocation="http://www.topografix.com/GPX/1/1 http://www.topografix.com/GPX/1/1/gpx.xsd" version="1.1" creator="VisuGPX - https://www.visugpx.com">
  <metadata>
    <name>Saint Herblain</name>
    <desc><![CDATA[Cyclemeter Vélo (Montagne) 9 oct. 2016 à 09:29:38]]></desc>
  </metadata>
  <trk>
    <name><![CDATA[Nouveau parcours]]></name>
    <trkseg>
      <trkpt lat="47.24877" lon="-1.64029">
        <ele>40.2</ele>
        <time>2016-10-09T07:29:38Z</time>
      </trkpt>
      <trkpt lat="47.24878" lon="-1.64029">
        <ele>40.3</ele>
        <time>2016-10-09T07:29:42Z</time>
      </trkpt>
      <trkpt lat="47.24879" lon="-1.6403">
        <ele>40.4</ele>
        <time>2016-10-09T07:29:43Z</time>
      </trkpt>
      <trkpt lat="47.24876" lon="-1.64044">
        <ele>41.9</ele>
        <time>2016-10-09T07:30:18Z</time>
      </trkpt>
      <trkpt lat="47.24893" lon="-1.64047">
        <ele>42.3</ele>
        <time>2016-10-09T07:30:26Z</time>
      </trkpt>
      <trkpt lat="47.24894" lon="-1.64038">
        <ele>42.4</ele>
        <time>2016-10-09T07:30:29Z</time>
      </trkpt>
      <trkpt lat="47.24892" lon="-1.64023">
        <ele>42.6</ele>
        <time>2016-10-09T07:30:33Z</time>
      </trkpt>
      <trkpt lat="47.24919" lon="-1.63997">
        <ele>43.2</ele>
        <time>2016-10-09T07:30:45Z</time>
      </trkpt>
      <trkpt lat="47.2493" lon="-1.63986">
        <ele>43.8</ele>
        <time>2016-10-09T07:30:50Z</time>
      </trkpt>
      <trkpt lat="47.24972" lon="-1.63953">
        <ele>45.8</ele>
        <time>2016-10-09T07:31:06Z</time>
      </trkpt>
      <trkpt lat="47.24984" lon="-1.63942">
        <ele>46.2</ele>
        <time>2016-10-09T07:31:10Z</time>
      </trkpt>
      <trkpt lat="47.24989" lon="-1.63945">
        <ele>46.5</ele>
        <time>2016-10-09T07:31:12Z</time>
      </trkpt>
      <trkpt lat="47.2499" lon="-1.63949">
        <ele>46.6</ele>
        <time>2016-10-09T07:31:13Z</time>
      </trkpt>
      <trkpt lat="47.25004" lon="-1.64015">
        <ele>47.3</ele>
        <time>2016-10-09T07:31:28Z</time>
      </trkpt>
      <trkpt lat="47.25021" lon="-1.64081">
        <ele>47.8</ele>
        <time>2016-10-09T07:31:38Z</time>
      </trkpt>
      <trkpt lat="47.25038" lon="-1.64146">
        <ele>48.3</ele>
        <time>2016-10-09T07:31:49Z</time>
      </trkpt>
      <trkpt lat="47.25049" lon="-1.64177">
        <ele>48.6</ele>
        <time>2016-10-09T07:31:55Z</time>
      </trkpt>
      <trkpt lat="47.2506" lon="-1.64195">
        <ele>48.9</ele>
        <time>2016-10-09T07:32:00Z</time>
      </trkpt>
      <trkpt lat="47.25075" lon="-1.6426">
        <ele>49.5</ele>
        <time>2016-10-09T07:32:12Z</time>
      </trkpt>
      <trkpt lat="47.25107" lon="-1.64311">
        <ele>50</ele>
        <time>2016-10-09T07:32:23Z</time>
      </trkpt>
      <trkpt lat="47.2513" lon="-1.64344">
        <ele>50.3</ele>
        <time>2016-10-09T07:32:30Z</time>
      </trkpt>
      <trkpt lat="47.2514" lon="-1.64358">
        <ele>50</ele>
        <time>2016-10-09T07:32:33Z</time>
      </trkpt>
      <trkpt lat="47.25143" lon="-1.64368">
        <ele>49.8</ele>
        <time>2016-10-09T07:32:35Z</time>
      </trkpt>
      <trkpt lat="47.2514" lon="-1.64373">
        <ele>49.6</ele>
        <time>2016-10-09T07:32:36Z</time>
      </trkpt>
      <trkpt lat="47.25124" lon="-1.64404">
        <ele>48.5</ele>
        <time>2016-10-09T07:32:42Z</time>
      </trkpt>
      <trkpt lat="47.25104" lon="-1.64427">
        <ele>47.6</ele>
        <time>2016-10-09T07:32:47Z</time>
      </trkpt>
      <trkpt lat="47.25087" lon="-1.6446">
        <ele>46.5</ele>
        <time>2016-10-09T07:32:53Z</time>
      </trkpt>
      <trkpt lat="47.2509" lon="-1.64476">
        <ele>45.9</ele>
        <time>2016-10-09T07:32:56Z</time>
      </trkpt>
      <trkpt lat="47.25102" lon="-1.64493">
        <ele>45.2</ele>
        <time>2016-10-09T07:33:00Z</time>
      </trkpt>
      <trkpt lat="47.25103" lon="-1.64508">
        <ele>44.8</ele>
        <time>2016-10-09T07:33:02Z</time>
      </trkpt>
      <trkpt lat="47.25096" lon="-1.64552">
        <ele>43.8</ele>
        <time>2016-10-09T07:33:07Z</time>
      </trkpt>
      <trkpt lat="47.25098" lon="-1.64587">
        <ele>43.2</ele>
        <time>2016-10-09T07:33:11Z</time>
      </trkpt>
      <trkpt lat="47.251" lon="-1.64621">
        <ele>43.1</ele>
        <time>2016-10-09T07:33:15Z</time>
      </trkpt>
      <trkpt lat="47.25094" lon="-1.64678">
        <ele>42.9</ele>
        <time>2016-10-09T07:33:22Z</time>
      </trkpt>
      <trkpt lat="47.25093" lon="-1.64686">
        <ele>42.6</ele>
        <time>2016-10-09T07:33:23Z</time>
      </trkpt>
      <trkpt lat="47.25093" lon="-1.64702">
        <ele>42.1</ele>
        <time>2016-10-09T07:33:25Z</time>
      </trkpt>
      <trkpt lat="47.25093" lon="-1.64711">
        <ele>41.8</ele>
        <time>2016-10-09T07:33:26Z</time>
      </trkpt>
      <trkpt lat="47.25086" lon="-1.64781">
        <ele>40</ele>
        <time>2016-10-09T07:33:33Z</time>
      </trkpt>
      <trkpt lat="47.25085" lon="-1.64816">
        <ele>38.6</ele>
        <time>2016-10-09T07:33:38Z</time>
      </trkpt>
      <trkpt lat="47.25098" lon="-1.64828">
        <ele>36.3</ele>
        <time>2016-10-09T07:33:43Z</time>
      </trkpt>
      <trkpt lat="47.25112" lon="-1.64838">
        <ele>38.3</ele>
        <time>2016-10-09T07:33:49Z</time>
      </trkpt>
      <trkpt lat="47.25126" lon="-1.64849">
        <ele>38.8</ele>
        <time>2016-10-09T07:33:55Z</time>
      </trkpt>
      <trkpt lat="47.2514" lon="-1.6486">
        <ele>40</ele>
        <time>2016-10-09T07:34:01Z</time>
      </trkpt>
      <trkpt lat="47.25154" lon="-1.64875">
        <ele>41.1</ele>
        <time>2016-10-09T07:34:06Z</time>
      </trkpt>
      <trkpt lat="47.25164" lon="-1.64888">
        <ele>41.8</ele>
        <time>2016-10-09T07:34:10Z</time>
      </trkpt>
      <trkpt lat="47.25176" lon="-1.64955">
        <ele>44.9</ele>
        <time>2016-10-09T07:34:26Z</time>
      </trkpt>
      <trkpt lat="47.25176" lon="-1.64967">
        <ele>45.2</ele>
        <time>2016-10-09T07:34:28Z</time>
      </trkpt>
      <trkpt lat="47.25175" lon="-1.65006">
        <ele>44.7</ele>
        <time>2016-10-09T07:34:34Z</time>
      </trkpt>
      <trkpt lat="47.25175" lon="-1.65026">
        <ele>44.3</ele>
        <time>2016-10-09T07:34:37Z</time>
      </trkpt>
      <trkpt lat="47.25175" lon="-1.65096">
        <ele>43.2</ele>
        <time>2016-10-09T07:34:46Z</time>
      </trkpt>
      <trkpt lat="47.25161" lon="-1.65161">
        <ele>42.3</ele>
        <time>2016-10-09T07:34:54Z</time>
      </trkpt>
      <trkpt lat="47.25159" lon="-1.65178">
        <ele>42</ele>
        <time>2016-10-09T07:34:56Z</time>
      </trkpt>
      <trkpt lat="47.25152" lon="-1.6521">
        <ele>41.6</ele>
        <time>2016-10-09T07:35:00Z</time>
      </trkpt>
      <trkpt lat="47.25158" lon="-1.65242">
        <ele>41.1</ele>
        <time>2016-10-09T07:35:04Z</time>
      </trkpt>
      <trkpt lat="47.25152" lon="-1.65277">
        <ele>40.4</ele>
        <time>2016-10-09T07:35:08Z</time>
      </trkpt>
      <trkpt lat="47.25145" lon="-1.65313">
        <ele>38.4</ele>
        <time>2016-10-09T07:35:12Z</time>
      </trkpt>
      <trkpt lat="47.25144" lon="-1.65322">
        <ele>38</ele>
        <time>2016-10-09T07:35:13Z</time>
      </trkpt>
      <trkpt lat="47.25138" lon="-1.65352">
        <ele>37.4</ele>
        <time>2016-10-09T07:35:16Z</time>
      </trkpt>
      <trkpt lat="47.25114" lon="-1.65417">
        <ele>36</ele>
        <time>2016-10-09T07:35:23Z</time>
      </trkpt>
      <trkpt lat="47.25102" lon="-1.65465">
        <ele>35.1</ele>
        <time>2016-10-09T07:35:28Z</time>
      </trkpt>
      <trkpt lat="47.25102" lon="-1.65474">
        <ele>34.8</ele>
        <time>2016-10-09T07:35:29Z</time>
      </trkpt>
      <trkpt lat="47.25096" lon="-1.65529">
        <ele>33.1</ele>
        <time>2016-10-09T07:35:35Z</time>
      </trkpt>
      <trkpt lat="47.25081" lon="-1.65582">
        <ele>31.1</ele>
        <time>2016-10-09T07:35:41Z</time>
      </trkpt>
      <trkpt lat="47.25079" lon="-1.65591">
        <ele>30.3</ele>
        <time>2016-10-09T07:35:42Z</time>
      </trkpt>
      <trkpt lat="47.25076" lon="-1.65624">
        <ele>26.6</ele>
        <time>2016-10-09T07:35:46Z</time>
      </trkpt>
      <trkpt lat="47.25076" lon="-1.6564">
        <ele>27.1</ele>
        <time>2016-10-09T07:35:48Z</time>
      </trkpt>
      <trkpt lat="47.25082" lon="-1.65659">
        <ele>27.7</ele>
        <time>2016-10-09T07:35:51Z</time>
      </trkpt>
      <trkpt lat="47.25105" lon="-1.65669">
        <ele>29.2</ele>
        <time>2016-10-09T07:35:58Z</time>
      </trkpt>
      <trkpt lat="47.25125" lon="-1.65678">
        <ele>30.8</ele>
        <time>2016-10-09T07:36:04Z</time>
      </trkpt>
      <trkpt lat="47.25143" lon="-1.65684">
        <ele>32.1</ele>
        <time>2016-10-09T07:36:09Z</time>
      </trkpt>
      <trkpt lat="47.2517" lon="-1.65695">
        <ele>34.3</ele>
        <time>2016-10-09T07:36:17Z</time>
      </trkpt>
      <trkpt lat="47.25174" lon="-1.65704">
        <ele>34.9</ele>
        <time>2016-10-09T07:36:19Z</time>
      </trkpt>
      <trkpt lat="47.25173" lon="-1.65713">
        <ele>35.1</ele>
        <time>2016-10-09T07:36:20Z</time>
      </trkpt>
      <trkpt lat="47.25188" lon="-1.65749">
        <ele>36</ele>
        <time>2016-10-09T07:36:26Z</time>
      </trkpt>
      <trkpt lat="47.25195" lon="-1.65767">
        <ele>36.3</ele>
        <time>2016-10-09T07:36:29Z</time>
      </trkpt>
      <trkpt lat="47.25214" lon="-1.65832">
        <ele>37.3</ele>
        <time>2016-10-09T07:36:39Z</time>
      </trkpt>
      <trkpt lat="47.25221" lon="-1.6585">
        <ele>37.6</ele>
        <time>2016-10-09T07:36:42Z</time>
      </trkpt>
      <trkpt lat="47.25236" lon="-1.65893">
        <ele>38.8</ele>
        <time>2016-10-09T07:36:49Z</time>
      </trkpt>
      <trkpt lat="47.25241" lon="-1.65913">
        <ele>39.4</ele>
        <time>2016-10-09T07:36:52Z</time>
      </trkpt>
      <trkpt lat="47.25241" lon="-1.6592">
        <ele>39.5</ele>
        <time>2016-10-09T07:36:53Z</time>
      </trkpt>
      <trkpt lat="47.25243" lon="-1.65927">
        <ele>39.7</ele>
        <time>2016-10-09T07:36:54Z</time>
      </trkpt>
      <trkpt lat="47.25256" lon="-1.65964">
        <ele>39.7</ele>
        <time>2016-10-09T07:37:00Z</time>
      </trkpt>
      <trkpt lat="47.25263" lon="-1.65982">
        <ele>40.2</ele>
        <time>2016-10-09T07:37:03Z</time>
      </trkpt>
      <trkpt lat="47.25269" lon="-1.65992">
        <ele>40.5</ele>
        <time>2016-10-09T07:37:05Z</time>
      </trkpt>
      <trkpt lat="47.25283" lon="-1.66018">
        <ele>40.4</ele>
        <time>2016-10-09T07:37:10Z</time>
      </trkpt>
      <trkpt lat="47.25294" lon="-1.66039">
        <ele>40.1</ele>
        <time>2016-10-09T07:37:14Z</time>
      </trkpt>
      <trkpt lat="47.25322" lon="-1.66095">
        <ele>39.4</ele>
        <time>2016-10-09T07:37:23Z</time>
      </trkpt>
      <trkpt lat="47.25326" lon="-1.66118">
        <ele>39.2</ele>
        <time>2016-10-09T07:37:26Z</time>
      </trkpt>
      <trkpt lat="47.25323" lon="-1.66185">
        <ele>38.6</ele>
        <time>2016-10-09T07:37:34Z</time>
      </trkpt>
      <trkpt lat="47.25323" lon="-1.66253">
        <ele>38</ele>
        <time>2016-10-09T07:37:42Z</time>
      </trkpt>
      <trkpt lat="47.2532" lon="-1.66277">
        <ele>37.8</ele>
        <time>2016-10-09T07:37:45Z</time>
      </trkpt>
      <trkpt lat="47.2532" lon="-1.66293">
        <ele>37.9</ele>
        <time>2016-10-09T07:37:47Z</time>
      </trkpt>
      <trkpt lat="47.25323" lon="-1.66324">
        <ele>38.1</ele>
        <time>2016-10-09T07:37:51Z</time>
      </trkpt>
      <trkpt lat="47.25323" lon="-1.66363">
        <ele>38.3</ele>
        <time>2016-10-09T07:37:56Z</time>
      </trkpt>
      <trkpt lat="47.25323" lon="-1.66394">
        <ele>37.4</ele>
        <time>2016-10-09T07:38:00Z</time>
      </trkpt>
      <trkpt lat="47.25327" lon="-1.66466">
        <ele>34.9</ele>
        <time>2016-10-09T07:38:10Z</time>
      </trkpt>
      <trkpt lat="47.25323" lon="-1.66483">
        <ele>34.2</ele>
        <time>2016-10-09T07:38:13Z</time>
      </trkpt>
      <trkpt lat="47.25323" lon="-1.66489">
        <ele>33.9</ele>
        <time>2016-10-09T07:38:14Z</time>
      </trkpt>
      <trkpt lat="47.25324" lon="-1.66505">
        <ele>33.1</ele>
        <time>2016-10-09T07:38:17Z</time>
      </trkpt>
      <trkpt lat="47.25325" lon="-1.66504">
        <ele>33</ele>
        <time>2016-10-09T07:38:18Z</time>
      </trkpt>
      <trkpt lat="47.25336" lon="-1.66504">
        <ele>33.7</ele>
        <time>2016-10-09T07:38:24Z</time>
      </trkpt>
      <trkpt lat="47.25349" lon="-1.66502">
        <ele>35.1</ele>
        <time>2016-10-09T07:38:31Z</time>
      </trkpt>
      <trkpt lat="47.2537" lon="-1.66495">
        <ele>35.9</ele>
        <time>2016-10-09T07:38:35Z</time>
      </trkpt>
      <trkpt lat="47.25397" lon="-1.66487">
        <ele>36.9</ele>
        <time>2016-10-09T07:38:40Z</time>
      </trkpt>
      <trkpt lat="47.2544" lon="-1.66466">
        <ele>38.7</ele>
        <time>2016-10-09T07:38:50Z</time>
      </trkpt>
      <trkpt lat="47.25447" lon="-1.66456">
        <ele>39.1</ele>
        <time>2016-10-09T07:38:52Z</time>
      </trkpt>
      <trkpt lat="47.25472" lon="-1.66417">
        <ele>40.1</ele>
        <time>2016-10-09T07:39:00Z</time>
      </trkpt>
      <trkpt lat="47.25504" lon="-1.6637">
        <ele>41.4</ele>
        <time>2016-10-09T07:39:11Z</time>
      </trkpt>
      <trkpt lat="47.2552" lon="-1.66345">
        <ele>42.4</ele>
        <time>2016-10-09T07:39:19Z</time>
      </trkpt>
      <trkpt lat="47.25536" lon="-1.6632">
        <ele>43.1</ele>
        <time>2016-10-09T07:39:27Z</time>
      </trkpt>
      <trkpt lat="47.25556" lon="-1.6628">
        <ele>43.7</ele>
        <time>2016-10-09T07:39:34Z</time>
      </trkpt>
      <trkpt lat="47.25578" lon="-1.66233">
        <ele>44.6</ele>
        <time>2016-10-09T07:39:43Z</time>
      </trkpt>
      <trkpt lat="47.25581" lon="-1.66229">
        <ele>44.6</ele>
        <time>2016-10-09T07:39:44Z</time>
      </trkpt>
      <trkpt lat="47.25583" lon="-1.6622">
        <ele>44.8</ele>
        <time>2016-10-09T07:39:46Z</time>
      </trkpt>
      <trkpt lat="47.25584" lon="-1.66215">
        <ele>44.9</ele>
        <time>2016-10-09T07:39:47Z</time>
      </trkpt>
      <trkpt lat="47.256" lon="-1.66187">
        <ele>45.4</ele>
        <time>2016-10-09T07:39:52Z</time>
      </trkpt>
      <trkpt lat="47.25613" lon="-1.66165">
        <ele>45.9</ele>
        <time>2016-10-09T07:39:56Z</time>
      </trkpt>
      <trkpt lat="47.25641" lon="-1.66113">
        <ele>47.3</ele>
        <time>2016-10-09T07:40:07Z</time>
      </trkpt>
      <trkpt lat="47.25646" lon="-1.66103">
        <ele>47.6</ele>
        <time>2016-10-09T07:40:09Z</time>
      </trkpt>
      <trkpt lat="47.25669" lon="-1.6605">
        <ele>49</ele>
        <time>2016-10-09T07:40:19Z</time>
      </trkpt>
      <trkpt lat="47.25674" lon="-1.66034">
        <ele>49.1</ele>
        <time>2016-10-09T07:40:21Z</time>
      </trkpt>
      <trkpt lat="47.25691" lon="-1.66001">
        <ele>49.7</ele>
        <time>2016-10-09T07:40:27Z</time>
      </trkpt>
      <trkpt lat="47.25711" lon="-1.65955">
        <ele>50.4</ele>
        <time>2016-10-09T07:40:35Z</time>
      </trkpt>
      <trkpt lat="47.25713" lon="-1.65951">
        <ele>50.5</ele>
        <time>2016-10-09T07:40:36Z</time>
      </trkpt>
      <trkpt lat="47.25714" lon="-1.65946">
        <ele>50.6</ele>
        <time>2016-10-09T07:40:37Z</time>
      </trkpt>
      <trkpt lat="47.25737" lon="-1.659">
        <ele>51.3</ele>
        <time>2016-10-09T07:40:45Z</time>
      </trkpt>
      <trkpt lat="47.25759" lon="-1.65866">
        <ele>51.9</ele>
        <time>2016-10-09T07:40:52Z</time>
      </trkpt>
      <trkpt lat="47.25769" lon="-1.65842">
        <ele>52.3</ele>
        <time>2016-10-09T07:40:56Z</time>
      </trkpt>
      <trkpt lat="47.25785" lon="-1.65806">
        <ele>53.1</ele>
        <time>2016-10-09T07:41:02Z</time>
      </trkpt>
      <trkpt lat="47.25812" lon="-1.65747">
        <ele>54.7</ele>
        <time>2016-10-09T07:41:14Z</time>
      </trkpt>
      <trkpt lat="47.25828" lon="-1.65715">
        <ele>55.2</ele>
        <time>2016-10-09T07:41:20Z</time>
      </trkpt>
      <trkpt lat="47.25842" lon="-1.65689">
        <ele>55.9</ele>
        <time>2016-10-09T07:41:25Z</time>
      </trkpt>
      <trkpt lat="47.25872" lon="-1.65638">
        <ele>57.2</ele>
        <time>2016-10-09T07:41:35Z</time>
      </trkpt>
      <trkpt lat="47.25897" lon="-1.65589">
        <ele>58.3</ele>
        <time>2016-10-09T07:41:43Z</time>
      </trkpt>
      <trkpt lat="47.259" lon="-1.65583">
        <ele>58.3</ele>
        <time>2016-10-09T07:41:44Z</time>
      </trkpt>
      <trkpt lat="47.2591" lon="-1.65561">
        <ele>58.6</ele>
        <time>2016-10-09T07:41:48Z</time>
      </trkpt>
      <trkpt lat="47.25926" lon="-1.65525">
        <ele>58.7</ele>
        <time>2016-10-09T07:41:55Z</time>
      </trkpt>
      <trkpt lat="47.25944" lon="-1.65489">
        <ele>59.3</ele>
        <time>2016-10-09T07:42:38Z</time>
      </trkpt>
      <trkpt lat="47.25948" lon="-1.65482">
        <ele>61.3</ele>
        <time>2016-10-09T07:44:44Z</time>
      </trkpt>
      <trkpt lat="47.25946" lon="-1.65427">
        <ele>61.5</ele>
        <time>2016-10-09T07:44:54Z</time>
      </trkpt>
      <trkpt lat="47.2596" lon="-1.65408">
        <ele>61.6</ele>
        <time>2016-10-09T07:45:00Z</time>
      </trkpt>
      <trkpt lat="47.25966" lon="-1.65388">
        <ele>61.6</ele>
        <time>2016-10-09T07:45:04Z</time>
      </trkpt>
      <trkpt lat="47.25969" lon="-1.65384">
        <ele>61.6</ele>
        <time>2016-10-09T07:45:05Z</time>
      </trkpt>
      <trkpt lat="47.26003" lon="-1.65338">
        <ele>61.2</ele>
        <time>2016-10-09T07:45:16Z</time>
      </trkpt>
      <trkpt lat="47.26028" lon="-1.65293">
        <ele>60.9</ele>
        <time>2016-10-09T07:45:24Z</time>
      </trkpt>
      <trkpt lat="47.26052" lon="-1.65281">
        <ele>60.7</ele>
        <time>2016-10-09T07:45:29Z</time>
      </trkpt>
      <trkpt lat="47.26101" lon="-1.65266">
        <ele>60.3</ele>
        <time>2016-10-09T07:45:38Z</time>
      </trkpt>
      <trkpt lat="47.26116" lon="-1.65258">
        <ele>60.2</ele>
        <time>2016-10-09T07:45:41Z</time>
      </trkpt>
      <trkpt lat="47.26163" lon="-1.65243">
        <ele>59.9</ele>
        <time>2016-10-09T07:45:49Z</time>
      </trkpt>
      <trkpt lat="47.26205" lon="-1.65228">
        <ele>59.6</ele>
        <time>2016-10-09T07:45:56Z</time>
      </trkpt>
      <trkpt lat="47.26211" lon="-1.6523">
        <ele>59.6</ele>
        <time>2016-10-09T07:45:57Z</time>
      </trkpt>
      <trkpt lat="47.26239" lon="-1.65238">
        <ele>59.4</ele>
        <time>2016-10-09T07:46:02Z</time>
      </trkpt>
      <trkpt lat="47.26259" lon="-1.65231">
        <ele>59.2</ele>
        <time>2016-10-09T07:46:07Z</time>
      </trkpt>
      <trkpt lat="47.26311" lon="-1.65227">
        <ele>58.7</ele>
        <time>2016-10-09T07:46:21Z</time>
      </trkpt>
      <trkpt lat="47.26335" lon="-1.6522">
        <ele>58.5</ele>
        <time>2016-10-09T07:46:25Z</time>
      </trkpt>
      <trkpt lat="47.26368" lon="-1.65219">
        <ele>58.3</ele>
        <time>2016-10-09T07:46:30Z</time>
      </trkpt>
      <trkpt lat="47.26421" lon="-1.6523">
        <ele>58</ele>
        <time>2016-10-09T07:46:37Z</time>
      </trkpt>
      <trkpt lat="47.26427" lon="-1.65232">
        <ele>57.9</ele>
        <time>2016-10-09T07:46:38Z</time>
      </trkpt>
      <trkpt lat="47.26454" lon="-1.65239">
        <ele>57.3</ele>
        <time>2016-10-09T07:46:42Z</time>
      </trkpt>
      <trkpt lat="47.2646" lon="-1.6524">
        <ele>57.1</ele>
        <time>2016-10-09T07:46:43Z</time>
      </trkpt>
      <trkpt lat="47.265" lon="-1.65244">
        <ele>55.4</ele>
        <time>2016-10-09T07:46:49Z</time>
      </trkpt>
      <trkpt lat="47.26521" lon="-1.65246">
        <ele>54.3</ele>
        <time>2016-10-09T07:46:53Z</time>
      </trkpt>
      <trkpt lat="47.26529" lon="-1.65248">
        <ele>53.7</ele>
        <time>2016-10-09T07:46:55Z</time>
      </trkpt>
      <trkpt lat="47.26535" lon="-1.65252">
        <ele>53.4</ele>
        <time>2016-10-09T07:46:56Z</time>
      </trkpt>
      <trkpt lat="47.26564" lon="-1.65257">
        <ele>52.3</ele>
        <time>2016-10-09T07:47:00Z</time>
      </trkpt>
      <trkpt lat="47.26585" lon="-1.65261">
        <ele>51.8</ele>
        <time>2016-10-09T07:47:03Z</time>
      </trkpt>
      <trkpt lat="47.26591" lon="-1.65261">
        <ele>51.6</ele>
        <time>2016-10-09T07:47:04Z</time>
      </trkpt>
      <trkpt lat="47.26594" lon="-1.65263">
        <ele>51.3</ele>
        <time>2016-10-09T07:47:06Z</time>
      </trkpt>
      <trkpt lat="47.26603" lon="-1.65269">
        <ele>50.8</ele>
        <time>2016-10-09T07:47:12Z</time>
      </trkpt>
      <trkpt lat="47.26606" lon="-1.65266">
        <ele>50.5</ele>
        <time>2016-10-09T07:47:16Z</time>
      </trkpt>
      <trkpt lat="47.26606" lon="-1.65263">
        <ele>50</ele>
        <time>2016-10-09T07:47:22Z</time>
      </trkpt>
      <trkpt lat="47.26606" lon="-1.65264">
        <ele>49.4</ele>
        <time>2016-10-09T07:47:29Z</time>
      </trkpt>
      <trkpt lat="47.26608" lon="-1.65267">
        <ele>47.3</ele>
        <time>2016-10-09T07:47:43Z</time>
      </trkpt>
      <trkpt lat="47.26638" lon="-1.65281">
        <ele>45.3</ele>
        <time>2016-10-09T07:47:56Z</time>
      </trkpt>
      <trkpt lat="47.26649" lon="-1.65287">
        <ele>43.9</ele>
        <time>2016-10-09T07:48:01Z</time>
      </trkpt>
      <trkpt lat="47.26651" lon="-1.65288">
        <ele>43.6</ele>
        <time>2016-10-09T07:48:02Z</time>
      </trkpt>
      <trkpt lat="47.26672" lon="-1.65301">
        <ele>39.7</ele>
        <time>2016-10-09T07:48:17Z</time>
      </trkpt>
      <trkpt lat="47.26679" lon="-1.65305">
        <ele>38.6</ele>
        <time>2016-10-09T07:48:22Z</time>
      </trkpt>
      <trkpt lat="47.26688" lon="-1.65311">
        <ele>36.9</ele>
        <time>2016-10-09T07:48:28Z</time>
      </trkpt>
      <trkpt lat="47.26693" lon="-1.65314">
        <ele>35.8</ele>
        <time>2016-10-09T07:48:32Z</time>
      </trkpt>
      <trkpt lat="47.26711" lon="-1.65326">
        <ele>33.8</ele>
        <time>2016-10-09T07:48:40Z</time>
      </trkpt>
      <trkpt lat="47.26722" lon="-1.65333">
        <ele>32.6</ele>
        <time>2016-10-09T07:48:45Z</time>
      </trkpt>
      <trkpt lat="47.26736" lon="-1.65343">
        <ele>31</ele>
        <time>2016-10-09T07:48:51Z</time>
      </trkpt>
      <trkpt lat="47.26754" lon="-1.65387">
        <ele>28.8</ele>
        <time>2016-10-09T07:48:59Z</time>
      </trkpt>
      <trkpt lat="47.26755" lon="-1.65416">
        <ele>28</ele>
        <time>2016-10-09T07:49:02Z</time>
      </trkpt>
      <trkpt lat="47.26767" lon="-1.65464">
        <ele>27.1</ele>
        <time>2016-10-09T07:49:08Z</time>
      </trkpt>
      <trkpt lat="47.26768" lon="-1.6547">
        <ele>26.9</ele>
        <time>2016-10-09T07:49:09Z</time>
      </trkpt>
      <trkpt lat="47.26773" lon="-1.65483">
        <ele>26.6</ele>
        <time>2016-10-09T07:49:11Z</time>
      </trkpt>
      <trkpt lat="47.2677" lon="-1.65497">
        <ele>26.4</ele>
        <time>2016-10-09T07:49:13Z</time>
      </trkpt>
      <trkpt lat="47.26768" lon="-1.65505">
        <ele>26.4</ele>
        <time>2016-10-09T07:49:14Z</time>
      </trkpt>
      <trkpt lat="47.2677" lon="-1.65511">
        <ele>26.4</ele>
        <time>2016-10-09T07:49:15Z</time>
      </trkpt>
      <trkpt lat="47.26775" lon="-1.65516">
        <ele>26.4</ele>
        <time>2016-10-09T07:49:16Z</time>
      </trkpt>
      <trkpt lat="47.26784" lon="-1.65528">
        <ele>26.4</ele>
        <time>2016-10-09T07:49:22Z</time>
      </trkpt>
      <trkpt lat="47.26789" lon="-1.65529">
        <ele>26.4</ele>
        <time>2016-10-09T07:49:24Z</time>
      </trkpt>
      <trkpt lat="47.2682" lon="-1.65532">
        <ele>23.2</ele>
        <time>2016-10-09T07:49:35Z</time>
      </trkpt>
      <trkpt lat="47.26827" lon="-1.65538">
        <ele>21.8</ele>
        <time>2016-10-09T07:49:40Z</time>
      </trkpt>
      <trkpt lat="47.26829" lon="-1.65539">
        <ele>21.8</ele>
        <time>2016-10-09T07:49:41Z</time>
      </trkpt>
      <trkpt lat="47.26845" lon="-1.65541">
        <ele>21.3</ele>
        <time>2016-10-09T07:49:56Z</time>
      </trkpt>
      <trkpt lat="47.26847" lon="-1.65544">
        <ele>21.3</ele>
        <time>2016-10-09T07:49:57Z</time>
      </trkpt>
      <trkpt lat="47.26877" lon="-1.6559">
        <ele>23.8</ele>
        <time>2016-10-09T07:50:13Z</time>
      </trkpt>
      <trkpt lat="47.26888" lon="-1.65603">
        <ele>24.7</ele>
        <time>2016-10-09T07:50:19Z</time>
      </trkpt>
      <trkpt lat="47.26906" lon="-1.65625">
        <ele>25.2</ele>
        <time>2016-10-09T07:50:29Z</time>
      </trkpt>
      <trkpt lat="47.26897" lon="-1.6564">
        <ele>25.6</ele>
        <time>2016-10-09T07:50:36Z</time>
      </trkpt>
      <trkpt lat="47.26892" lon="-1.6565">
        <ele>26.6</ele>
        <time>2016-10-09T07:50:40Z</time>
      </trkpt>
      <trkpt lat="47.26892" lon="-1.65672">
        <ele>27.5</ele>
        <time>2016-10-09T07:50:44Z</time>
      </trkpt>
      <trkpt lat="47.26886" lon="-1.65686">
        <ele>29.6</ele>
        <time>2016-10-09T07:50:53Z</time>
      </trkpt>
      <trkpt lat="47.26879" lon="-1.65705">
        <ele>30.5</ele>
        <time>2016-10-09T07:51:04Z</time>
      </trkpt>
      <trkpt lat="47.26883" lon="-1.65724">
        <ele>31</ele>
        <time>2016-10-09T07:51:09Z</time>
      </trkpt>
      <trkpt lat="47.26884" lon="-1.65727">
        <ele>31.3</ele>
        <time>2016-10-09T07:51:10Z</time>
      </trkpt>
      <trkpt lat="47.26891" lon="-1.65741">
        <ele>33</ele>
        <time>2016-10-09T07:51:15Z</time>
      </trkpt>
      <trkpt lat="47.26899" lon="-1.65806">
        <ele>35.3</ele>
        <time>2016-10-09T07:51:29Z</time>
      </trkpt>
      <trkpt lat="47.26895" lon="-1.65832">
        <ele>36.6</ele>
        <time>2016-10-09T07:51:37Z</time>
      </trkpt>
      <trkpt lat="47.26892" lon="-1.65842">
        <ele>36.4</ele>
        <time>2016-10-09T07:51:40Z</time>
      </trkpt>
      <trkpt lat="47.26865" lon="-1.65869">
        <ele>36</ele>
        <time>2016-10-09T07:51:48Z</time>
      </trkpt>
      <trkpt lat="47.26855" lon="-1.65878">
        <ele>36.9</ele>
        <time>2016-10-09T07:51:51Z</time>
      </trkpt>
      <trkpt lat="47.26816" lon="-1.65887">
        <ele>40.7</ele>
        <time>2016-10-09T07:52:05Z</time>
      </trkpt>
      <trkpt lat="47.26807" lon="-1.65888">
        <ele>41</ele>
        <time>2016-10-09T07:52:08Z</time>
      </trkpt>
      <trkpt lat="47.26799" lon="-1.65889">
        <ele>41.3</ele>
        <time>2016-10-09T07:52:11Z</time>
      </trkpt>
      <trkpt lat="47.26782" lon="-1.65891">
        <ele>41.9</ele>
        <time>2016-10-09T07:52:17Z</time>
      </trkpt>
      <trkpt lat="47.26768" lon="-1.65893">
        <ele>41.9</ele>
        <time>2016-10-09T07:52:22Z</time>
      </trkpt>
      <trkpt lat="47.26759" lon="-1.65894">
        <ele>41.4</ele>
        <time>2016-10-09T07:52:25Z</time>
      </trkpt>
      <trkpt lat="47.26713" lon="-1.65896">
        <ele>39.7</ele>
        <time>2016-10-09T07:52:37Z</time>
      </trkpt>
      <trkpt lat="47.26669" lon="-1.6592">
        <ele>38.2</ele>
        <time>2016-10-09T07:52:47Z</time>
      </trkpt>
      <trkpt lat="47.26639" lon="-1.65929">
        <ele>37.1</ele>
        <time>2016-10-09T07:52:54Z</time>
      </trkpt>
      <trkpt lat="47.26622" lon="-1.65933">
        <ele>35.4</ele>
        <time>2016-10-09T07:52:58Z</time>
      </trkpt>
      <trkpt lat="47.26612" lon="-1.65935">
        <ele>34.5</ele>
        <time>2016-10-09T07:53:00Z</time>
      </trkpt>
      <trkpt lat="47.26591" lon="-1.65939">
        <ele>32.6</ele>
        <time>2016-10-09T07:53:04Z</time>
      </trkpt>
      <trkpt lat="47.26557" lon="-1.65953">
        <ele>29.3</ele>
        <time>2016-10-09T07:53:11Z</time>
      </trkpt>
      <trkpt lat="47.26547" lon="-1.65958">
        <ele>28.5</ele>
        <time>2016-10-09T07:53:13Z</time>
      </trkpt>
      <trkpt lat="47.26526" lon="-1.65973">
        <ele>25.8</ele>
        <time>2016-10-09T07:53:20Z</time>
      </trkpt>
      <trkpt lat="47.26525" lon="-1.6599">
        <ele>24.8</ele>
        <time>2016-10-09T07:53:23Z</time>
      </trkpt>
      <trkpt lat="47.26535" lon="-1.66032">
        <ele>25.6</ele>
        <time>2016-10-09T07:53:29Z</time>
      </trkpt>
      <trkpt lat="47.26547" lon="-1.66045">
        <ele>25.1</ele>
        <time>2016-10-09T07:53:32Z</time>
      </trkpt>
      <trkpt lat="47.26561" lon="-1.66043">
        <ele>24.9</ele>
        <time>2016-10-09T07:53:34Z</time>
      </trkpt>
      <trkpt lat="47.26575" lon="-1.6605">
        <ele>24.4</ele>
        <time>2016-10-09T07:53:37Z</time>
      </trkpt>
      <trkpt lat="47.2658" lon="-1.6605">
        <ele>24.3</ele>
        <time>2016-10-09T07:53:38Z</time>
      </trkpt>
      <trkpt lat="47.26585" lon="-1.66053">
        <ele>24.3</ele>
        <time>2016-10-09T07:53:39Z</time>
      </trkpt>
      <trkpt lat="47.26612" lon="-1.66068">
        <ele>25</ele>
        <time>2016-10-09T07:53:44Z</time>
      </trkpt>
      <trkpt lat="47.2664" lon="-1.661">
        <ele>26</ele>
        <time>2016-10-09T07:53:51Z</time>
      </trkpt>
      <trkpt lat="47.26644" lon="-1.66118">
        <ele>26.5</ele>
        <time>2016-10-09T07:53:54Z</time>
      </trkpt>
      <trkpt lat="47.26648" lon="-1.66131">
        <ele>26.9</ele>
        <time>2016-10-09T07:53:57Z</time>
      </trkpt>
      <trkpt lat="47.26649" lon="-1.66147">
        <ele>27.4</ele>
        <time>2016-10-09T07:54:00Z</time>
      </trkpt>
      <trkpt lat="47.26655" lon="-1.66152">
        <ele>27.7</ele>
        <time>2016-10-09T07:54:02Z</time>
      </trkpt>
      <trkpt lat="47.2667" lon="-1.6617">
        <ele>29.2</ele>
        <time>2016-10-09T07:54:12Z</time>
      </trkpt>
      <trkpt lat="47.26676" lon="-1.66179">
        <ele>30.8</ele>
        <time>2016-10-09T07:54:17Z</time>
      </trkpt>
      <trkpt lat="47.2668" lon="-1.6622">
        <ele>32.5</ele>
        <time>2016-10-09T07:54:29Z</time>
      </trkpt>
      <trkpt lat="47.26682" lon="-1.66244">
        <ele>33.4</ele>
        <time>2016-10-09T07:54:36Z</time>
      </trkpt>
      <trkpt lat="47.26683" lon="-1.66245">
        <ele>33.8</ele>
        <time>2016-10-09T07:54:39Z</time>
      </trkpt>
      <trkpt lat="47.26685" lon="-1.66248">
        <ele>34.7</ele>
        <time>2016-10-09T07:54:45Z</time>
      </trkpt>
      <trkpt lat="47.2669" lon="-1.66256">
        <ele>36.2</ele>
        <time>2016-10-09T07:55:02Z</time>
      </trkpt>
      <trkpt lat="47.26698" lon="-1.66266">
        <ele>37.8</ele>
        <time>2016-10-09T07:55:23Z</time>
      </trkpt>
      <trkpt lat="47.26709" lon="-1.66262">
        <ele>38.7</ele>
        <time>2016-10-09T07:55:35Z</time>
      </trkpt>
      <trkpt lat="47.26732" lon="-1.66293">
        <ele>40.5</ele>
        <time>2016-10-09T07:55:59Z</time>
      </trkpt>
      <trkpt lat="47.26738" lon="-1.66301">
        <ele>42.2</ele>
        <time>2016-10-09T07:56:05Z</time>
      </trkpt>
      <trkpt lat="47.26741" lon="-1.66305">
        <ele>42.5</ele>
        <time>2016-10-09T07:56:08Z</time>
      </trkpt>
      <trkpt lat="47.26744" lon="-1.66319">
        <ele>43.2</ele>
        <time>2016-10-09T07:56:15Z</time>
      </trkpt>
      <trkpt lat="47.26774" lon="-1.6634">
        <ele>44.2</ele>
        <time>2016-10-09T07:56:25Z</time>
      </trkpt>
      <trkpt lat="47.26786" lon="-1.66349">
        <ele>45</ele>
        <time>2016-10-09T07:56:29Z</time>
      </trkpt>
      <trkpt lat="47.26802" lon="-1.66354">
        <ele>46.2</ele>
        <time>2016-10-09T07:56:35Z</time>
      </trkpt>
      <trkpt lat="47.26832" lon="-1.66363">
        <ele>48.3</ele>
        <time>2016-10-09T07:56:46Z</time>
      </trkpt>
      <trkpt lat="47.26853" lon="-1.66372">
        <ele>49.4</ele>
        <time>2016-10-09T07:56:52Z</time>
      </trkpt>
      <trkpt lat="47.26871" lon="-1.66381">
        <ele>49.7</ele>
        <time>2016-10-09T07:56:57Z</time>
      </trkpt>
      <trkpt lat="47.26895" lon="-1.6643">
        <ele>50.3</ele>
        <time>2016-10-09T07:57:07Z</time>
      </trkpt>
      <trkpt lat="47.26904" lon="-1.6648">
        <ele>50.7</ele>
        <time>2016-10-09T07:57:14Z</time>
      </trkpt>
      <trkpt lat="47.26907" lon="-1.66494">
        <ele>50.8</ele>
        <time>2016-10-09T07:57:16Z</time>
      </trkpt>
      <trkpt lat="47.26925" lon="-1.66511">
        <ele>51</ele>
        <time>2016-10-09T07:57:20Z</time>
      </trkpt>
      <trkpt lat="47.26971" lon="-1.66507">
        <ele>51.6</ele>
        <time>2016-10-09T07:57:31Z</time>
      </trkpt>
      <trkpt lat="47.27019" lon="-1.66511">
        <ele>52.3</ele>
        <time>2016-10-09T07:57:43Z</time>
      </trkpt>
      <trkpt lat="47.27064" lon="-1.66536">
        <ele>52.9</ele>
        <time>2016-10-09T07:57:55Z</time>
      </trkpt>
      <trkpt lat="47.27109" lon="-1.66563">
        <ele>53.5</ele>
        <time>2016-10-09T07:58:06Z</time>
      </trkpt>
      <trkpt lat="47.27151" lon="-1.66593">
        <ele>54.1</ele>
        <time>2016-10-09T07:58:17Z</time>
      </trkpt>
      <trkpt lat="47.2717" lon="-1.66604">
        <ele>54.4</ele>
        <time>2016-10-09T07:58:22Z</time>
      </trkpt>
      <trkpt lat="47.27196" lon="-1.66621">
        <ele>55.6</ele>
        <time>2016-10-09T07:58:29Z</time>
      </trkpt>
      <trkpt lat="47.27216" lon="-1.66626">
        <ele>56.5</ele>
        <time>2016-10-09T07:58:34Z</time>
      </trkpt>
      <trkpt lat="47.27241" lon="-1.66633">
        <ele>57.1</ele>
        <time>2016-10-09T07:58:40Z</time>
      </trkpt>
      <trkpt lat="47.27281" lon="-1.66638">
        <ele>58.2</ele>
        <time>2016-10-09T07:58:50Z</time>
      </trkpt>
      <trkpt lat="47.27289" lon="-1.66639">
        <ele>58.3</ele>
        <time>2016-10-09T07:58:52Z</time>
      </trkpt>
      <trkpt lat="47.27315" lon="-1.66653">
        <ele>58.5</ele>
        <time>2016-10-09T07:58:59Z</time>
      </trkpt>
      <trkpt lat="47.27345" lon="-1.66706">
        <ele>58.8</ele>
        <time>2016-10-09T07:59:08Z</time>
      </trkpt>
      <trkpt lat="47.27383" lon="-1.66755">
        <ele>59.1</ele>
        <time>2016-10-09T07:59:17Z</time>
      </trkpt>
      <trkpt lat="47.27417" lon="-1.66808">
        <ele>59.3</ele>
        <time>2016-10-09T07:59:25Z</time>
      </trkpt>
      <trkpt lat="47.27445" lon="-1.66864">
        <ele>59.6</ele>
        <time>2016-10-09T07:59:34Z</time>
      </trkpt>
      <trkpt lat="47.27463" lon="-1.66901">
        <ele>59.8</ele>
        <time>2016-10-09T07:59:40Z</time>
      </trkpt>
      <trkpt lat="47.27463" lon="-1.66907">
        <ele>59.8</ele>
        <time>2016-10-09T07:59:41Z</time>
      </trkpt>
      <trkpt lat="47.27476" lon="-1.66932">
        <ele>60</ele>
        <time>2016-10-09T07:59:45Z</time>
      </trkpt>
      <trkpt lat="47.27497" lon="-1.66992">
        <ele>60.2</ele>
        <time>2016-10-09T07:59:53Z</time>
      </trkpt>
      <trkpt lat="47.27517" lon="-1.67054">
        <ele>60.5</ele>
        <time>2016-10-09T08:00:03Z</time>
      </trkpt>
      <trkpt lat="47.27528" lon="-1.67086">
        <ele>60.7</ele>
        <time>2016-10-09T08:00:09Z</time>
      </trkpt>
      <trkpt lat="47.27541" lon="-1.67152">
        <ele>61</ele>
        <time>2016-10-09T08:00:18Z</time>
      </trkpt>
      <trkpt lat="47.27545" lon="-1.67173">
        <ele>61.1</ele>
        <time>2016-10-09T08:00:21Z</time>
      </trkpt>
      <trkpt lat="47.27554" lon="-1.67215">
        <ele>61.7</ele>
        <time>2016-10-09T08:00:27Z</time>
      </trkpt>
      <trkpt lat="47.27572" lon="-1.67284">
        <ele>62.8</ele>
        <time>2016-10-09T08:00:37Z</time>
      </trkpt>
      <trkpt lat="47.27575" lon="-1.6729">
        <ele>62.8</ele>
        <time>2016-10-09T08:00:38Z</time>
      </trkpt>
      <trkpt lat="47.27604" lon="-1.6734">
        <ele>62.2</ele>
        <time>2016-10-09T08:00:47Z</time>
      </trkpt>
      <trkpt lat="47.27624" lon="-1.67372">
        <ele>61.9</ele>
        <time>2016-10-09T08:00:53Z</time>
      </trkpt>
      <trkpt lat="47.27623" lon="-1.67383">
        <ele>61.7</ele>
        <time>2016-10-09T08:00:55Z</time>
      </trkpt>
      <trkpt lat="47.27613" lon="-1.67395">
        <ele>61.5</ele>
        <time>2016-10-09T08:00:58Z</time>
      </trkpt>
      <trkpt lat="47.27584" lon="-1.67413">
        <ele>61.2</ele>
        <time>2016-10-09T08:01:04Z</time>
      </trkpt>
      <trkpt lat="47.27546" lon="-1.67447">
        <ele>60.7</ele>
        <time>2016-10-09T08:01:12Z</time>
      </trkpt>
      <trkpt lat="47.27507" lon="-1.67487">
        <ele>60.2</ele>
        <time>2016-10-09T08:01:20Z</time>
      </trkpt>
      <trkpt lat="47.27471" lon="-1.67532">
        <ele>59.7</ele>
        <time>2016-10-09T08:01:28Z</time>
      </trkpt>
      <trkpt lat="47.27434" lon="-1.67579">
        <ele>59.1</ele>
        <time>2016-10-09T08:01:37Z</time>
      </trkpt>
      <trkpt lat="47.27431" lon="-1.6759">
        <ele>59</ele>
        <time>2016-10-09T08:01:39Z</time>
      </trkpt>
      <trkpt lat="47.27439" lon="-1.67621">
        <ele>58.7</ele>
        <time>2016-10-09T08:01:44Z</time>
      </trkpt>
      <trkpt lat="47.27447" lon="-1.67653">
        <ele>59.1</ele>
        <time>2016-10-09T08:01:49Z</time>
      </trkpt>
      <trkpt lat="47.2745" lon="-1.67704">
        <ele>58.8</ele>
        <time>2016-10-09T08:01:56Z</time>
      </trkpt>
      <trkpt lat="47.27464" lon="-1.67725">
        <ele>58.6</ele>
        <time>2016-10-09T08:02:00Z</time>
      </trkpt>
      <trkpt lat="47.27484" lon="-1.67757">
        <ele>58.4</ele>
        <time>2016-10-09T08:02:06Z</time>
      </trkpt>
      <trkpt lat="47.2749" lon="-1.67772">
        <ele>58.3</ele>
        <time>2016-10-09T08:02:08Z</time>
      </trkpt>
      <trkpt lat="47.27501" lon="-1.67843">
        <ele>57.9</ele>
        <time>2016-10-09T08:02:17Z</time>
      </trkpt>
      <trkpt lat="47.27505" lon="-1.67903">
        <ele>57.6</ele>
        <time>2016-10-09T08:02:24Z</time>
      </trkpt>
      <trkpt lat="47.27533" lon="-1.67956">
        <ele>57.3</ele>
        <time>2016-10-09T08:02:31Z</time>
      </trkpt>
      <trkpt lat="47.27562" lon="-1.68009">
        <ele>56.9</ele>
        <time>2016-10-09T08:02:39Z</time>
      </trkpt>
      <trkpt lat="47.27605" lon="-1.6802">
        <ele>56.6</ele>
        <time>2016-10-09T08:02:46Z</time>
      </trkpt>
      <trkpt lat="47.27621" lon="-1.68021">
        <ele>56.5</ele>
        <time>2016-10-09T08:02:49Z</time>
      </trkpt>
      <trkpt lat="47.27627" lon="-1.68033">
        <ele>56.4</ele>
        <time>2016-10-09T08:02:52Z</time>
      </trkpt>
      <trkpt lat="47.27638" lon="-1.68105">
        <ele>56</ele>
        <time>2016-10-09T08:03:01Z</time>
      </trkpt>
      <trkpt lat="47.27639" lon="-1.68113">
        <ele>56</ele>
        <time>2016-10-09T08:03:02Z</time>
      </trkpt>
      <trkpt lat="47.27631" lon="-1.68174">
        <ele>55.7</ele>
        <time>2016-10-09T08:03:09Z</time>
      </trkpt>
      <trkpt lat="47.2765" lon="-1.6822">
        <ele>55.3</ele>
        <time>2016-10-09T08:03:15Z</time>
      </trkpt>
      <trkpt lat="47.27656" lon="-1.68237">
        <ele>54.6</ele>
        <time>2016-10-09T08:03:17Z</time>
      </trkpt>
      <trkpt lat="47.27663" lon="-1.6827">
        <ele>53.6</ele>
        <time>2016-10-09T08:03:20Z</time>
      </trkpt>
      <trkpt lat="47.27665" lon="-1.68295">
        <ele>53.6</ele>
        <time>2016-10-09T08:03:23Z</time>
      </trkpt>
      <trkpt lat="47.27678" lon="-1.68364">
        <ele>53.4</ele>
        <time>2016-10-09T08:03:31Z</time>
      </trkpt>
      <trkpt lat="47.2768" lon="-1.68405">
        <ele>53.3</ele>
        <time>2016-10-09T08:03:36Z</time>
      </trkpt>
      <trkpt lat="47.2769" lon="-1.68432">
        <ele>53.2</ele>
        <time>2016-10-09T08:03:40Z</time>
      </trkpt>
      <trkpt lat="47.27693" lon="-1.68437">
        <ele>53.1</ele>
        <time>2016-10-09T08:03:41Z</time>
      </trkpt>
      <trkpt lat="47.27701" lon="-1.68466">
        <ele>52.1</ele>
        <time>2016-10-09T08:03:45Z</time>
      </trkpt>
      <trkpt lat="47.27708" lon="-1.68477">
        <ele>51.6</ele>
        <time>2016-10-09T08:03:47Z</time>
      </trkpt>
      <trkpt lat="47.27723" lon="-1.68505">
        <ele>50.3</ele>
        <time>2016-10-09T08:03:52Z</time>
      </trkpt>
      <trkpt lat="47.27733" lon="-1.68508">
        <ele>49.6</ele>
        <time>2016-10-09T08:03:55Z</time>
      </trkpt>
      <trkpt lat="47.27735" lon="-1.68512">
        <ele>49.3</ele>
        <time>2016-10-09T08:03:56Z</time>
      </trkpt>
      <trkpt lat="47.27738" lon="-1.68516">
        <ele>49</ele>
        <time>2016-10-09T08:03:57Z</time>
      </trkpt>
      <trkpt lat="47.27754" lon="-1.68537">
        <ele>45.9</ele>
        <time>2016-10-09T08:04:02Z</time>
      </trkpt>
      <trkpt lat="47.27754" lon="-1.68542">
        <ele>45.4</ele>
        <time>2016-10-09T08:04:03Z</time>
      </trkpt>
      <trkpt lat="47.2775" lon="-1.6858">
        <ele>40.2</ele>
        <time>2016-10-09T08:04:12Z</time>
      </trkpt>
      <trkpt lat="47.27746" lon="-1.68584">
        <ele>39.7</ele>
        <time>2016-10-09T08:04:13Z</time>
      </trkpt>
      <trkpt lat="47.27734" lon="-1.68596">
        <ele>38.5</ele>
        <time>2016-10-09T08:04:16Z</time>
      </trkpt>
      <trkpt lat="47.27692" lon="-1.68623">
        <ele>35.7</ele>
        <time>2016-10-09T08:04:23Z</time>
      </trkpt>
      <trkpt lat="47.27691" lon="-1.68624">
        <ele>35.4</ele>
        <time>2016-10-09T08:04:24Z</time>
      </trkpt>
      <trkpt lat="47.27679" lon="-1.68634">
        <ele>34.4</ele>
        <time>2016-10-09T08:04:35Z</time>
      </trkpt>
      <trkpt lat="47.27673" lon="-1.6864">
        <ele>34.2</ele>
        <time>2016-10-09T08:04:41Z</time>
      </trkpt>
      <trkpt lat="47.27652" lon="-1.68658">
        <ele>34.4</ele>
        <time>2016-10-09T08:05:00Z</time>
      </trkpt>
      <trkpt lat="47.27615" lon="-1.6867">
        <ele>34.7</ele>
        <time>2016-10-09T08:05:21Z</time>
      </trkpt>
      <trkpt lat="47.27597" lon="-1.68647">
        <ele>34.9</ele>
        <time>2016-10-09T08:05:38Z</time>
      </trkpt>
      <trkpt lat="47.27567" lon="-1.68593">
        <ele>35.2</ele>
        <time>2016-10-09T08:06:00Z</time>
      </trkpt>
      <trkpt lat="47.27524" lon="-1.68552">
        <ele>35.4</ele>
        <time>2016-10-09T08:06:16Z</time>
      </trkpt>
      <trkpt lat="47.27498" lon="-1.68523">
        <ele>35.6</ele>
        <time>2016-10-09T08:06:29Z</time>
      </trkpt>
      <trkpt lat="47.27493" lon="-1.68514">
        <ele>35.6</ele>
        <time>2016-10-09T08:06:33Z</time>
      </trkpt>
      <trkpt lat="47.27479" lon="-1.6851">
        <ele>35.7</ele>
        <time>2016-10-09T08:06:39Z</time>
      </trkpt>
      <trkpt lat="47.27446" lon="-1.68531">
        <ele>36.1</ele>
        <time>2016-10-09T08:07:14Z</time>
      </trkpt>
      <trkpt lat="47.27456" lon="-1.68545">
        <ele>36.5</ele>
        <time>2016-10-09T08:07:41Z</time>
      </trkpt>
      <trkpt lat="47.27434" lon="-1.68556">
        <ele>36.6</ele>
        <time>2016-10-09T08:07:53Z</time>
      </trkpt>
      <trkpt lat="47.2743" lon="-1.68572">
        <ele>36.7</ele>
        <time>2016-10-09T08:07:58Z</time>
      </trkpt>
      <trkpt lat="47.27433" lon="-1.6858">
        <ele>36.9</ele>
        <time>2016-10-09T08:08:02Z</time>
      </trkpt>
      <trkpt lat="47.27437" lon="-1.68589">
        <ele>39</ele>
        <time>2016-10-09T08:08:07Z</time>
      </trkpt>
      <trkpt lat="47.27445" lon="-1.6861">
        <ele>42.6</ele>
        <time>2016-10-09T08:08:18Z</time>
      </trkpt>
      <trkpt lat="47.27453" lon="-1.68627">
        <ele>44.5</ele>
        <time>2016-10-09T08:08:28Z</time>
      </trkpt>
      <trkpt lat="47.27455" lon="-1.68626">
        <ele>44.7</ele>
        <time>2016-10-09T08:08:29Z</time>
      </trkpt>
      <trkpt lat="47.27461" lon="-1.68618">
        <ele>45.2</ele>
        <time>2016-10-09T08:08:34Z</time>
      </trkpt>
      <trkpt lat="47.2746" lon="-1.68622">
        <ele>46.5</ele>
        <time>2016-10-09T08:08:46Z</time>
      </trkpt>
      <trkpt lat="47.27504" lon="-1.68645">
        <ele>43.2</ele>
        <time>2016-10-09T08:09:26Z</time>
      </trkpt>
      <trkpt lat="47.27519" lon="-1.68655">
        <ele>42.6</ele>
        <time>2016-10-09T08:09:33Z</time>
      </trkpt>
      <trkpt lat="47.27534" lon="-1.68654">
        <ele>42.1</ele>
        <time>2016-10-09T08:09:40Z</time>
      </trkpt>
      <trkpt lat="47.27538" lon="-1.68662">
        <ele>41.5</ele>
        <time>2016-10-09T08:09:46Z</time>
      </trkpt>
      <trkpt lat="47.27541" lon="-1.68669">
        <ele>39.8</ele>
        <time>2016-10-09T08:09:52Z</time>
      </trkpt>
      <trkpt lat="47.27542" lon="-1.6867">
        <ele>39.7</ele>
        <time>2016-10-09T08:09:53Z</time>
      </trkpt>
      <trkpt lat="47.2755" lon="-1.68681">
        <ele>38.6</ele>
        <time>2016-10-09T08:10:03Z</time>
      </trkpt>
      <trkpt lat="47.27559" lon="-1.68694">
        <ele>35.3</ele>
        <time>2016-10-09T08:10:15Z</time>
      </trkpt>
      <trkpt lat="47.27564" lon="-1.687">
        <ele>33.4</ele>
        <time>2016-10-09T08:10:21Z</time>
      </trkpt>
      <trkpt lat="47.27568" lon="-1.68706">
        <ele>32.9</ele>
        <time>2016-10-09T08:10:26Z</time>
      </trkpt>
      <trkpt lat="47.27576" lon="-1.68717">
        <ele>33</ele>
        <time>2016-10-09T08:10:36Z</time>
      </trkpt>
      <trkpt lat="47.27578" lon="-1.68718">
        <ele>33</ele>
        <time>2016-10-09T08:10:37Z</time>
      </trkpt>
      <trkpt lat="47.27619" lon="-1.68739">
        <ele>35.3</ele>
        <time>2016-10-09T08:10:54Z</time>
      </trkpt>
      <trkpt lat="47.27629" lon="-1.68741">
        <ele>36.3</ele>
        <time>2016-10-09T08:11:02Z</time>
      </trkpt>
      <trkpt lat="47.2763" lon="-1.68761">
        <ele>38.1</ele>
        <time>2016-10-09T08:11:16Z</time>
      </trkpt>
      <trkpt lat="47.27631" lon="-1.68777">
        <ele>40.4</ele>
        <time>2016-10-09T08:11:27Z</time>
      </trkpt>
      <trkpt lat="47.27632" lon="-1.68792">
        <ele>43.1</ele>
        <time>2016-10-09T08:11:38Z</time>
      </trkpt>
      <trkpt lat="47.27632" lon="-1.68798">
        <ele>43.3</ele>
        <time>2016-10-09T08:11:42Z</time>
      </trkpt>
      <trkpt lat="47.27637" lon="-1.68801">
        <ele>44.1</ele>
        <time>2016-10-09T08:11:53Z</time>
      </trkpt>
      <trkpt lat="47.27648" lon="-1.68795">
        <ele>44.4</ele>
        <time>2016-10-09T08:11:59Z</time>
      </trkpt>
      <trkpt lat="47.27673" lon="-1.6878">
        <ele>41.5</ele>
        <time>2016-10-09T08:12:13Z</time>
      </trkpt>
      <trkpt lat="47.27679" lon="-1.68738">
        <ele>38.4</ele>
        <time>2016-10-09T08:12:27Z</time>
      </trkpt>
      <trkpt lat="47.27686" lon="-1.68731">
        <ele>36.1</ele>
        <time>2016-10-09T08:12:33Z</time>
      </trkpt>
      <trkpt lat="47.27699" lon="-1.68719">
        <ele>38.8</ele>
        <time>2016-10-09T08:12:44Z</time>
      </trkpt>
      <trkpt lat="47.277" lon="-1.68719">
        <ele>38.8</ele>
        <time>2016-10-09T08:12:45Z</time>
      </trkpt>
      <trkpt lat="47.27706" lon="-1.68725">
        <ele>39.5</ele>
        <time>2016-10-09T08:12:54Z</time>
      </trkpt>
      <trkpt lat="47.27713" lon="-1.68732">
        <ele>41.5</ele>
        <time>2016-10-09T08:13:06Z</time>
      </trkpt>
      <trkpt lat="47.27716" lon="-1.68735">
        <ele>43.3</ele>
        <time>2016-10-09T08:13:11Z</time>
      </trkpt>
      <trkpt lat="47.27717" lon="-1.68737">
        <ele>43.4</ele>
        <time>2016-10-09T08:13:13Z</time>
      </trkpt>
      <trkpt lat="47.27739" lon="-1.6876">
        <ele>44.7</ele>
        <time>2016-10-09T08:13:32Z</time>
      </trkpt>
      <trkpt lat="47.2775" lon="-1.68772">
        <ele>45.3</ele>
        <time>2016-10-09T08:13:41Z</time>
      </trkpt>
      <trkpt lat="47.27753" lon="-1.68785">
        <ele>45.6</ele>
        <time>2016-10-09T08:13:46Z</time>
      </trkpt>
      <trkpt lat="47.2778" lon="-1.68816">
        <ele>46.4</ele>
        <time>2016-10-09T08:13:57Z</time>
      </trkpt>
      <trkpt lat="47.27779" lon="-1.6885">
        <ele>47</ele>
        <time>2016-10-09T08:14:06Z</time>
      </trkpt>
      <trkpt lat="47.27765" lon="-1.68863">
        <ele>47.5</ele>
        <time>2016-10-09T08:14:12Z</time>
      </trkpt>
      <trkpt lat="47.27754" lon="-1.68874">
        <ele>48.8</ele>
        <time>2016-10-09T08:14:17Z</time>
      </trkpt>
      <trkpt lat="47.27753" lon="-1.68877">
        <ele>49.1</ele>
        <time>2016-10-09T08:14:18Z</time>
      </trkpt>
      <trkpt lat="47.27739" lon="-1.68915">
        <ele>50.8</ele>
        <time>2016-10-09T08:14:29Z</time>
      </trkpt>
      <trkpt lat="47.27722" lon="-1.68939">
        <ele>51.5</ele>
        <time>2016-10-09T08:14:37Z</time>
      </trkpt>
      <trkpt lat="47.27712" lon="-1.68943">
        <ele>51.8</ele>
        <time>2016-10-09T08:14:40Z</time>
      </trkpt>
      <trkpt lat="47.27677" lon="-1.6896">
        <ele>52.6</ele>
        <time>2016-10-09T08:14:51Z</time>
      </trkpt>
      <trkpt lat="47.27638" lon="-1.68997">
        <ele>53.8</ele>
        <time>2016-10-09T08:15:06Z</time>
      </trkpt>
      <trkpt lat="47.27591" lon="-1.68995">
        <ele>54.6</ele>
        <time>2016-10-09T08:15:17Z</time>
      </trkpt>
      <trkpt lat="47.27562" lon="-1.68995">
        <ele>55.1</ele>
        <time>2016-10-09T08:15:24Z</time>
      </trkpt>
      <trkpt lat="47.27542" lon="-1.68996">
        <ele>54.9</ele>
        <time>2016-10-09T08:15:29Z</time>
      </trkpt>
      <trkpt lat="47.27496" lon="-1.69006">
        <ele>54.4</ele>
        <time>2016-10-09T08:15:39Z</time>
      </trkpt>
      <trkpt lat="47.2745" lon="-1.69014">
        <ele>53.8</ele>
        <time>2016-10-09T08:15:50Z</time>
      </trkpt>
      <trkpt lat="47.27436" lon="-1.69019">
        <ele>53.6</ele>
        <time>2016-10-09T08:15:54Z</time>
      </trkpt>
      <trkpt lat="47.27436" lon="-1.69027">
        <ele>53.5</ele>
        <time>2016-10-09T08:15:56Z</time>
      </trkpt>
      <trkpt lat="47.27473" lon="-1.69067">
        <ele>53</ele>
        <time>2016-10-09T08:16:06Z</time>
      </trkpt>
      <trkpt lat="47.2751" lon="-1.69107">
        <ele>52.6</ele>
        <time>2016-10-09T08:16:14Z</time>
      </trkpt>
      <trkpt lat="47.27526" lon="-1.6912">
        <ele>52.5</ele>
        <time>2016-10-09T08:16:17Z</time>
      </trkpt>
      <trkpt lat="47.27531" lon="-1.69122">
        <ele>52.4</ele>
        <time>2016-10-09T08:16:18Z</time>
      </trkpt>
      <trkpt lat="47.27543" lon="-1.69128">
        <ele>51.6</ele>
        <time>2016-10-09T08:16:21Z</time>
      </trkpt>
      <trkpt lat="47.27546" lon="-1.69149">
        <ele>50.6</ele>
        <time>2016-10-09T08:16:25Z</time>
      </trkpt>
      <trkpt lat="47.27547" lon="-1.69162">
        <ele>50.1</ele>
        <time>2016-10-09T08:16:27Z</time>
      </trkpt>
      <trkpt lat="47.2756" lon="-1.69175">
        <ele>49.3</ele>
        <time>2016-10-09T08:16:30Z</time>
      </trkpt>
      <trkpt lat="47.27581" lon="-1.69185">
        <ele>48.3</ele>
        <time>2016-10-09T08:16:34Z</time>
      </trkpt>
      <trkpt lat="47.27587" lon="-1.69189">
        <ele>48</ele>
        <time>2016-10-09T08:16:35Z</time>
      </trkpt>
      <trkpt lat="47.27627" lon="-1.69224">
        <ele>46.2</ele>
        <time>2016-10-09T08:16:42Z</time>
      </trkpt>
      <trkpt lat="47.27651" lon="-1.69247">
        <ele>45.2</ele>
        <time>2016-10-09T08:16:46Z</time>
      </trkpt>
      <trkpt lat="47.2767" lon="-1.69263">
        <ele>44.7</ele>
        <time>2016-10-09T08:16:49Z</time>
      </trkpt>
      <trkpt lat="47.27688" lon="-1.69269">
        <ele>44.1</ele>
        <time>2016-10-09T08:16:52Z</time>
      </trkpt>
      <trkpt lat="47.27701" lon="-1.69272">
        <ele>43.2</ele>
        <time>2016-10-09T08:16:54Z</time>
      </trkpt>
      <trkpt lat="47.27719" lon="-1.69269">
        <ele>41.8</ele>
        <time>2016-10-09T08:16:57Z</time>
      </trkpt>
      <trkpt lat="47.27732" lon="-1.6928">
        <ele>39.3</ele>
        <time>2016-10-09T08:17:03Z</time>
      </trkpt>
      <trkpt lat="47.27755" lon="-1.69299">
        <ele>38.9</ele>
        <time>2016-10-09T08:17:14Z</time>
      </trkpt>
      <trkpt lat="47.27761" lon="-1.69305">
        <ele>39.8</ele>
        <time>2016-10-09T08:17:17Z</time>
      </trkpt>
      <trkpt lat="47.27764" lon="-1.69318">
        <ele>40.8</ele>
        <time>2016-10-09T08:17:20Z</time>
      </trkpt>
      <trkpt lat="47.27772" lon="-1.69344">
        <ele>43.2</ele>
        <time>2016-10-09T08:17:26Z</time>
      </trkpt>
      <trkpt lat="47.27779" lon="-1.69366">
        <ele>45.3</ele>
        <time>2016-10-09T08:17:31Z</time>
      </trkpt>
      <trkpt lat="47.2778" lon="-1.69371">
        <ele>45.5</ele>
        <time>2016-10-09T08:17:32Z</time>
      </trkpt>
      <trkpt lat="47.27775" lon="-1.69429">
        <ele>48.4</ele>
        <time>2016-10-09T08:17:42Z</time>
      </trkpt>
      <trkpt lat="47.27775" lon="-1.69441">
        <ele>48.7</ele>
        <time>2016-10-09T08:17:44Z</time>
      </trkpt>
      <trkpt lat="47.27775" lon="-1.69494">
        <ele>50.1</ele>
        <time>2016-10-09T08:17:53Z</time>
      </trkpt>
      <trkpt lat="47.27775" lon="-1.69512">
        <ele>50.4</ele>
        <time>2016-10-09T08:17:56Z</time>
      </trkpt>
      <trkpt lat="47.27777" lon="-1.69531">
        <ele>50.7</ele>
        <time>2016-10-09T08:17:59Z</time>
      </trkpt>
      <trkpt lat="47.27783" lon="-1.69581">
        <ele>51.5</ele>
        <time>2016-10-09T08:18:07Z</time>
      </trkpt>
      <trkpt lat="47.27788" lon="-1.69599">
        <ele>51.8</ele>
        <time>2016-10-09T08:18:10Z</time>
      </trkpt>
      <trkpt lat="47.278" lon="-1.69641">
        <ele>52.7</ele>
        <time>2016-10-09T08:18:17Z</time>
      </trkpt>
      <trkpt lat="47.27806" lon="-1.69643">
        <ele>53</ele>
        <time>2016-10-09T08:18:19Z</time>
      </trkpt>
      <trkpt lat="47.27823" lon="-1.69644">
        <ele>53.7</ele>
        <time>2016-10-09T08:18:24Z</time>
      </trkpt>
      <trkpt lat="47.27824" lon="-1.69647">
        <ele>54.1</ele>
        <time>2016-10-09T08:18:27Z</time>
      </trkpt>
      <trkpt lat="47.27826" lon="-1.69652">
        <ele>54.3</ele>
        <time>2016-10-09T08:18:32Z</time>
      </trkpt>
      <trkpt lat="47.27828" lon="-1.69657">
        <ele>54.4</ele>
        <time>2016-10-09T08:18:37Z</time>
      </trkpt>
      <trkpt lat="47.27828" lon="-1.69657">
        <ele>54.5</ele>
        <time>2016-10-09T08:18:50Z</time>
      </trkpt>
      <trkpt lat="47.27828" lon="-1.69657">
        <ele>58.5</ele>
        <time>2016-10-09T08:21:37Z</time>
      </trkpt>
      <trkpt lat="47.27827" lon="-1.69657">
        <ele>58.6</ele>
        <time>2016-10-09T08:21:42Z</time>
      </trkpt>
      <trkpt lat="47.27858" lon="-1.69686">
        <ele>59.6</ele>
        <time>2016-10-09T08:22:14Z</time>
      </trkpt>
      <trkpt lat="47.27904" lon="-1.69678">
        <ele>60</ele>
        <time>2016-10-09T08:22:25Z</time>
      </trkpt>
      <trkpt lat="47.27934" lon="-1.69664">
        <ele>60.1</ele>
        <time>2016-10-09T08:22:31Z</time>
      </trkpt>
      <trkpt lat="47.27942" lon="-1.6967">
        <ele>60.2</ele>
        <time>2016-10-09T08:22:33Z</time>
      </trkpt>
      <trkpt lat="47.27951" lon="-1.69691">
        <ele>60.3</ele>
        <time>2016-10-09T08:22:37Z</time>
      </trkpt>
      <trkpt lat="47.27966" lon="-1.69719">
        <ele>60.5</ele>
        <time>2016-10-09T08:22:43Z</time>
      </trkpt>
      <trkpt lat="47.27999" lon="-1.69721">
        <ele>60.7</ele>
        <time>2016-10-09T08:22:50Z</time>
      </trkpt>
      <trkpt lat="47.28006" lon="-1.69728">
        <ele>60.8</ele>
        <time>2016-10-09T08:22:52Z</time>
      </trkpt>
      <trkpt lat="47.28027" lon="-1.69788">
        <ele>61.1</ele>
        <time>2016-10-09T08:23:01Z</time>
      </trkpt>
      <trkpt lat="47.28045" lon="-1.6985">
        <ele>61.3</ele>
        <time>2016-10-09T08:23:10Z</time>
      </trkpt>
      <trkpt lat="47.28055" lon="-1.69891">
        <ele>61.6</ele>
        <time>2016-10-09T08:23:16Z</time>
      </trkpt>
      <trkpt lat="47.28062" lon="-1.69918">
        <ele>62.1</ele>
        <time>2016-10-09T08:23:20Z</time>
      </trkpt>
      <trkpt lat="47.28077" lon="-1.69978">
        <ele>63.4</ele>
        <time>2016-10-09T08:23:29Z</time>
      </trkpt>
      <trkpt lat="47.28089" lon="-1.70048">
        <ele>64.9</ele>
        <time>2016-10-09T08:23:39Z</time>
      </trkpt>
      <trkpt lat="47.28098" lon="-1.70062">
        <ele>65.3</ele>
        <time>2016-10-09T08:23:42Z</time>
      </trkpt>
      <trkpt lat="47.28103" lon="-1.70064">
        <ele>65.4</ele>
        <time>2016-10-09T08:23:43Z</time>
      </trkpt>
      <trkpt lat="47.28135" lon="-1.70078">
        <ele>65.6</ele>
        <time>2016-10-09T08:23:49Z</time>
      </trkpt>
      <trkpt lat="47.28145" lon="-1.70083">
        <ele>65.7</ele>
        <time>2016-10-09T08:23:51Z</time>
      </trkpt>
      <trkpt lat="47.28194" lon="-1.701">
        <ele>66.2</ele>
        <time>2016-10-09T08:23:59Z</time>
      </trkpt>
      <trkpt lat="47.28231" lon="-1.70116">
        <ele>66.6</ele>
        <time>2016-10-09T08:24:05Z</time>
      </trkpt>
      <trkpt lat="47.28266" lon="-1.70167">
        <ele>67.2</ele>
        <time>2016-10-09T08:24:14Z</time>
      </trkpt>
      <trkpt lat="47.28293" lon="-1.70217">
        <ele>67.7</ele>
        <time>2016-10-09T08:24:23Z</time>
      </trkpt>
      <trkpt lat="47.28304" lon="-1.70233">
        <ele>68</ele>
        <time>2016-10-09T08:24:27Z</time>
      </trkpt>
      <trkpt lat="47.2832" lon="-1.70258">
        <ele>69.3</ele>
        <time>2016-10-09T08:24:33Z</time>
      </trkpt>
      <trkpt lat="47.28325" lon="-1.70266">
        <ele>69.6</ele>
        <time>2016-10-09T08:24:35Z</time>
      </trkpt>
      <trkpt lat="47.28333" lon="-1.7028">
        <ele>69.9</ele>
        <time>2016-10-09T08:24:38Z</time>
      </trkpt>
      <trkpt lat="47.28336" lon="-1.70285">
        <ele>70</ele>
        <time>2016-10-09T08:24:39Z</time>
      </trkpt>
      <trkpt lat="47.28352" lon="-1.70303">
        <ele>70.2</ele>
        <time>2016-10-09T08:24:43Z</time>
      </trkpt>
      <trkpt lat="47.28373" lon="-1.70338">
        <ele>70.6</ele>
        <time>2016-10-09T08:24:49Z</time>
      </trkpt>
      <trkpt lat="47.28383" lon="-1.70355">
        <ele>70.5</ele>
        <time>2016-10-09T08:24:52Z</time>
      </trkpt>
      <trkpt lat="47.28415" lon="-1.70405">
        <ele>70.3</ele>
        <time>2016-10-09T08:25:01Z</time>
      </trkpt>
      <trkpt lat="47.28415" lon="-1.70416">
        <ele>70.3</ele>
        <time>2016-10-09T08:25:03Z</time>
      </trkpt>
      <trkpt lat="47.28383" lon="-1.70472">
        <ele>70</ele>
        <time>2016-10-09T08:25:14Z</time>
      </trkpt>
      <trkpt lat="47.28368" lon="-1.70501">
        <ele>69.9</ele>
        <time>2016-10-09T08:25:19Z</time>
      </trkpt>
      <trkpt lat="47.28369" lon="-1.70523">
        <ele>69.8</ele>
        <time>2016-10-09T08:25:23Z</time>
      </trkpt>
      <trkpt lat="47.28374" lon="-1.70528">
        <ele>69.8</ele>
        <time>2016-10-09T08:25:25Z</time>
      </trkpt>
      <trkpt lat="47.28422" lon="-1.70519">
        <ele>69.6</ele>
        <time>2016-10-09T08:25:36Z</time>
      </trkpt>
      <trkpt lat="47.28468" lon="-1.70523">
        <ele>69.3</ele>
        <time>2016-10-09T08:25:46Z</time>
      </trkpt>
      <trkpt lat="47.28514" lon="-1.70528">
        <ele>69.1</ele>
        <time>2016-10-09T08:25:55Z</time>
      </trkpt>
      <trkpt lat="47.28564" lon="-1.70537">
        <ele>68.9</ele>
        <time>2016-10-09T08:26:04Z</time>
      </trkpt>
      <trkpt lat="47.28611" lon="-1.70543">
        <ele>68.7</ele>
        <time>2016-10-09T08:26:12Z</time>
      </trkpt>
      <trkpt lat="47.28661" lon="-1.70548">
        <ele>68.6</ele>
        <time>2016-10-09T08:26:20Z</time>
      </trkpt>
      <trkpt lat="47.28708" lon="-1.70558">
        <ele>68.4</ele>
        <time>2016-10-09T08:26:28Z</time>
      </trkpt>
      <trkpt lat="47.28729" lon="-1.70564">
        <ele>68.3</ele>
        <time>2016-10-09T08:26:31Z</time>
      </trkpt>
      <trkpt lat="47.28755" lon="-1.70572">
        <ele>68</ele>
        <time>2016-10-09T08:26:35Z</time>
      </trkpt>
      <trkpt lat="47.28793" lon="-1.70593">
        <ele>67.6</ele>
        <time>2016-10-09T08:26:42Z</time>
      </trkpt>
      <trkpt lat="47.28798" lon="-1.70597">
        <ele>67.8</ele>
        <time>2016-10-09T08:26:43Z</time>
      </trkpt>
      <trkpt lat="47.28831" lon="-1.70628">
        <ele>69.3</ele>
        <time>2016-10-09T08:26:51Z</time>
      </trkpt>
      <trkpt lat="47.28864" lon="-1.70667">
        <ele>71</ele>
        <time>2016-10-09T08:27:00Z</time>
      </trkpt>
      <trkpt lat="47.28868" lon="-1.70672">
        <ele>71.2</ele>
        <time>2016-10-09T08:27:01Z</time>
      </trkpt>
      <trkpt lat="47.28894" lon="-1.70729">
        <ele>72.7</ele>
        <time>2016-10-09T08:27:11Z</time>
      </trkpt>
      <trkpt lat="47.28903" lon="-1.70762">
        <ele>73.5</ele>
        <time>2016-10-09T08:27:16Z</time>
      </trkpt>
      <trkpt lat="47.28907" lon="-1.70766">
        <ele>73.7</ele>
        <time>2016-10-09T08:27:17Z</time>
      </trkpt>
      <trkpt lat="47.28917" lon="-1.70787">
        <ele>74.3</ele>
        <time>2016-10-09T08:27:21Z</time>
      </trkpt>
      <trkpt lat="47.28933" lon="-1.70818">
        <ele>74.8</ele>
        <time>2016-10-09T08:27:27Z</time>
      </trkpt>
      <trkpt lat="47.28959" lon="-1.70833">
        <ele>75.2</ele>
        <time>2016-10-09T08:27:33Z</time>
      </trkpt>
      <trkpt lat="47.28964" lon="-1.70835">
        <ele>75</ele>
        <time>2016-10-09T08:27:34Z</time>
      </trkpt>
      <trkpt lat="47.29006" lon="-1.70845">
        <ele>73.6</ele>
        <time>2016-10-09T08:27:41Z</time>
      </trkpt>
      <trkpt lat="47.29045" lon="-1.70825">
        <ele>72.3</ele>
        <time>2016-10-09T08:27:48Z</time>
      </trkpt>
      <trkpt lat="47.29062" lon="-1.70798">
        <ele>71.5</ele>
        <time>2016-10-09T08:27:52Z</time>
      </trkpt>
      <trkpt lat="47.29067" lon="-1.70791">
        <ele>71.4</ele>
        <time>2016-10-09T08:27:53Z</time>
      </trkpt>
      <trkpt lat="47.29097" lon="-1.70751">
        <ele>71.7</ele>
        <time>2016-10-09T08:27:59Z</time>
      </trkpt>
      <trkpt lat="47.29122" lon="-1.70733">
        <ele>69.9</ele>
        <time>2016-10-09T08:28:04Z</time>
      </trkpt>
      <trkpt lat="47.29158" lon="-1.70719">
        <ele>67.7</ele>
        <time>2016-10-09T08:28:10Z</time>
      </trkpt>
      <trkpt lat="47.29163" lon="-1.70716">
        <ele>67.3</ele>
        <time>2016-10-09T08:28:11Z</time>
      </trkpt>
      <trkpt lat="47.29169" lon="-1.70713">
        <ele>66.9</ele>
        <time>2016-10-09T08:28:12Z</time>
      </trkpt>
      <trkpt lat="47.29199" lon="-1.70705">
        <ele>64.9</ele>
        <time>2016-10-09T08:28:17Z</time>
      </trkpt>
      <trkpt lat="47.2921" lon="-1.707">
        <ele>64.2</ele>
        <time>2016-10-09T08:28:19Z</time>
      </trkpt>
      <trkpt lat="47.29226" lon="-1.70679">
        <ele>62.9</ele>
        <time>2016-10-09T08:28:23Z</time>
      </trkpt>
      <trkpt lat="47.29241" lon="-1.70648">
        <ele>61.6</ele>
        <time>2016-10-09T08:28:27Z</time>
      </trkpt>
      <trkpt lat="47.29257" lon="-1.70618">
        <ele>61.1</ele>
        <time>2016-10-09T08:28:31Z</time>
      </trkpt>
      <trkpt lat="47.2929" lon="-1.70575">
        <ele>60.2</ele>
        <time>2016-10-09T08:28:38Z</time>
      </trkpt>
      <trkpt lat="47.2929" lon="-1.70575">
        <ele>60.2</ele>
        <time>2016-10-09T08:28:39Z</time>
      </trkpt>
      <trkpt lat="47.29293" lon="-1.70571">
        <ele>60.4</ele>
        <time>2016-10-09T08:28:45Z</time>
      </trkpt>
      <trkpt lat="47.29301" lon="-1.70562">
        <ele>61.5</ele>
        <time>2016-10-09T08:29:00Z</time>
      </trkpt>
      <trkpt lat="47.29333" lon="-1.70615">
        <ele>62.4</ele>
        <time>2016-10-09T08:29:13Z</time>
      </trkpt>
      <trkpt lat="47.29366" lon="-1.70663">
        <ele>63.2</ele>
        <time>2016-10-09T08:29:25Z</time>
      </trkpt>
      <trkpt lat="47.29398" lon="-1.70706">
        <ele>64</ele>
        <time>2016-10-09T08:29:36Z</time>
      </trkpt>
      <trkpt lat="47.29401" lon="-1.70709">
        <ele>63.8</ele>
        <time>2016-10-09T08:29:37Z</time>
      </trkpt>
      <trkpt lat="47.29437" lon="-1.70701">
        <ele>61.4</ele>
        <time>2016-10-09T08:29:48Z</time>
      </trkpt>
      <trkpt lat="47.29442" lon="-1.70698">
        <ele>60.9</ele>
        <time>2016-10-09T08:29:50Z</time>
      </trkpt>
      <trkpt lat="47.29446" lon="-1.70707">
        <ele>60.5</ele>
        <time>2016-10-09T08:29:52Z</time>
      </trkpt>
      <trkpt lat="47.29469" lon="-1.70748">
        <ele>60.1</ele>
        <time>2016-10-09T08:30:02Z</time>
      </trkpt>
      <trkpt lat="47.29479" lon="-1.70775">
        <ele>59.7</ele>
        <time>2016-10-09T08:30:08Z</time>
      </trkpt>
      <trkpt lat="47.29493" lon="-1.7081">
        <ele>57.9</ele>
        <time>2016-10-09T08:30:16Z</time>
      </trkpt>
      <trkpt lat="47.295" lon="-1.70825">
        <ele>57.3</ele>
        <time>2016-10-09T08:30:19Z</time>
      </trkpt>
      <trkpt lat="47.29519" lon="-1.70868">
        <ele>57</ele>
        <time>2016-10-09T08:30:28Z</time>
      </trkpt>
      <trkpt lat="47.29537" lon="-1.70909">
        <ele>56.6</ele>
        <time>2016-10-09T08:30:36Z</time>
      </trkpt>
      <trkpt lat="47.29547" lon="-1.70931">
        <ele>56.2</ele>
        <time>2016-10-09T08:30:40Z</time>
      </trkpt>
      <trkpt lat="47.29571" lon="-1.70993">
        <ele>55.1</ele>
        <time>2016-10-09T08:30:49Z</time>
      </trkpt>
      <trkpt lat="47.29601" lon="-1.71052">
        <ele>54.2</ele>
        <time>2016-10-09T08:30:57Z</time>
      </trkpt>
      <trkpt lat="47.29624" lon="-1.71104">
        <ele>53.3</ele>
        <time>2016-10-09T08:31:04Z</time>
      </trkpt>
      <trkpt lat="47.29631" lon="-1.71113">
        <ele>52.2</ele>
        <time>2016-10-09T08:31:07Z</time>
      </trkpt>
      <trkpt lat="47.29631" lon="-1.7112">
        <ele>50.7</ele>
        <time>2016-10-09T08:31:11Z</time>
      </trkpt>
      <trkpt lat="47.29638" lon="-1.71124">
        <ele>49.3</ele>
        <time>2016-10-09T08:31:15Z</time>
      </trkpt>
      <trkpt lat="47.29657" lon="-1.71135">
        <ele>47.9</ele>
        <time>2016-10-09T08:31:26Z</time>
      </trkpt>
      <trkpt lat="47.29666" lon="-1.7114">
        <ele>48</ele>
        <time>2016-10-09T08:31:31Z</time>
      </trkpt>
      <trkpt lat="47.29674" lon="-1.71145">
        <ele>48.2</ele>
        <time>2016-10-09T08:31:36Z</time>
      </trkpt>
      <trkpt lat="47.2969" lon="-1.71151">
        <ele>48.5</ele>
        <time>2016-10-09T08:31:45Z</time>
      </trkpt>
      <trkpt lat="47.29686" lon="-1.71218">
        <ele>49.4</ele>
        <time>2016-10-09T08:32:08Z</time>
      </trkpt>
      <trkpt lat="47.29649" lon="-1.71257">
        <ele>50.1</ele>
        <time>2016-10-09T08:32:27Z</time>
      </trkpt>
      <trkpt lat="47.29633" lon="-1.71268">
        <ele>50.3</ele>
        <time>2016-10-09T08:32:32Z</time>
      </trkpt>
      <trkpt lat="47.29616" lon="-1.71307">
        <ele>50.8</ele>
        <time>2016-10-09T08:32:43Z</time>
      </trkpt>
      <trkpt lat="47.29609" lon="-1.71325">
        <ele>52.6</ele>
        <time>2016-10-09T08:32:48Z</time>
      </trkpt>
      <trkpt lat="47.29605" lon="-1.71342">
        <ele>54.6</ele>
        <time>2016-10-09T08:32:54Z</time>
      </trkpt>
      <trkpt lat="47.29594" lon="-1.7139">
        <ele>58.5</ele>
        <time>2016-10-09T08:33:11Z</time>
      </trkpt>
      <trkpt lat="47.29585" lon="-1.71456">
        <ele>60</ele>
        <time>2016-10-09T08:33:26Z</time>
      </trkpt>
      <trkpt lat="47.29584" lon="-1.71466">
        <ele>60.3</ele>
        <time>2016-10-09T08:33:28Z</time>
      </trkpt>
      <trkpt lat="47.29577" lon="-1.71524">
        <ele>61.8</ele>
        <time>2016-10-09T08:33:40Z</time>
      </trkpt>
      <trkpt lat="47.29572" lon="-1.71542">
        <ele>62.3</ele>
        <time>2016-10-09T08:33:44Z</time>
      </trkpt>
      <trkpt lat="47.29567" lon="-1.71564">
        <ele>62.9</ele>
        <time>2016-10-09T08:33:49Z</time>
      </trkpt>
      <trkpt lat="47.29584" lon="-1.71614">
        <ele>64</ele>
        <time>2016-10-09T08:33:59Z</time>
      </trkpt>
      <trkpt lat="47.29587" lon="-1.71624">
        <ele>64.2</ele>
        <time>2016-10-09T08:34:01Z</time>
      </trkpt>
      <trkpt lat="47.29593" lon="-1.71648">
        <ele>64.7</ele>
        <time>2016-10-09T08:34:06Z</time>
      </trkpt>
      <trkpt lat="47.29595" lon="-1.71657">
        <ele>64.8</ele>
        <time>2016-10-09T08:34:08Z</time>
      </trkpt>
      <trkpt lat="47.2959" lon="-1.71663">
        <ele>64.9</ele>
        <time>2016-10-09T08:34:10Z</time>
      </trkpt>
      <trkpt lat="47.29557" lon="-1.71664">
        <ele>65.2</ele>
        <time>2016-10-09T08:34:17Z</time>
      </trkpt>
      <trkpt lat="47.29522" lon="-1.71681">
        <ele>65.6</ele>
        <time>2016-10-09T08:34:25Z</time>
      </trkpt>
      <trkpt lat="47.29521" lon="-1.71689">
        <ele>65.7</ele>
        <time>2016-10-09T08:34:27Z</time>
      </trkpt>
      <trkpt lat="47.29547" lon="-1.71747">
        <ele>66.3</ele>
        <time>2016-10-09T08:34:40Z</time>
      </trkpt>
      <trkpt lat="47.29567" lon="-1.71798">
        <ele>66.8</ele>
        <time>2016-10-09T08:34:49Z</time>
      </trkpt>
      <trkpt lat="47.29571" lon="-1.71809">
        <ele>67</ele>
        <time>2016-10-09T08:34:51Z</time>
      </trkpt>
      <trkpt lat="47.29588" lon="-1.7186">
        <ele>67.6</ele>
        <time>2016-10-09T08:34:59Z</time>
      </trkpt>
      <trkpt lat="47.29592" lon="-1.71873">
        <ele>67.8</ele>
        <time>2016-10-09T08:35:01Z</time>
      </trkpt>
      <trkpt lat="47.296" lon="-1.71933">
        <ele>68.2</ele>
        <time>2016-10-09T08:35:09Z</time>
      </trkpt>
      <trkpt lat="47.29596" lon="-1.72007">
        <ele>68.7</ele>
        <time>2016-10-09T08:35:19Z</time>
      </trkpt>
      <trkpt lat="47.29595" lon="-1.72078">
        <ele>69.2</ele>
        <time>2016-10-09T08:35:28Z</time>
      </trkpt>
      <trkpt lat="47.29576" lon="-1.72131">
        <ele>69.6</ele>
        <time>2016-10-09T08:35:36Z</time>
      </trkpt>
      <trkpt lat="47.29543" lon="-1.72178">
        <ele>70</ele>
        <time>2016-10-09T08:35:45Z</time>
      </trkpt>
      <trkpt lat="47.29507" lon="-1.72227">
        <ele>70.5</ele>
        <time>2016-10-09T08:35:54Z</time>
      </trkpt>
      <trkpt lat="47.29481" lon="-1.72283">
        <ele>71</ele>
        <time>2016-10-09T08:36:03Z</time>
      </trkpt>
      <trkpt lat="47.29458" lon="-1.72343">
        <ele>71.4</ele>
        <time>2016-10-09T08:36:12Z</time>
      </trkpt>
      <trkpt lat="47.29455" lon="-1.72348">
        <ele>71.5</ele>
        <time>2016-10-09T08:36:13Z</time>
      </trkpt>
      <trkpt lat="47.29446" lon="-1.72363">
        <ele>71.8</ele>
        <time>2016-10-09T08:36:16Z</time>
      </trkpt>
      <trkpt lat="47.29417" lon="-1.72383">
        <ele>72.5</ele>
        <time>2016-10-09T08:36:23Z</time>
      </trkpt>
      <trkpt lat="47.2939" lon="-1.72391">
        <ele>73</ele>
        <time>2016-10-09T08:36:29Z</time>
      </trkpt>
      <trkpt lat="47.29377" lon="-1.72395">
        <ele>73.1</ele>
        <time>2016-10-09T08:36:32Z</time>
      </trkpt>
      <trkpt lat="47.29335" lon="-1.72426">
        <ele>73.5</ele>
        <time>2016-10-09T08:36:42Z</time>
      </trkpt>
      <trkpt lat="47.29335" lon="-1.72459">
        <ele>73.7</ele>
        <time>2016-10-09T08:36:47Z</time>
      </trkpt>
      <trkpt lat="47.29347" lon="-1.72527">
        <ele>74.1</ele>
        <time>2016-10-09T08:36:57Z</time>
      </trkpt>
      <trkpt lat="47.29359" lon="-1.72598">
        <ele>74.5</ele>
        <time>2016-10-09T08:37:07Z</time>
      </trkpt>
      <trkpt lat="47.29375" lon="-1.72667">
        <ele>75</ele>
        <time>2016-10-09T08:37:19Z</time>
      </trkpt>
      <trkpt lat="47.29395" lon="-1.72731">
        <ele>75.4</ele>
        <time>2016-10-09T08:37:29Z</time>
      </trkpt>
      <trkpt lat="47.29412" lon="-1.72793">
        <ele>75.7</ele>
        <time>2016-10-09T08:37:39Z</time>
      </trkpt>
      <trkpt lat="47.29432" lon="-1.72852">
        <ele>76.1</ele>
        <time>2016-10-09T08:37:48Z</time>
      </trkpt>
      <trkpt lat="47.29443" lon="-1.72886">
        <ele>76.3</ele>
        <time>2016-10-09T08:37:53Z</time>
      </trkpt>
      <trkpt lat="47.29452" lon="-1.72914">
        <ele>75.9</ele>
        <time>2016-10-09T08:37:57Z</time>
      </trkpt>
      <trkpt lat="47.29454" lon="-1.72933">
        <ele>75.7</ele>
        <time>2016-10-09T08:38:00Z</time>
      </trkpt>
      <trkpt lat="47.2945" lon="-1.72941">
        <ele>75.5</ele>
        <time>2016-10-09T08:38:02Z</time>
      </trkpt>
      <trkpt lat="47.29404" lon="-1.72958">
        <ele>74.7</ele>
        <time>2016-10-09T08:38:11Z</time>
      </trkpt>
      <trkpt lat="47.2937" lon="-1.72976">
        <ele>74.2</ele>
        <time>2016-10-09T08:38:17Z</time>
      </trkpt>
      <trkpt lat="47.29339" lon="-1.73034">
        <ele>73.5</ele>
        <time>2016-10-09T08:38:26Z</time>
      </trkpt>
      <trkpt lat="47.29328" lon="-1.73055">
        <ele>73.2</ele>
        <time>2016-10-09T08:38:29Z</time>
      </trkpt>
      <trkpt lat="47.29319" lon="-1.73067">
        <ele>73.1</ele>
        <time>2016-10-09T08:38:31Z</time>
      </trkpt>
      <trkpt lat="47.29317" lon="-1.73075">
        <ele>72.9</ele>
        <time>2016-10-09T08:38:32Z</time>
      </trkpt>
      <trkpt lat="47.29308" lon="-1.73098">
        <ele>72.3</ele>
        <time>2016-10-09T08:38:35Z</time>
      </trkpt>
      <trkpt lat="47.29297" lon="-1.73119">
        <ele>71.7</ele>
        <time>2016-10-09T08:38:38Z</time>
      </trkpt>
      <trkpt lat="47.29278" lon="-1.73155">
        <ele>71.8</ele>
        <time>2016-10-09T08:38:43Z</time>
      </trkpt>
      <trkpt lat="47.29275" lon="-1.73162">
        <ele>71.8</ele>
        <time>2016-10-09T08:38:44Z</time>
      </trkpt>
      <trkpt lat="47.29251" lon="-1.73211">
        <ele>71.9</ele>
        <time>2016-10-09T08:38:51Z</time>
      </trkpt>
      <trkpt lat="47.29225" lon="-1.73276">
        <ele>72</ele>
        <time>2016-10-09T08:39:00Z</time>
      </trkpt>
      <trkpt lat="47.29209" lon="-1.73308">
        <ele>72</ele>
        <time>2016-10-09T08:39:04Z</time>
      </trkpt>
      <trkpt lat="47.29185" lon="-1.73374">
        <ele>72.1</ele>
        <time>2016-10-09T08:39:12Z</time>
      </trkpt>
      <trkpt lat="47.2917" lon="-1.7341">
        <ele>72.2</ele>
        <time>2016-10-09T08:39:17Z</time>
      </trkpt>
      <trkpt lat="47.29158" lon="-1.73412">
        <ele>72.2</ele>
        <time>2016-10-09T08:39:20Z</time>
      </trkpt>
      <trkpt lat="47.29148" lon="-1.73402">
        <ele>72.3</ele>
        <time>2016-10-09T08:39:23Z</time>
      </trkpt>
      <trkpt lat="47.29143" lon="-1.73394">
        <ele>72.3</ele>
        <time>2016-10-09T08:39:24Z</time>
      </trkpt>
      <trkpt lat="47.29125" lon="-1.7338">
        <ele>72.3</ele>
        <time>2016-10-09T08:39:28Z</time>
      </trkpt>
      <trkpt lat="47.29088" lon="-1.73339">
        <ele>72.4</ele>
        <time>2016-10-09T08:39:37Z</time>
      </trkpt>
      <trkpt lat="47.29062" lon="-1.73318">
        <ele>72.5</ele>
        <time>2016-10-09T08:39:42Z</time>
      </trkpt>
      <trkpt lat="47.2904" lon="-1.73297">
        <ele>72.5</ele>
        <time>2016-10-09T08:39:47Z</time>
      </trkpt>
      <trkpt lat="47.29034" lon="-1.73298">
        <ele>72.6</ele>
        <time>2016-10-09T08:39:49Z</time>
      </trkpt>
      <trkpt lat="47.2902" lon="-1.73328">
        <ele>72.7</ele>
        <time>2016-10-09T08:39:56Z</time>
      </trkpt>
      <trkpt lat="47.28988" lon="-1.73376">
        <ele>72.7</ele>
        <time>2016-10-09T08:40:03Z</time>
      </trkpt>
      <trkpt lat="47.28955" lon="-1.73431">
        <ele>72.8</ele>
        <time>2016-10-09T08:40:12Z</time>
      </trkpt>
      <trkpt lat="47.28925" lon="-1.73481">
        <ele>72.9</ele>
        <time>2016-10-09T08:40:20Z</time>
      </trkpt>
      <trkpt lat="47.28891" lon="-1.73535">
        <ele>73</ele>
        <time>2016-10-09T08:40:29Z</time>
      </trkpt>
      <trkpt lat="47.28859" lon="-1.7359">
        <ele>73.2</ele>
        <time>2016-10-09T08:40:38Z</time>
      </trkpt>
      <trkpt lat="47.28844" lon="-1.73613">
        <ele>73.2</ele>
        <time>2016-10-09T08:40:42Z</time>
      </trkpt>
      <trkpt lat="47.28821" lon="-1.73652">
        <ele>73.3</ele>
        <time>2016-10-09T08:40:53Z</time>
      </trkpt>
      <trkpt lat="47.2882" lon="-1.73647">
        <ele>73.4</ele>
        <time>2016-10-09T08:40:56Z</time>
      </trkpt>
      <trkpt lat="47.28817" lon="-1.73646">
        <ele>73.4</ele>
        <time>2016-10-09T08:40:57Z</time>
      </trkpt>
      <trkpt lat="47.28816" lon="-1.73646">
        <ele>73.4</ele>
        <time>2016-10-09T08:40:58Z</time>
      </trkpt>
      <trkpt lat="47.28804" lon="-1.7366">
        <ele>73.5</ele>
        <time>2016-10-09T08:41:04Z</time>
      </trkpt>
      <trkpt lat="47.28792" lon="-1.73651">
        <ele>73.5</ele>
        <time>2016-10-09T08:41:07Z</time>
      </trkpt>
      <trkpt lat="47.28781" lon="-1.73656">
        <ele>73.5</ele>
        <time>2016-10-09T08:41:08Z</time>
      </trkpt>
      <trkpt lat="47.28793" lon="-1.73704">
        <ele>73.6</ele>
        <time>2016-10-09T08:41:13Z</time>
      </trkpt>
      <trkpt lat="47.28757" lon="-1.73743">
        <ele>73.8</ele>
        <time>2016-10-09T08:41:26Z</time>
      </trkpt>
      <trkpt lat="47.28754" lon="-1.73746">
        <ele>73.8</ele>
        <time>2016-10-09T08:41:27Z</time>
      </trkpt>
      <trkpt lat="47.28718" lon="-1.73788">
        <ele>75</ele>
        <time>2016-10-09T08:41:40Z</time>
      </trkpt>
      <trkpt lat="47.28688" lon="-1.73833">
        <ele>75.8</ele>
        <time>2016-10-09T08:41:49Z</time>
      </trkpt>
      <trkpt lat="47.28684" lon="-1.73838">
        <ele>75.8</ele>
        <time>2016-10-09T08:41:50Z</time>
      </trkpt>
      <trkpt lat="47.28651" lon="-1.73883">
        <ele>75.6</ele>
        <time>2016-10-09T08:41:59Z</time>
      </trkpt>
      <trkpt lat="47.28616" lon="-1.73927">
        <ele>75.5</ele>
        <time>2016-10-09T08:42:08Z</time>
      </trkpt>
      <trkpt lat="47.28581" lon="-1.73971">
        <ele>75.4</ele>
        <time>2016-10-09T08:42:17Z</time>
      </trkpt>
      <trkpt lat="47.28545" lon="-1.7402">
        <ele>75.2</ele>
        <time>2016-10-09T08:42:27Z</time>
      </trkpt>
      <trkpt lat="47.28525" lon="-1.74046">
        <ele>75.2</ele>
        <time>2016-10-09T08:42:32Z</time>
      </trkpt>
      <trkpt lat="47.28488" lon="-1.74095">
        <ele>75</ele>
        <time>2016-10-09T08:42:41Z</time>
      </trkpt>
      <trkpt lat="47.28454" lon="-1.74139">
        <ele>74.9</ele>
        <time>2016-10-09T08:42:49Z</time>
      </trkpt>
      <trkpt lat="47.28417" lon="-1.74186">
        <ele>74.8</ele>
        <time>2016-10-09T08:42:57Z</time>
      </trkpt>
      <trkpt lat="47.28381" lon="-1.74234">
        <ele>74.7</ele>
        <time>2016-10-09T08:43:05Z</time>
      </trkpt>
      <trkpt lat="47.28371" lon="-1.74242">
        <ele>74.6</ele>
        <time>2016-10-09T08:43:08Z</time>
      </trkpt>
      <trkpt lat="47.28362" lon="-1.7423">
        <ele>74.6</ele>
        <time>2016-10-09T08:43:11Z</time>
      </trkpt>
      <trkpt lat="47.28342" lon="-1.74169">
        <ele>74.4</ele>
        <time>2016-10-09T08:43:20Z</time>
      </trkpt>
      <trkpt lat="47.28323" lon="-1.74105">
        <ele>74.3</ele>
        <time>2016-10-09T08:43:30Z</time>
      </trkpt>
      <trkpt lat="47.28316" lon="-1.74091">
        <ele>74.3</ele>
        <time>2016-10-09T08:43:33Z</time>
      </trkpt>
      <trkpt lat="47.28311" lon="-1.7409">
        <ele>74.2</ele>
        <time>2016-10-09T08:43:34Z</time>
      </trkpt>
      <trkpt lat="47.28263" lon="-1.74106">
        <ele>74.1</ele>
        <time>2016-10-09T08:43:43Z</time>
      </trkpt>
      <trkpt lat="47.28213" lon="-1.74119">
        <ele>74</ele>
        <time>2016-10-09T08:43:51Z</time>
      </trkpt>
      <trkpt lat="47.28166" lon="-1.7413">
        <ele>73.9</ele>
        <time>2016-10-09T08:43:58Z</time>
      </trkpt>
      <trkpt lat="47.28116" lon="-1.74144">
        <ele>73.8</ele>
        <time>2016-10-09T08:44:05Z</time>
      </trkpt>
      <trkpt lat="47.28069" lon="-1.74155">
        <ele>73.7</ele>
        <time>2016-10-09T08:44:11Z</time>
      </trkpt>
      <trkpt lat="47.28045" lon="-1.74162">
        <ele>73.6</ele>
        <time>2016-10-09T08:44:14Z</time>
      </trkpt>
      <trkpt lat="47.28021" lon="-1.74168">
        <ele>72.9</ele>
        <time>2016-10-09T08:44:17Z</time>
      </trkpt>
      <trkpt lat="47.27976" lon="-1.74181">
        <ele>71.7</ele>
        <time>2016-10-09T08:44:23Z</time>
      </trkpt>
      <trkpt lat="47.27942" lon="-1.74181">
        <ele>70.6</ele>
        <time>2016-10-09T08:44:28Z</time>
      </trkpt>
      <trkpt lat="47.2792" lon="-1.74168">
        <ele>70</ele>
        <time>2016-10-09T08:44:31Z</time>
      </trkpt>
      <trkpt lat="47.279" lon="-1.74155">
        <ele>69.6</ele>
        <time>2016-10-09T08:44:34Z</time>
      </trkpt>
      <trkpt lat="47.27856" lon="-1.74123">
        <ele>68.8</ele>
        <time>2016-10-09T08:44:41Z</time>
      </trkpt>
      <trkpt lat="47.27822" lon="-1.74098">
        <ele>68</ele>
        <time>2016-10-09T08:44:47Z</time>
      </trkpt>
      <trkpt lat="47.27817" lon="-1.74095">
        <ele>67.9</ele>
        <time>2016-10-09T08:44:48Z</time>
      </trkpt>
      <trkpt lat="47.27814" lon="-1.74099">
        <ele>67.7</ele>
        <time>2016-10-09T08:44:49Z</time>
      </trkpt>
      <trkpt lat="47.27812" lon="-1.7411">
        <ele>67.6</ele>
        <time>2016-10-09T08:44:50Z</time>
      </trkpt>
      <trkpt lat="47.27802" lon="-1.74134">
        <ele>67.2</ele>
        <time>2016-10-09T08:44:53Z</time>
      </trkpt>
      <trkpt lat="47.27788" lon="-1.74166">
        <ele>67.1</ele>
        <time>2016-10-09T08:44:57Z</time>
      </trkpt>
      <trkpt lat="47.27781" lon="-1.74185">
        <ele>66.9</ele>
        <time>2016-10-09T08:44:59Z</time>
      </trkpt>
      <trkpt lat="47.27763" lon="-1.74232">
        <ele>65.7</ele>
        <time>2016-10-09T08:45:04Z</time>
      </trkpt>
      <trkpt lat="47.27746" lon="-1.74268">
        <ele>64.4</ele>
        <time>2016-10-09T08:45:08Z</time>
      </trkpt>
      <trkpt lat="47.27724" lon="-1.74334">
        <ele>62.4</ele>
        <time>2016-10-09T08:45:15Z</time>
      </trkpt>
      <trkpt lat="47.27709" lon="-1.7436">
        <ele>62.7</ele>
        <time>2016-10-09T08:45:18Z</time>
      </trkpt>
      <trkpt lat="47.27694" lon="-1.74371">
        <ele>62.8</ele>
        <time>2016-10-09T08:45:20Z</time>
      </trkpt>
      <trkpt lat="47.2766" lon="-1.74378">
        <ele>63.2</ele>
        <time>2016-10-09T08:45:25Z</time>
      </trkpt>
      <trkpt lat="47.27647" lon="-1.7438">
        <ele>63</ele>
        <time>2016-10-09T08:45:27Z</time>
      </trkpt>
      <trkpt lat="47.27602" lon="-1.74388">
        <ele>62.2</ele>
        <time>2016-10-09T08:45:34Z</time>
      </trkpt>
      <trkpt lat="47.27587" lon="-1.74388">
        <ele>61.8</ele>
        <time>2016-10-09T08:45:37Z</time>
      </trkpt>
      <trkpt lat="47.27581" lon="-1.74379">
        <ele>61.6</ele>
        <time>2016-10-09T08:45:39Z</time>
      </trkpt>
      <trkpt lat="47.27564" lon="-1.74316">
        <ele>60.7</ele>
        <time>2016-10-09T08:45:47Z</time>
      </trkpt>
      <trkpt lat="47.2755" lon="-1.74265">
        <ele>60.1</ele>
        <time>2016-10-09T08:45:52Z</time>
      </trkpt>
      <trkpt lat="47.27544" lon="-1.74246">
        <ele>60</ele>
        <time>2016-10-09T08:45:54Z</time>
      </trkpt>
      <trkpt lat="47.27527" lon="-1.74206">
        <ele>59.9</ele>
        <time>2016-10-09T08:45:59Z</time>
      </trkpt>
      <trkpt lat="47.275" lon="-1.74149">
        <ele>59.6</ele>
        <time>2016-10-09T08:46:06Z</time>
      </trkpt>
      <trkpt lat="47.27487" lon="-1.74128">
        <ele>59.5</ele>
        <time>2016-10-09T08:46:09Z</time>
      </trkpt>
      <trkpt lat="47.27478" lon="-1.74115">
        <ele>59.9</ele>
        <time>2016-10-09T08:46:11Z</time>
      </trkpt>
      <trkpt lat="47.27437" lon="-1.74089">
        <ele>61.2</ele>
        <time>2016-10-09T08:46:19Z</time>
      </trkpt>
      <trkpt lat="47.27391" lon="-1.74067">
        <ele>62.8</ele>
        <time>2016-10-09T08:46:28Z</time>
      </trkpt>
      <trkpt lat="47.27382" lon="-1.74063">
        <ele>63.1</ele>
        <time>2016-10-09T08:46:30Z</time>
      </trkpt>
      <trkpt lat="47.2735" lon="-1.74053">
        <ele>64.2</ele>
        <time>2016-10-09T08:46:37Z</time>
      </trkpt>
      <trkpt lat="47.27327" lon="-1.74056">
        <ele>65</ele>
        <time>2016-10-09T08:46:42Z</time>
      </trkpt>
      <trkpt lat="47.27288" lon="-1.74048">
        <ele>66.3</ele>
        <time>2016-10-09T08:46:51Z</time>
      </trkpt>
      <trkpt lat="47.27283" lon="-1.74048">
        <ele>66.4</ele>
        <time>2016-10-09T08:46:52Z</time>
      </trkpt>
      <trkpt lat="47.27274" lon="-1.7405">
        <ele>66.4</ele>
        <time>2016-10-09T08:46:54Z</time>
      </trkpt>
      <trkpt lat="47.27269" lon="-1.74049">
        <ele>66.5</ele>
        <time>2016-10-09T08:46:55Z</time>
      </trkpt>
      <trkpt lat="47.2726" lon="-1.7405">
        <ele>66.5</ele>
        <time>2016-10-09T08:46:57Z</time>
      </trkpt>
      <trkpt lat="47.27221" lon="-1.74055">
        <ele>66.5</ele>
        <time>2016-10-09T08:47:05Z</time>
      </trkpt>
      <trkpt lat="47.27176" lon="-1.74083">
        <ele>66.4</ele>
        <time>2016-10-09T08:47:15Z</time>
      </trkpt>
      <trkpt lat="47.27138" lon="-1.74122">
        <ele>66.3</ele>
        <time>2016-10-09T08:47:24Z</time>
      </trkpt>
      <trkpt lat="47.27102" lon="-1.74168">
        <ele>66.2</ele>
        <time>2016-10-09T08:47:32Z</time>
      </trkpt>
      <trkpt lat="47.27075" lon="-1.74197">
        <ele>66.1</ele>
        <time>2016-10-09T08:47:37Z</time>
      </trkpt>
      <trkpt lat="47.27025" lon="-1.74215">
        <ele>66</ele>
        <time>2016-10-09T08:47:45Z</time>
      </trkpt>
      <trkpt lat="47.2699" lon="-1.74231">
        <ele>66</ele>
        <time>2016-10-09T08:47:50Z</time>
      </trkpt>
      <trkpt lat="47.26945" lon="-1.74265">
        <ele>65.9</ele>
        <time>2016-10-09T08:47:57Z</time>
      </trkpt>
      <trkpt lat="47.26917" lon="-1.74284">
        <ele>65.3</ele>
        <time>2016-10-09T08:48:02Z</time>
      </trkpt>
      <trkpt lat="47.26906" lon="-1.74269">
        <ele>64.8</ele>
        <time>2016-10-09T08:48:06Z</time>
      </trkpt>
      <trkpt lat="47.26881" lon="-1.74204">
        <ele>63.7</ele>
        <time>2016-10-09T08:48:15Z</time>
      </trkpt>
      <trkpt lat="47.26872" lon="-1.74174">
        <ele>63.3</ele>
        <time>2016-10-09T08:48:19Z</time>
      </trkpt>
      <trkpt lat="47.26861" lon="-1.74136">
        <ele>63.7</ele>
        <time>2016-10-09T08:48:24Z</time>
      </trkpt>
      <trkpt lat="47.26858" lon="-1.74102">
        <ele>63.9</ele>
        <time>2016-10-09T08:48:28Z</time>
      </trkpt>
      <trkpt lat="47.26861" lon="-1.74043">
        <ele>64.5</ele>
        <time>2016-10-09T08:48:36Z</time>
      </trkpt>
      <trkpt lat="47.26854" lon="-1.73999">
        <ele>65</ele>
        <time>2016-10-09T08:48:43Z</time>
      </trkpt>
      <trkpt lat="47.26842" lon="-1.73931">
        <ele>65.7</ele>
        <time>2016-10-09T08:48:54Z</time>
      </trkpt>
      <trkpt lat="47.2683" lon="-1.73866">
        <ele>66.4</ele>
        <time>2016-10-09T08:49:05Z</time>
      </trkpt>
      <trkpt lat="47.26827" lon="-1.73845">
        <ele>66.3</ele>
        <time>2016-10-09T08:49:08Z</time>
      </trkpt>
      <trkpt lat="47.26816" lon="-1.73799">
        <ele>66.1</ele>
        <time>2016-10-09T08:49:15Z</time>
      </trkpt>
      <trkpt lat="47.26811" lon="-1.73779">
        <ele>65.9</ele>
        <time>2016-10-09T08:49:18Z</time>
      </trkpt>
      <trkpt lat="47.26792" lon="-1.7373">
        <ele>65.4</ele>
        <time>2016-10-09T08:49:25Z</time>
      </trkpt>
      <trkpt lat="47.26755" lon="-1.73692">
        <ele>64.9</ele>
        <time>2016-10-09T08:49:33Z</time>
      </trkpt>
      <trkpt lat="47.26746" lon="-1.73679">
        <ele>64.7</ele>
        <time>2016-10-09T08:49:35Z</time>
      </trkpt>
      <trkpt lat="47.26732" lon="-1.73664">
        <ele>64.5</ele>
        <time>2016-10-09T08:49:38Z</time>
      </trkpt>
      <trkpt lat="47.26723" lon="-1.73643">
        <ele>64.3</ele>
        <time>2016-10-09T08:49:41Z</time>
      </trkpt>
      <trkpt lat="47.2669" lon="-1.73595">
        <ele>63.8</ele>
        <time>2016-10-09T08:49:49Z</time>
      </trkpt>
      <trkpt lat="47.26685" lon="-1.73588">
        <ele>63.7</ele>
        <time>2016-10-09T08:49:50Z</time>
      </trkpt>
      <trkpt lat="47.26668" lon="-1.73577">
        <ele>63.5</ele>
        <time>2016-10-09T08:49:53Z</time>
      </trkpt>
      <trkpt lat="47.26646" lon="-1.73575">
        <ele>63.2</ele>
        <time>2016-10-09T08:49:57Z</time>
      </trkpt>
      <trkpt lat="47.26639" lon="-1.73579">
        <ele>63.1</ele>
        <time>2016-10-09T08:49:59Z</time>
      </trkpt>
      <trkpt lat="47.26636" lon="-1.7358">
        <ele>63</ele>
        <time>2016-10-09T08:50:00Z</time>
      </trkpt>
      <trkpt lat="47.26632" lon="-1.73574">
        <ele>62.9</ele>
        <time>2016-10-09T08:50:02Z</time>
      </trkpt>
      <trkpt lat="47.26636" lon="-1.73557">
        <ele>62.7</ele>
        <time>2016-10-09T08:50:05Z</time>
      </trkpt>
      <trkpt lat="47.26648" lon="-1.73507">
        <ele>63.9</ele>
        <time>2016-10-09T08:50:14Z</time>
      </trkpt>
      <trkpt lat="47.26657" lon="-1.73458">
        <ele>64.8</ele>
        <time>2016-10-09T08:50:22Z</time>
      </trkpt>
      <trkpt lat="47.26653" lon="-1.7343">
        <ele>65.3</ele>
        <time>2016-10-09T08:50:26Z</time>
      </trkpt>
      <trkpt lat="47.26651" lon="-1.73423">
        <ele>65.4</ele>
        <time>2016-10-09T08:50:27Z</time>
      </trkpt>
      <trkpt lat="47.26642" lon="-1.73383">
        <ele>65.7</ele>
        <time>2016-10-09T08:50:33Z</time>
      </trkpt>
      <trkpt lat="47.2664" lon="-1.73376">
        <ele>65.8</ele>
        <time>2016-10-09T08:50:34Z</time>
      </trkpt>
      <trkpt lat="47.26614" lon="-1.73319">
        <ele>67.3</ele>
        <time>2016-10-09T08:50:44Z</time>
      </trkpt>
      <trkpt lat="47.26597" lon="-1.73286">
        <ele>68.2</ele>
        <time>2016-10-09T08:50:50Z</time>
      </trkpt>
      <trkpt lat="47.26586" lon="-1.73265">
        <ele>68.6</ele>
        <time>2016-10-09T08:50:54Z</time>
      </trkpt>
      <trkpt lat="47.26565" lon="-1.73228">
        <ele>69.6</ele>
        <time>2016-10-09T08:51:02Z</time>
      </trkpt>
      <trkpt lat="47.26555" lon="-1.7323">
        <ele>69.8</ele>
        <time>2016-10-09T08:51:05Z</time>
      </trkpt>
      <trkpt lat="47.26547" lon="-1.73231">
        <ele>69.7</ele>
        <time>2016-10-09T08:51:07Z</time>
      </trkpt>
      <trkpt lat="47.26538" lon="-1.73224">
        <ele>69.5</ele>
        <time>2016-10-09T08:51:09Z</time>
      </trkpt>
      <trkpt lat="47.26523" lon="-1.732">
        <ele>69.1</ele>
        <time>2016-10-09T08:51:14Z</time>
      </trkpt>
      <trkpt lat="47.26484" lon="-1.73205">
        <ele>68.5</ele>
        <time>2016-10-09T08:51:22Z</time>
      </trkpt>
      <trkpt lat="47.2648" lon="-1.73194">
        <ele>68.2</ele>
        <time>2016-10-09T08:51:25Z</time>
      </trkpt>
      <trkpt lat="47.26474" lon="-1.73149">
        <ele>67.7</ele>
        <time>2016-10-09T08:51:32Z</time>
      </trkpt>
      <trkpt lat="47.26465" lon="-1.73121">
        <ele>67.4</ele>
        <time>2016-10-09T08:51:36Z</time>
      </trkpt>
      <trkpt lat="47.2645" lon="-1.73069">
        <ele>66.9</ele>
        <time>2016-10-09T08:51:42Z</time>
      </trkpt>
      <trkpt lat="47.26441" lon="-1.73044">
        <ele>66.7</ele>
        <time>2016-10-09T08:51:45Z</time>
      </trkpt>
      <trkpt lat="47.26425" lon="-1.73004">
        <ele>67.3</ele>
        <time>2016-10-09T08:51:50Z</time>
      </trkpt>
      <trkpt lat="47.26419" lon="-1.72983">
        <ele>67.7</ele>
        <time>2016-10-09T08:51:53Z</time>
      </trkpt>
      <trkpt lat="47.26418" lon="-1.72961">
        <ele>68.1</ele>
        <time>2016-10-09T08:51:56Z</time>
      </trkpt>
      <trkpt lat="47.26425" lon="-1.72945">
        <ele>68.5</ele>
        <time>2016-10-09T08:51:59Z</time>
      </trkpt>
      <trkpt lat="47.26458" lon="-1.72907">
        <ele>69.7</ele>
        <time>2016-10-09T08:52:09Z</time>
      </trkpt>
      <trkpt lat="47.26462" lon="-1.72903">
        <ele>69.8</ele>
        <time>2016-10-09T08:52:10Z</time>
      </trkpt>
      <trkpt lat="47.26498" lon="-1.72863">
        <ele>70.8</ele>
        <time>2016-10-09T08:52:20Z</time>
      </trkpt>
      <trkpt lat="47.26532" lon="-1.72817">
        <ele>71.8</ele>
        <time>2016-10-09T08:52:30Z</time>
      </trkpt>
      <trkpt lat="47.26539" lon="-1.72809">
        <ele>71.9</ele>
        <time>2016-10-09T08:52:32Z</time>
      </trkpt>
      <trkpt lat="47.26555" lon="-1.72788">
        <ele>71.7</ele>
        <time>2016-10-09T08:52:37Z</time>
      </trkpt>
      <trkpt lat="47.26555" lon="-1.72775">
        <ele>71.7</ele>
        <time>2016-10-09T08:52:39Z</time>
      </trkpt>
      <trkpt lat="47.26542" lon="-1.72708">
        <ele>71.3</ele>
        <time>2016-10-09T08:52:49Z</time>
      </trkpt>
      <trkpt lat="47.26523" lon="-1.72644">
        <ele>70.9</ele>
        <time>2016-10-09T08:52:58Z</time>
      </trkpt>
      <trkpt lat="47.26494" lon="-1.72591">
        <ele>70.6</ele>
        <time>2016-10-09T08:53:06Z</time>
      </trkpt>
      <trkpt lat="47.26469" lon="-1.7253">
        <ele>70.3</ele>
        <time>2016-10-09T08:53:14Z</time>
      </trkpt>
      <trkpt lat="47.26442" lon="-1.72474">
        <ele>69.9</ele>
        <time>2016-10-09T08:53:22Z</time>
      </trkpt>
      <trkpt lat="47.26443" lon="-1.72459">
        <ele>69.8</ele>
        <time>2016-10-09T08:53:25Z</time>
      </trkpt>
      <trkpt lat="47.26456" lon="-1.72438">
        <ele>69.6</ele>
        <time>2016-10-09T08:53:30Z</time>
      </trkpt>
      <trkpt lat="47.26444" lon="-1.72372">
        <ele>69.2</ele>
        <time>2016-10-09T08:53:41Z</time>
      </trkpt>
      <trkpt lat="47.26436" lon="-1.72301">
        <ele>68.8</ele>
        <time>2016-10-09T08:53:50Z</time>
      </trkpt>
      <trkpt lat="47.26435" lon="-1.72293">
        <ele>68.8</ele>
        <time>2016-10-09T08:53:51Z</time>
      </trkpt>
      <trkpt lat="47.2643" lon="-1.72261">
        <ele>69.2</ele>
        <time>2016-10-09T08:53:55Z</time>
      </trkpt>
      <trkpt lat="47.26402" lon="-1.72217">
        <ele>70</ele>
        <time>2016-10-09T08:54:03Z</time>
      </trkpt>
      <trkpt lat="47.26389" lon="-1.72205">
        <ele>70.3</ele>
        <time>2016-10-09T08:54:06Z</time>
      </trkpt>
      <trkpt lat="47.26375" lon="-1.72199">
        <ele>70.6</ele>
        <time>2016-10-09T08:54:09Z</time>
      </trkpt>
      <trkpt lat="47.2637" lon="-1.72198">
        <ele>70.7</ele>
        <time>2016-10-09T08:54:10Z</time>
      </trkpt>
      <trkpt lat="47.26342" lon="-1.72173">
        <ele>71.6</ele>
        <time>2016-10-09T08:54:19Z</time>
      </trkpt>
      <trkpt lat="47.2633" lon="-1.72162">
        <ele>72</ele>
        <time>2016-10-09T08:54:23Z</time>
      </trkpt>
      <trkpt lat="47.26289" lon="-1.72126">
        <ele>73.3</ele>
        <time>2016-10-09T08:54:36Z</time>
      </trkpt>
      <trkpt lat="47.26278" lon="-1.72107">
        <ele>73.7</ele>
        <time>2016-10-09T08:54:40Z</time>
      </trkpt>
      <trkpt lat="47.2626" lon="-1.72072">
        <ele>73.2</ele>
        <time>2016-10-09T08:54:47Z</time>
      </trkpt>
      <trkpt lat="47.26239" lon="-1.72004">
        <ele>72.6</ele>
        <time>2016-10-09T08:54:57Z</time>
      </trkpt>
      <trkpt lat="47.26234" lon="-1.7199">
        <ele>72.4</ele>
        <time>2016-10-09T08:54:59Z</time>
      </trkpt>
      <trkpt lat="47.26208" lon="-1.71935">
        <ele>71.9</ele>
        <time>2016-10-09T08:55:08Z</time>
      </trkpt>
      <trkpt lat="47.26198" lon="-1.7192">
        <ele>71.7</ele>
        <time>2016-10-09T08:55:11Z</time>
      </trkpt>
      <trkpt lat="47.26176" lon="-1.71896">
        <ele>71.3</ele>
        <time>2016-10-09T08:55:16Z</time>
      </trkpt>
      <trkpt lat="47.26159" lon="-1.71829">
        <ele>70.7</ele>
        <time>2016-10-09T08:55:25Z</time>
      </trkpt>
      <trkpt lat="47.26156" lon="-1.71812">
        <ele>70.5</ele>
        <time>2016-10-09T08:55:29Z</time>
      </trkpt>
      <trkpt lat="47.26156" lon="-1.71812">
        <ele>70.1</ele>
        <time>2016-10-09T08:55:35Z</time>
      </trkpt>
      <trkpt lat="47.26156" lon="-1.71812">
        <ele>70</ele>
        <time>2016-10-09T08:55:44Z</time>
      </trkpt>
      <trkpt lat="47.26278" lon="-1.71078">
        <ele>48.7</ele>
        <time>2016-10-09T09:00:05Z</time>
      </trkpt>
      <trkpt lat="47.26276" lon="-1.71081">
        <ele>54.3</ele>
        <time>2016-10-09T09:00:09Z</time>
      </trkpt>
      <trkpt lat="47.26279" lon="-1.71063">
        <ele>59.1</ele>
        <time>2016-10-09T09:00:12Z</time>
      </trkpt>
      <trkpt lat="47.26288" lon="-1.7101">
        <ele>58.4</ele>
        <time>2016-10-09T09:00:21Z</time>
      </trkpt>
      <trkpt lat="47.26299" lon="-1.70947">
        <ele>58.2</ele>
        <time>2016-10-09T09:00:27Z</time>
      </trkpt>
      <trkpt lat="47.26301" lon="-1.70937">
        <ele>58.6</ele>
        <time>2016-10-09T09:00:28Z</time>
      </trkpt>
      <trkpt lat="47.2631" lon="-1.70888">
        <ele>60.4</ele>
        <time>2016-10-09T09:00:33Z</time>
      </trkpt>
      <trkpt lat="47.26313" lon="-1.70869">
        <ele>59.8</ele>
        <time>2016-10-09T09:00:35Z</time>
      </trkpt>
      <trkpt lat="47.26325" lon="-1.708">
        <ele>57.6</ele>
        <time>2016-10-09T09:00:42Z</time>
      </trkpt>
      <trkpt lat="47.26327" lon="-1.70768">
        <ele>56.7</ele>
        <time>2016-10-09T09:00:45Z</time>
      </trkpt>
      <trkpt lat="47.26329" lon="-1.70737">
        <ele>56.3</ele>
        <time>2016-10-09T09:00:48Z</time>
      </trkpt>
      <trkpt lat="47.26326" lon="-1.70718">
        <ele>56.2</ele>
        <time>2016-10-09T09:00:50Z</time>
      </trkpt>
      <trkpt lat="47.2632" lon="-1.7067">
        <ele>57.2</ele>
        <time>2016-10-09T09:00:55Z</time>
      </trkpt>
      <trkpt lat="47.26318" lon="-1.70663">
        <ele>57.4</ele>
        <time>2016-10-09T09:00:56Z</time>
      </trkpt>
      <trkpt lat="47.26305" lon="-1.70608">
        <ele>58.9</ele>
        <time>2016-10-09T09:01:03Z</time>
      </trkpt>
      <trkpt lat="47.26297" lon="-1.70573">
        <ele>60</ele>
        <time>2016-10-09T09:01:08Z</time>
      </trkpt>
      <trkpt lat="47.26289" lon="-1.70538">
        <ele>60.6</ele>
        <time>2016-10-09T09:01:13Z</time>
      </trkpt>
      <trkpt lat="47.26269" lon="-1.70483">
        <ele>61.5</ele>
        <time>2016-10-09T09:01:21Z</time>
      </trkpt>
      <trkpt lat="47.2626" lon="-1.70465">
        <ele>61.8</ele>
        <time>2016-10-09T09:01:24Z</time>
      </trkpt>
      <trkpt lat="47.26242" lon="-1.7043">
        <ele>61.4</ele>
        <time>2016-10-09T09:01:30Z</time>
      </trkpt>
      <trkpt lat="47.26212" lon="-1.70378">
        <ele>60.6</ele>
        <time>2016-10-09T09:01:42Z</time>
      </trkpt>
      <trkpt lat="47.26201" lon="-1.70377">
        <ele>60.3</ele>
        <time>2016-10-09T09:01:46Z</time>
      </trkpt>
      <trkpt lat="47.26156" lon="-1.70416">
        <ele>59.6</ele>
        <time>2016-10-09T09:01:56Z</time>
      </trkpt>
      <trkpt lat="47.26115" lon="-1.70448">
        <ele>59.2</ele>
        <time>2016-10-09T09:02:02Z</time>
      </trkpt>
      <trkpt lat="47.26071" lon="-1.70481">
        <ele>58.9</ele>
        <time>2016-10-09T09:02:07Z</time>
      </trkpt>
      <trkpt lat="47.26055" lon="-1.70493">
        <ele>58.7</ele>
        <time>2016-10-09T09:02:09Z</time>
      </trkpt>
      <trkpt lat="47.26031" lon="-1.70512">
        <ele>57.8</ele>
        <time>2016-10-09T09:02:12Z</time>
      </trkpt>
      <trkpt lat="47.25989" lon="-1.70549">
        <ele>56.1</ele>
        <time>2016-10-09T09:02:18Z</time>
      </trkpt>
      <trkpt lat="47.25983" lon="-1.70555">
        <ele>56.1</ele>
        <time>2016-10-09T09:02:19Z</time>
      </trkpt>
      <trkpt lat="47.2595" lon="-1.70592">
        <ele>58.3</ele>
        <time>2016-10-09T09:02:25Z</time>
      </trkpt>
      <trkpt lat="47.25913" lon="-1.70632">
        <ele>58.9</ele>
        <time>2016-10-09T09:02:33Z</time>
      </trkpt>
      <trkpt lat="47.25896" lon="-1.70656">
        <ele>59.2</ele>
        <time>2016-10-09T09:02:37Z</time>
      </trkpt>
      <trkpt lat="47.25876" lon="-1.70675">
        <ele>59.5</ele>
        <time>2016-10-09T09:02:41Z</time>
      </trkpt>
      <trkpt lat="47.25855" lon="-1.70693">
        <ele>59.9</ele>
        <time>2016-10-09T09:02:45Z</time>
      </trkpt>
      <trkpt lat="47.25816" lon="-1.70727">
        <ele>60.7</ele>
        <time>2016-10-09T09:02:53Z</time>
      </trkpt>
      <trkpt lat="47.2579" lon="-1.70747">
        <ele>61.2</ele>
        <time>2016-10-09T09:02:58Z</time>
      </trkpt>
      <trkpt lat="47.2578" lon="-1.70754">
        <ele>61.4</ele>
        <time>2016-10-09T09:03:00Z</time>
      </trkpt>
      <trkpt lat="47.25757" lon="-1.70759">
        <ele>61.8</ele>
        <time>2016-10-09T09:03:04Z</time>
      </trkpt>
      <trkpt lat="47.25712" lon="-1.70756">
        <ele>62.5</ele>
        <time>2016-10-09T09:03:11Z</time>
      </trkpt>
      <trkpt lat="47.257" lon="-1.70755">
        <ele>62.7</ele>
        <time>2016-10-09T09:03:13Z</time>
      </trkpt>
      <trkpt lat="47.2569" lon="-1.70751">
        <ele>62.9</ele>
        <time>2016-10-09T09:03:15Z</time>
      </trkpt>
      <trkpt lat="47.25642" lon="-1.70748">
        <ele>63.8</ele>
        <time>2016-10-09T09:03:24Z</time>
      </trkpt>
      <trkpt lat="47.25605" lon="-1.7074">
        <ele>64.4</ele>
        <time>2016-10-09T09:03:31Z</time>
      </trkpt>
      <trkpt lat="47.256" lon="-1.70738">
        <ele>64.4</ele>
        <time>2016-10-09T09:03:32Z</time>
      </trkpt>
      <trkpt lat="47.25594" lon="-1.70727">
        <ele>64.4</ele>
        <time>2016-10-09T09:03:34Z</time>
      </trkpt>
      <trkpt lat="47.25582" lon="-1.70659">
        <ele>64.2</ele>
        <time>2016-10-09T09:03:43Z</time>
      </trkpt>
      <trkpt lat="47.25569" lon="-1.70593">
        <ele>64</ele>
        <time>2016-10-09T09:03:52Z</time>
      </trkpt>
      <trkpt lat="47.25569" lon="-1.70571">
        <ele>63.9</ele>
        <time>2016-10-09T09:03:55Z</time>
      </trkpt>
      <trkpt lat="47.25591" lon="-1.70512">
        <ele>63.7</ele>
        <time>2016-10-09T09:04:03Z</time>
      </trkpt>
      <trkpt lat="47.25624" lon="-1.70462">
        <ele>63.5</ele>
        <time>2016-10-09T09:04:11Z</time>
      </trkpt>
      <trkpt lat="47.25664" lon="-1.70426">
        <ele>63.4</ele>
        <time>2016-10-09T09:04:18Z</time>
      </trkpt>
      <trkpt lat="47.25708" lon="-1.7039">
        <ele>63.2</ele>
        <time>2016-10-09T09:04:25Z</time>
      </trkpt>
      <trkpt lat="47.25721" lon="-1.7038">
        <ele>63.1</ele>
        <time>2016-10-09T09:04:27Z</time>
      </trkpt>
      <trkpt lat="47.25754" lon="-1.70356">
        <ele>61.9</ele>
        <time>2016-10-09T09:04:32Z</time>
      </trkpt>
      <trkpt lat="47.25794" lon="-1.70325">
        <ele>60.5</ele>
        <time>2016-10-09T09:04:38Z</time>
      </trkpt>
      <trkpt lat="47.25802" lon="-1.70308">
        <ele>60</ele>
        <time>2016-10-09T09:04:40Z</time>
      </trkpt>
      <trkpt lat="47.25801" lon="-1.70288">
        <ele>59.5</ele>
        <time>2016-10-09T09:04:42Z</time>
      </trkpt>
      <trkpt lat="47.25798" lon="-1.70279">
        <ele>59.4</ele>
        <time>2016-10-09T09:04:43Z</time>
      </trkpt>
      <trkpt lat="47.25795" lon="-1.7027">
        <ele>59.5</ele>
        <time>2016-10-09T09:04:44Z</time>
      </trkpt>
      <trkpt lat="47.25778" lon="-1.70223">
        <ele>60.2</ele>
        <time>2016-10-09T09:04:50Z</time>
      </trkpt>
      <trkpt lat="47.25768" lon="-1.7018">
        <ele>60.8</ele>
        <time>2016-10-09T09:04:55Z</time>
      </trkpt>
      <trkpt lat="47.25762" lon="-1.70154">
        <ele>61.7</ele>
        <time>2016-10-09T09:04:58Z</time>
      </trkpt>
      <trkpt lat="47.25749" lon="-1.70117">
        <ele>63.3</ele>
        <time>2016-10-09T09:05:03Z</time>
      </trkpt>
      <trkpt lat="47.25746" lon="-1.70092">
        <ele>64.5</ele>
        <time>2016-10-09T09:05:07Z</time>
      </trkpt>
      <trkpt lat="47.25735" lon="-1.70059">
        <ele>65.6</ele>
        <time>2016-10-09T09:05:11Z</time>
      </trkpt>
      <trkpt lat="47.25725" lon="-1.70026">
        <ele>65</ele>
        <time>2016-10-09T09:05:15Z</time>
      </trkpt>
      <trkpt lat="47.25723" lon="-1.7002">
        <ele>64.8</ele>
        <time>2016-10-09T09:05:16Z</time>
      </trkpt>
      <trkpt lat="47.2572" lon="-1.70015">
        <ele>64.6</ele>
        <time>2016-10-09T09:05:17Z</time>
      </trkpt>
      <trkpt lat="47.25707" lon="-1.70008">
        <ele>64</ele>
        <time>2016-10-09T09:05:22Z</time>
      </trkpt>
      <trkpt lat="47.25704" lon="-1.70007">
        <ele>64.2</ele>
        <time>2016-10-09T09:05:23Z</time>
      </trkpt>
      <trkpt lat="47.25657" lon="-1.70025">
        <ele>66.7</ele>
        <time>2016-10-09T09:05:35Z</time>
      </trkpt>
      <trkpt lat="47.25644" lon="-1.7003">
        <ele>67.2</ele>
        <time>2016-10-09T09:05:39Z</time>
      </trkpt>
      <trkpt lat="47.25627" lon="-1.70037">
        <ele>64.7</ele>
        <time>2016-10-09T09:05:44Z</time>
      </trkpt>
      <trkpt lat="47.25612" lon="-1.70042">
        <ele>67.4</ele>
        <time>2016-10-09T09:05:48Z</time>
      </trkpt>
      <trkpt lat="47.25602" lon="-1.70044">
        <ele>68.5</ele>
        <time>2016-10-09T09:05:50Z</time>
      </trkpt>
      <trkpt lat="47.25572" lon="-1.70052">
        <ele>68.6</ele>
        <time>2016-10-09T09:05:56Z</time>
      </trkpt>
      <trkpt lat="47.25567" lon="-1.70053">
        <ele>68.6</ele>
        <time>2016-10-09T09:05:57Z</time>
      </trkpt>
      <trkpt lat="47.25557" lon="-1.70055">
        <ele>68.8</ele>
        <time>2016-10-09T09:05:59Z</time>
      </trkpt>
      <trkpt lat="47.25543" lon="-1.70059">
        <ele>68.8</ele>
        <time>2016-10-09T09:06:02Z</time>
      </trkpt>
      <trkpt lat="47.25519" lon="-1.70066">
        <ele>67.1</ele>
        <time>2016-10-09T09:06:07Z</time>
      </trkpt>
      <trkpt lat="47.25515" lon="-1.70068">
        <ele>66.7</ele>
        <time>2016-10-09T09:06:08Z</time>
      </trkpt>
      <trkpt lat="47.25496" lon="-1.70082">
        <ele>64.2</ele>
        <time>2016-10-09T09:06:13Z</time>
      </trkpt>
      <trkpt lat="47.25477" lon="-1.70095">
        <ele>64.3</ele>
        <time>2016-10-09T09:06:18Z</time>
      </trkpt>
      <trkpt lat="47.25444" lon="-1.70108">
        <ele>64.5</ele>
        <time>2016-10-09T09:06:29Z</time>
      </trkpt>
      <trkpt lat="47.25434" lon="-1.70111">
        <ele>64.1</ele>
        <time>2016-10-09T09:06:32Z</time>
      </trkpt>
      <trkpt lat="47.25397" lon="-1.70092">
        <ele>63.1</ele>
        <time>2016-10-09T09:06:41Z</time>
      </trkpt>
      <trkpt lat="47.25378" lon="-1.70068">
        <ele>62.6</ele>
        <time>2016-10-09T09:06:46Z</time>
      </trkpt>
      <trkpt lat="47.25371" lon="-1.7005">
        <ele>62.2</ele>
        <time>2016-10-09T09:06:49Z</time>
      </trkpt>
      <trkpt lat="47.25369" lon="-1.70016">
        <ele>61.8</ele>
        <time>2016-10-09T09:06:53Z</time>
      </trkpt>
      <trkpt lat="47.2537" lon="-1.70007">
        <ele>61.7</ele>
        <time>2016-10-09T09:06:54Z</time>
      </trkpt>
      <trkpt lat="47.25371" lon="-1.69963">
        <ele>61.2</ele>
        <time>2016-10-09T09:06:58Z</time>
      </trkpt>
      <trkpt lat="47.25367" lon="-1.69944">
        <ele>61</ele>
        <time>2016-10-09T09:07:00Z</time>
      </trkpt>
      <trkpt lat="47.25364" lon="-1.6993">
        <ele>60.8</ele>
        <time>2016-10-09T09:07:02Z</time>
      </trkpt>
      <trkpt lat="47.25372" lon="-1.69902">
        <ele>60.2</ele>
        <time>2016-10-09T09:07:07Z</time>
      </trkpt>
      <trkpt lat="47.25377" lon="-1.69897">
        <ele>60.3</ele>
        <time>2016-10-09T09:07:08Z</time>
      </trkpt>
      <trkpt lat="47.25388" lon="-1.69888">
        <ele>60.9</ele>
        <time>2016-10-09T09:07:10Z</time>
      </trkpt>
      <trkpt lat="47.254" lon="-1.69862">
        <ele>61.9</ele>
        <time>2016-10-09T09:07:14Z</time>
      </trkpt>
      <trkpt lat="47.25415" lon="-1.69831">
        <ele>58.9</ele>
        <time>2016-10-09T09:07:19Z</time>
      </trkpt>
      <trkpt lat="47.25418" lon="-1.69826">
        <ele>58.6</ele>
        <time>2016-10-09T09:07:20Z</time>
      </trkpt>
      <trkpt lat="47.25427" lon="-1.69814">
        <ele>59.1</ele>
        <time>2016-10-09T09:07:23Z</time>
      </trkpt>
      <trkpt lat="47.25433" lon="-1.69811">
        <ele>59.4</ele>
        <time>2016-10-09T09:07:25Z</time>
      </trkpt>
      <trkpt lat="47.25451" lon="-1.69804">
        <ele>58.3</ele>
        <time>2016-10-09T09:07:31Z</time>
      </trkpt>
      <trkpt lat="47.25472" lon="-1.69795">
        <ele>60.1</ele>
        <time>2016-10-09T09:07:38Z</time>
      </trkpt>
      <trkpt lat="47.25503" lon="-1.69787">
        <ele>62.4</ele>
        <time>2016-10-09T09:07:47Z</time>
      </trkpt>
      <trkpt lat="47.25517" lon="-1.69783">
        <ele>61.3</ele>
        <time>2016-10-09T09:07:51Z</time>
      </trkpt>
      <trkpt lat="47.25525" lon="-1.69779">
        <ele>61</ele>
        <time>2016-10-09T09:07:53Z</time>
      </trkpt>
      <trkpt lat="47.25542" lon="-1.69769">
        <ele>62.5</ele>
        <time>2016-10-09T09:07:57Z</time>
      </trkpt>
      <trkpt lat="47.25549" lon="-1.69761">
        <ele>62.6</ele>
        <time>2016-10-09T09:07:58Z</time>
      </trkpt>
      <trkpt lat="47.25563" lon="-1.69744">
        <ele>62.1</ele>
        <time>2016-10-09T09:08:00Z</time>
      </trkpt>
      <trkpt lat="47.25582" lon="-1.69708">
        <ele>61</ele>
        <time>2016-10-09T09:08:04Z</time>
      </trkpt>
      <trkpt lat="47.2559" lon="-1.69691">
        <ele>60.6</ele>
        <time>2016-10-09T09:08:06Z</time>
      </trkpt>
      <trkpt lat="47.25593" lon="-1.69678">
        <ele>60.2</ele>
        <time>2016-10-09T09:08:08Z</time>
      </trkpt>
      <trkpt lat="47.2559" lon="-1.69668">
        <ele>59.8</ele>
        <time>2016-10-09T09:08:10Z</time>
      </trkpt>
      <trkpt lat="47.25544" lon="-1.69659">
        <ele>58.1</ele>
        <time>2016-10-09T09:08:18Z</time>
      </trkpt>
      <trkpt lat="47.25529" lon="-1.69656">
        <ele>57.7</ele>
        <time>2016-10-09T09:08:20Z</time>
      </trkpt>
      <trkpt lat="47.25507" lon="-1.6965">
        <ele>57.6</ele>
        <time>2016-10-09T09:08:23Z</time>
      </trkpt>
      <trkpt lat="47.25492" lon="-1.69642">
        <ele>57.5</ele>
        <time>2016-10-09T09:08:25Z</time>
      </trkpt>
      <trkpt lat="47.25485" lon="-1.6964">
        <ele>57.4</ele>
        <time>2016-10-09T09:08:26Z</time>
      </trkpt>
      <trkpt lat="47.25438" lon="-1.69611">
        <ele>57</ele>
        <time>2016-10-09T09:08:33Z</time>
      </trkpt>
      <trkpt lat="47.25418" lon="-1.69604">
        <ele>56.9</ele>
        <time>2016-10-09T09:08:36Z</time>
      </trkpt>
      <trkpt lat="47.25404" lon="-1.69601">
        <ele>57.2</ele>
        <time>2016-10-09T09:08:38Z</time>
      </trkpt>
      <trkpt lat="47.25397" lon="-1.69601">
        <ele>57.4</ele>
        <time>2016-10-09T09:08:39Z</time>
      </trkpt>
      <trkpt lat="47.25353" lon="-1.69576">
        <ele>58.4</ele>
        <time>2016-10-09T09:08:46Z</time>
      </trkpt>
      <trkpt lat="47.25323" lon="-1.69554">
        <ele>59.1</ele>
        <time>2016-10-09T09:08:51Z</time>
      </trkpt>
      <trkpt lat="47.25311" lon="-1.69545">
        <ele>59.3</ele>
        <time>2016-10-09T09:08:53Z</time>
      </trkpt>
      <trkpt lat="47.25273" lon="-1.6951">
        <ele>60.1</ele>
        <time>2016-10-09T09:09:00Z</time>
      </trkpt>
      <trkpt lat="47.25227" lon="-1.69489">
        <ele>61</ele>
        <time>2016-10-09T09:09:09Z</time>
      </trkpt>
      <trkpt lat="47.25216" lon="-1.69489">
        <ele>61</ele>
        <time>2016-10-09T09:09:11Z</time>
      </trkpt>
      <trkpt lat="47.25211" lon="-1.6949">
        <ele>61</ele>
        <time>2016-10-09T09:09:12Z</time>
      </trkpt>
      <trkpt lat="47.25202" lon="-1.69487">
        <ele>61</ele>
        <time>2016-10-09T09:09:14Z</time>
      </trkpt>
      <trkpt lat="47.25197" lon="-1.69486">
        <ele>61.1</ele>
        <time>2016-10-09T09:09:15Z</time>
      </trkpt>
      <trkpt lat="47.25164" lon="-1.69483">
        <ele>62</ele>
        <time>2016-10-09T09:09:21Z</time>
      </trkpt>
      <trkpt lat="47.25154" lon="-1.69482">
        <ele>63.6</ele>
        <time>2016-10-09T09:09:23Z</time>
      </trkpt>
      <trkpt lat="47.25138" lon="-1.69481">
        <ele>66.1</ele>
        <time>2016-10-09T09:09:27Z</time>
      </trkpt>
      <trkpt lat="47.25118" lon="-1.69481">
        <ele>60.1</ele>
        <time>2016-10-09T09:09:32Z</time>
      </trkpt>
      <trkpt lat="47.25106" lon="-1.69481">
        <ele>60.5</ele>
        <time>2016-10-09T09:09:35Z</time>
      </trkpt>
      <trkpt lat="47.25079" lon="-1.69498">
        <ele>61.6</ele>
        <time>2016-10-09T09:09:42Z</time>
      </trkpt>
      <trkpt lat="47.25064" lon="-1.69514">
        <ele>62.1</ele>
        <time>2016-10-09T09:09:45Z</time>
      </trkpt>
      <trkpt lat="47.2505" lon="-1.69517">
        <ele>62.4</ele>
        <time>2016-10-09T09:09:48Z</time>
      </trkpt>
      <trkpt lat="47.25022" lon="-1.69523">
        <ele>61.2</ele>
        <time>2016-10-09T09:09:54Z</time>
      </trkpt>
      <trkpt lat="47.25017" lon="-1.69525">
        <ele>61.3</ele>
        <time>2016-10-09T09:09:55Z</time>
      </trkpt>
      <trkpt lat="47.2497" lon="-1.6955">
        <ele>62.2</ele>
        <time>2016-10-09T09:10:05Z</time>
      </trkpt>
      <trkpt lat="47.2493" lon="-1.69579">
        <ele>62.9</ele>
        <time>2016-10-09T09:10:13Z</time>
      </trkpt>
      <trkpt lat="47.24893" lon="-1.69617">
        <ele>63.7</ele>
        <time>2016-10-09T09:10:21Z</time>
      </trkpt>
      <trkpt lat="47.24891" lon="-1.69622">
        <ele>63.7</ele>
        <time>2016-10-09T09:10:22Z</time>
      </trkpt>
      <trkpt lat="47.24879" lon="-1.69646">
        <ele>63.6</ele>
        <time>2016-10-09T09:10:27Z</time>
      </trkpt>
      <trkpt lat="47.24878" lon="-1.69651">
        <ele>63.5</ele>
        <time>2016-10-09T09:10:28Z</time>
      </trkpt>
      <trkpt lat="47.24879" lon="-1.69677">
        <ele>62.9</ele>
        <time>2016-10-09T09:10:33Z</time>
      </trkpt>
      <trkpt lat="47.24866" lon="-1.69693">
        <ele>62.4</ele>
        <time>2016-10-09T09:10:37Z</time>
      </trkpt>
      <trkpt lat="47.24822" lon="-1.69729">
        <ele>61.2</ele>
        <time>2016-10-09T09:10:47Z</time>
      </trkpt>
      <trkpt lat="47.24795" lon="-1.69745">
        <ele>60.6</ele>
        <time>2016-10-09T09:10:53Z</time>
      </trkpt>
      <trkpt lat="47.24777" lon="-1.69756">
        <ele>62.3</ele>
        <time>2016-10-09T09:10:57Z</time>
      </trkpt>
      <trkpt lat="47.24743" lon="-1.69773">
        <ele>64.5</ele>
        <time>2016-10-09T09:11:04Z</time>
      </trkpt>
      <trkpt lat="47.24734" lon="-1.69778">
        <ele>62</ele>
        <time>2016-10-09T09:11:06Z</time>
      </trkpt>
      <trkpt lat="47.24723" lon="-1.69788">
        <ele>58.4</ele>
        <time>2016-10-09T09:11:09Z</time>
      </trkpt>
      <trkpt lat="47.2471" lon="-1.69802">
        <ele>56.5</ele>
        <time>2016-10-09T09:11:13Z</time>
      </trkpt>
      <trkpt lat="47.24693" lon="-1.69828">
        <ele>53.6</ele>
        <time>2016-10-09T09:11:19Z</time>
      </trkpt>
      <trkpt lat="47.24689" lon="-1.6983">
        <ele>53.3</ele>
        <time>2016-10-09T09:11:20Z</time>
      </trkpt>
      <trkpt lat="47.24645" lon="-1.69853">
        <ele>53.7</ele>
        <time>2016-10-09T09:11:30Z</time>
      </trkpt>
      <trkpt lat="47.24635" lon="-1.69854">
        <ele>53.6</ele>
        <time>2016-10-09T09:11:32Z</time>
      </trkpt>
      <trkpt lat="47.24617" lon="-1.69855">
        <ele>52.1</ele>
        <time>2016-10-09T09:11:36Z</time>
      </trkpt>
      <trkpt lat="47.24613" lon="-1.69854">
        <ele>51.7</ele>
        <time>2016-10-09T09:11:37Z</time>
      </trkpt>
      <trkpt lat="47.24598" lon="-1.69852">
        <ele>50.9</ele>
        <time>2016-10-09T09:11:40Z</time>
      </trkpt>
      <trkpt lat="47.24581" lon="-1.69856">
        <ele>50.3</ele>
        <time>2016-10-09T09:11:43Z</time>
      </trkpt>
      <trkpt lat="47.24553" lon="-1.69865">
        <ele>52</ele>
        <time>2016-10-09T09:11:48Z</time>
      </trkpt>
      <trkpt lat="47.24547" lon="-1.69867">
        <ele>52.2</ele>
        <time>2016-10-09T09:11:49Z</time>
      </trkpt>
      <trkpt lat="47.24505" lon="-1.69882">
        <ele>50.5</ele>
        <time>2016-10-09T09:11:56Z</time>
      </trkpt>
      <trkpt lat="47.24492" lon="-1.69897">
        <ele>49.4</ele>
        <time>2016-10-09T09:12:00Z</time>
      </trkpt>
      <trkpt lat="47.24486" lon="-1.69924">
        <ele>48</ele>
        <time>2016-10-09T09:12:04Z</time>
      </trkpt>
      <trkpt lat="47.24482" lon="-1.6993">
        <ele>48</ele>
        <time>2016-10-09T09:12:05Z</time>
      </trkpt>
      <trkpt lat="47.2447" lon="-1.69948">
        <ele>49.1</ele>
        <time>2016-10-09T09:12:08Z</time>
      </trkpt>
      <trkpt lat="47.24465" lon="-1.69952">
        <ele>49.5</ele>
        <time>2016-10-09T09:12:09Z</time>
      </trkpt>
      <trkpt lat="47.24456" lon="-1.69965">
        <ele>50.2</ele>
        <time>2016-10-09T09:12:11Z</time>
      </trkpt>
      <trkpt lat="47.2443" lon="-1.70002">
        <ele>51.1</ele>
        <time>2016-10-09T09:12:17Z</time>
      </trkpt>
      <trkpt lat="47.24411" lon="-1.70031">
        <ele>46.8</ele>
        <time>2016-10-09T09:12:23Z</time>
      </trkpt>
      <trkpt lat="47.24399" lon="-1.70051">
        <ele>46.2</ele>
        <time>2016-10-09T09:12:27Z</time>
      </trkpt>
      <trkpt lat="47.24391" lon="-1.70061">
        <ele>46</ele>
        <time>2016-10-09T09:12:29Z</time>
      </trkpt>
      <trkpt lat="47.24371" lon="-1.70085">
        <ele>46.7</ele>
        <time>2016-10-09T09:12:34Z</time>
      </trkpt>
      <trkpt lat="47.24363" lon="-1.70095">
        <ele>46.2</ele>
        <time>2016-10-09T09:12:36Z</time>
      </trkpt>
      <trkpt lat="47.24344" lon="-1.70118">
        <ele>45.3</ele>
        <time>2016-10-09T09:12:40Z</time>
      </trkpt>
      <trkpt lat="47.24332" lon="-1.7013">
        <ele>44.8</ele>
        <time>2016-10-09T09:12:42Z</time>
      </trkpt>
      <trkpt lat="47.24323" lon="-1.70144">
        <ele>44.4</ele>
        <time>2016-10-09T09:12:44Z</time>
      </trkpt>
      <trkpt lat="47.24301" lon="-1.70178">
        <ele>44.4</ele>
        <time>2016-10-09T09:12:49Z</time>
      </trkpt>
      <trkpt lat="47.2426" lon="-1.70206">
        <ele>44.4</ele>
        <time>2016-10-09T09:12:57Z</time>
      </trkpt>
      <trkpt lat="47.24239" lon="-1.70221">
        <ele>44.3</ele>
        <time>2016-10-09T09:13:01Z</time>
      </trkpt>
      <trkpt lat="47.242" lon="-1.70258">
        <ele>44.3</ele>
        <time>2016-10-09T09:13:07Z</time>
      </trkpt>
      <trkpt lat="47.2416" lon="-1.70295">
        <ele>44.3</ele>
        <time>2016-10-09T09:13:13Z</time>
      </trkpt>
      <trkpt lat="47.24141" lon="-1.70308">
        <ele>44.3</ele>
        <time>2016-10-09T09:13:16Z</time>
      </trkpt>
      <trkpt lat="47.24136" lon="-1.70307">
        <ele>44.1</ele>
        <time>2016-10-09T09:13:17Z</time>
      </trkpt>
      <trkpt lat="47.24132" lon="-1.70305">
        <ele>43.5</ele>
        <time>2016-10-09T09:13:18Z</time>
      </trkpt>
      <trkpt lat="47.24126" lon="-1.70285">
        <ele>41.2</ele>
        <time>2016-10-09T09:13:22Z</time>
      </trkpt>
      <trkpt lat="47.24125" lon="-1.70278">
        <ele>41</ele>
        <time>2016-10-09T09:13:23Z</time>
      </trkpt>
      <trkpt lat="47.24124" lon="-1.70246">
        <ele>42.3</ele>
        <time>2016-10-09T09:13:28Z</time>
      </trkpt>
      <trkpt lat="47.24122" lon="-1.7024">
        <ele>42.5</ele>
        <time>2016-10-09T09:13:29Z</time>
      </trkpt>
      <trkpt lat="47.24118" lon="-1.702">
        <ele>44</ele>
        <time>2016-10-09T09:13:35Z</time>
      </trkpt>
      <trkpt lat="47.24106" lon="-1.70155">
        <ele>45</ele>
        <time>2016-10-09T09:13:42Z</time>
      </trkpt>
      <trkpt lat="47.24104" lon="-1.7015">
        <ele>45.1</ele>
        <time>2016-10-09T09:13:43Z</time>
      </trkpt>
      <trkpt lat="47.24101" lon="-1.70135">
        <ele>45.2</ele>
        <time>2016-10-09T09:13:45Z</time>
      </trkpt>
      <trkpt lat="47.24094" lon="-1.70091">
        <ele>43</ele>
        <time>2016-10-09T09:13:51Z</time>
      </trkpt>
      <trkpt lat="47.24089" lon="-1.70051">
        <ele>42.5</ele>
        <time>2016-10-09T09:13:56Z</time>
      </trkpt>
      <trkpt lat="47.24074" lon="-1.70008">
        <ele>41.8</ele>
        <time>2016-10-09T09:14:02Z</time>
      </trkpt>
      <trkpt lat="47.24066" lon="-1.69969">
        <ele>41.2</ele>
        <time>2016-10-09T09:14:07Z</time>
      </trkpt>
      <trkpt lat="47.24063" lon="-1.69961">
        <ele>41.2</ele>
        <time>2016-10-09T09:14:08Z</time>
      </trkpt>
      <trkpt lat="47.24054" lon="-1.69935">
        <ele>41.6</ele>
        <time>2016-10-09T09:14:11Z</time>
      </trkpt>
      <trkpt lat="47.24051" lon="-1.69908">
        <ele>41.9</ele>
        <time>2016-10-09T09:14:14Z</time>
      </trkpt>
      <trkpt lat="47.24045" lon="-1.69857">
        <ele>40.4</ele>
        <time>2016-10-09T09:14:19Z</time>
      </trkpt>
      <trkpt lat="47.24031" lon="-1.69809">
        <ele>39</ele>
        <time>2016-10-09T09:14:24Z</time>
      </trkpt>
      <trkpt lat="47.24026" lon="-1.6979">
        <ele>39.4</ele>
        <time>2016-10-09T09:14:26Z</time>
      </trkpt>
      <trkpt lat="47.24015" lon="-1.6975">
        <ele>39.9</ele>
        <time>2016-10-09T09:14:30Z</time>
      </trkpt>
      <trkpt lat="47.24011" lon="-1.69739">
        <ele>39.4</ele>
        <time>2016-10-09T09:14:31Z</time>
      </trkpt>
      <trkpt lat="47.24007" lon="-1.69716">
        <ele>38.4</ele>
        <time>2016-10-09T09:14:33Z</time>
      </trkpt>
      <trkpt lat="47.23997" lon="-1.69687">
        <ele>37.4</ele>
        <time>2016-10-09T09:14:36Z</time>
      </trkpt>
      <trkpt lat="47.23984" lon="-1.6965">
        <ele>40.4</ele>
        <time>2016-10-09T09:14:40Z</time>
      </trkpt>
      <trkpt lat="47.23982" lon="-1.69642">
        <ele>40.7</ele>
        <time>2016-10-09T09:14:41Z</time>
      </trkpt>
      <trkpt lat="47.23976" lon="-1.69629">
        <ele>39.1</ele>
        <time>2016-10-09T09:14:43Z</time>
      </trkpt>
      <trkpt lat="47.2397" lon="-1.69622">
        <ele>37.4</ele>
        <time>2016-10-09T09:14:45Z</time>
      </trkpt>
      <trkpt lat="47.23967" lon="-1.69617">
        <ele>37</ele>
        <time>2016-10-09T09:14:46Z</time>
      </trkpt>
      <trkpt lat="47.23944" lon="-1.69566">
        <ele>37.5</ele>
        <time>2016-10-09T09:14:55Z</time>
      </trkpt>
      <trkpt lat="47.23937" lon="-1.69554">
        <ele>37.6</ele>
        <time>2016-10-09T09:14:57Z</time>
      </trkpt>
      <trkpt lat="47.23912" lon="-1.69514">
        <ele>38.4</ele>
        <time>2016-10-09T09:15:04Z</time>
      </trkpt>
      <trkpt lat="47.23893" lon="-1.69481">
        <ele>39.1</ele>
        <time>2016-10-09T09:15:10Z</time>
      </trkpt>
      <trkpt lat="47.23878" lon="-1.69481">
        <ele>39.4</ele>
        <time>2016-10-09T09:15:13Z</time>
      </trkpt>
      <trkpt lat="47.23841" lon="-1.695">
        <ele>40.1</ele>
        <time>2016-10-09T09:15:20Z</time>
      </trkpt>
      <trkpt lat="47.23836" lon="-1.69502">
        <ele>40.2</ele>
        <time>2016-10-09T09:15:21Z</time>
      </trkpt>
      <trkpt lat="47.23814" lon="-1.69514">
        <ele>40.2</ele>
        <time>2016-10-09T09:15:25Z</time>
      </trkpt>
      <trkpt lat="47.23793" lon="-1.69526">
        <ele>38.2</ele>
        <time>2016-10-09T09:15:29Z</time>
      </trkpt>
      <trkpt lat="47.23781" lon="-1.69531">
        <ele>37.2</ele>
        <time>2016-10-09T09:15:31Z</time>
      </trkpt>
      <trkpt lat="47.23746" lon="-1.69546">
        <ele>36.4</ele>
        <time>2016-10-09T09:15:37Z</time>
      </trkpt>
      <trkpt lat="47.23701" lon="-1.69576">
        <ele>35.3</ele>
        <time>2016-10-09T09:15:45Z</time>
      </trkpt>
      <trkpt lat="47.23661" lon="-1.69611">
        <ele>34.3</ele>
        <time>2016-10-09T09:15:52Z</time>
      </trkpt>
      <trkpt lat="47.23629" lon="-1.6966">
        <ele>33.3</ele>
        <time>2016-10-09T09:15:59Z</time>
      </trkpt>
      <trkpt lat="47.23602" lon="-1.69721">
        <ele>32.3</ele>
        <time>2016-10-09T09:16:06Z</time>
      </trkpt>
      <trkpt lat="47.23573" lon="-1.69778">
        <ele>31.2</ele>
        <time>2016-10-09T09:16:14Z</time>
      </trkpt>
      <trkpt lat="47.2357" lon="-1.69785">
        <ele>30.9</ele>
        <time>2016-10-09T09:16:15Z</time>
      </trkpt>
      <trkpt lat="47.23557" lon="-1.6982">
        <ele>27.9</ele>
        <time>2016-10-09T09:16:20Z</time>
      </trkpt>
      <trkpt lat="47.23545" lon="-1.69838">
        <ele>26.7</ele>
        <time>2016-10-09T09:16:22Z</time>
      </trkpt>
      <trkpt lat="47.23539" lon="-1.69849">
        <ele>24.5</ele>
        <time>2016-10-09T09:16:26Z</time>
      </trkpt>
      <trkpt lat="47.23514" lon="-1.69892">
        <ele>24.6</ele>
        <time>2016-10-09T09:16:41Z</time>
      </trkpt>
      <trkpt lat="47.23511" lon="-1.69899">
        <ele>24.7</ele>
        <time>2016-10-09T09:16:43Z</time>
      </trkpt>
      <trkpt lat="47.235" lon="-1.69922">
        <ele>25.2</ele>
        <time>2016-10-09T09:16:49Z</time>
      </trkpt>
      <trkpt lat="47.23487" lon="-1.69948">
        <ele>25.8</ele>
        <time>2016-10-09T09:16:56Z</time>
      </trkpt>
      <trkpt lat="47.23473" lon="-1.70012">
        <ele>27.1</ele>
        <time>2016-10-09T09:17:12Z</time>
      </trkpt>
      <trkpt lat="47.23476" lon="-1.70084">
        <ele>28.3</ele>
        <time>2016-10-09T09:17:26Z</time>
      </trkpt>
      <trkpt lat="47.23478" lon="-1.7011">
        <ele>28.6</ele>
        <time>2016-10-09T09:17:30Z</time>
      </trkpt>
      <trkpt lat="47.23472" lon="-1.70118">
        <ele>28.8</ele>
        <time>2016-10-09T09:17:32Z</time>
      </trkpt>
      <trkpt lat="47.23442" lon="-1.70129">
        <ele>29.6</ele>
        <time>2016-10-09T09:17:40Z</time>
      </trkpt>
      <trkpt lat="47.23427" lon="-1.70135">
        <ele>31.9</ele>
        <time>2016-10-09T09:17:44Z</time>
      </trkpt>
      <trkpt lat="47.2342" lon="-1.70139">
        <ele>32.9</ele>
        <time>2016-10-09T09:17:46Z</time>
      </trkpt>
      <trkpt lat="47.23402" lon="-1.70151">
        <ele>33.1</ele>
        <time>2016-10-09T09:17:52Z</time>
      </trkpt>
      <trkpt lat="47.23386" lon="-1.70161">
        <ele>34.5</ele>
        <time>2016-10-09T09:17:57Z</time>
      </trkpt>
      <trkpt lat="47.23383" lon="-1.70163">
        <ele>34.5</ele>
        <time>2016-10-09T09:17:58Z</time>
      </trkpt>
      <trkpt lat="47.23368" lon="-1.70171">
        <ele>34.5</ele>
        <time>2016-10-09T09:18:03Z</time>
      </trkpt>
      <trkpt lat="47.23338" lon="-1.70187">
        <ele>35.1</ele>
        <time>2016-10-09T09:18:13Z</time>
      </trkpt>
      <trkpt lat="47.2331" lon="-1.70203">
        <ele>35.5</ele>
        <time>2016-10-09T09:18:20Z</time>
      </trkpt>
      <trkpt lat="47.23293" lon="-1.70213">
        <ele>34.7</ele>
        <time>2016-10-09T09:18:24Z</time>
      </trkpt>
      <trkpt lat="47.23247" lon="-1.70237">
        <ele>33.1</ele>
        <time>2016-10-09T09:18:33Z</time>
      </trkpt>
      <trkpt lat="47.23224" lon="-1.70245">
        <ele>32.5</ele>
        <time>2016-10-09T09:18:37Z</time>
      </trkpt>
      <trkpt lat="47.232" lon="-1.70253">
        <ele>33</ele>
        <time>2016-10-09T09:18:41Z</time>
      </trkpt>
      <trkpt lat="47.2316" lon="-1.7027">
        <ele>33.5</ele>
        <time>2016-10-09T09:18:47Z</time>
      </trkpt>
      <trkpt lat="47.23116" lon="-1.703">
        <ele>30.5</ele>
        <time>2016-10-09T09:18:54Z</time>
      </trkpt>
      <trkpt lat="47.23077" lon="-1.70336">
        <ele>27</ele>
        <time>2016-10-09T09:19:02Z</time>
      </trkpt>
      <trkpt lat="47.23068" lon="-1.70338">
        <ele>26.2</ele>
        <time>2016-10-09T09:19:04Z</time>
      </trkpt>
      <trkpt lat="47.23029" lon="-1.70346">
        <ele>23.8</ele>
        <time>2016-10-09T09:19:12Z</time>
      </trkpt>
      <trkpt lat="47.23014" lon="-1.7035">
        <ele>22.9</ele>
        <time>2016-10-09T09:19:15Z</time>
      </trkpt>
      <trkpt lat="47.23008" lon="-1.70364">
        <ele>22.6</ele>
        <time>2016-10-09T09:19:18Z</time>
      </trkpt>
      <trkpt lat="47.23001" lon="-1.70417">
        <ele>21.9</ele>
        <time>2016-10-09T09:19:26Z</time>
      </trkpt>
      <trkpt lat="47.22999" lon="-1.7043">
        <ele>22.6</ele>
        <time>2016-10-09T09:19:28Z</time>
      </trkpt>
      <trkpt lat="47.22999" lon="-1.70455">
        <ele>23.9</ele>
        <time>2016-10-09T09:19:32Z</time>
      </trkpt>
      <trkpt lat="47.22992" lon="-1.70483">
        <ele>22.9</ele>
        <time>2016-10-09T09:19:36Z</time>
      </trkpt>
      <trkpt lat="47.22984" lon="-1.70495">
        <ele>22.4</ele>
        <time>2016-10-09T09:19:38Z</time>
      </trkpt>
      <trkpt lat="47.22964" lon="-1.70499">
        <ele>21.2</ele>
        <time>2016-10-09T09:19:43Z</time>
      </trkpt>
      <trkpt lat="47.22935" lon="-1.70492">
        <ele>18.6</ele>
        <time>2016-10-09T09:19:53Z</time>
      </trkpt>
      <trkpt lat="47.22919" lon="-1.70488">
        <ele>16.8</ele>
        <time>2016-10-09T09:19:58Z</time>
      </trkpt>
      <trkpt lat="47.2288" lon="-1.70484">
        <ele>13.2</ele>
        <time>2016-10-09T09:20:09Z</time>
      </trkpt>
      <trkpt lat="47.22872" lon="-1.70483">
        <ele>14.2</ele>
        <time>2016-10-09T09:20:11Z</time>
      </trkpt>
      <trkpt lat="47.2285" lon="-1.70478">
        <ele>15.7</ele>
        <time>2016-10-09T09:20:15Z</time>
      </trkpt>
      <trkpt lat="47.22827" lon="-1.70471">
        <ele>11.3</ele>
        <time>2016-10-09T09:20:19Z</time>
      </trkpt>
      <trkpt lat="47.22821" lon="-1.70467">
        <ele>10.7</ele>
        <time>2016-10-09T09:20:20Z</time>
      </trkpt>
      <trkpt lat="47.22791" lon="-1.70447">
        <ele>12</ele>
        <time>2016-10-09T09:20:25Z</time>
      </trkpt>
      <trkpt lat="47.22756" lon="-1.70441">
        <ele>14.3</ele>
        <time>2016-10-09T09:20:31Z</time>
      </trkpt>
      <trkpt lat="47.22752" lon="-1.70438">
        <ele>13.2</ele>
        <time>2016-10-09T09:20:32Z</time>
      </trkpt>
      <trkpt lat="47.22739" lon="-1.70401">
        <ele>8.2</ele>
        <time>2016-10-09T09:20:37Z</time>
      </trkpt>
      <trkpt lat="47.22731" lon="-1.70377">
        <ele>8</ele>
        <time>2016-10-09T09:20:40Z</time>
      </trkpt>
      <trkpt lat="47.22722" lon="-1.70348">
        <ele>7.9</ele>
        <time>2016-10-09T09:20:43Z</time>
      </trkpt>
      <trkpt lat="47.2271" lon="-1.70308">
        <ele>7.2</ele>
        <time>2016-10-09T09:20:47Z</time>
      </trkpt>
      <trkpt lat="47.22703" lon="-1.70241">
        <ele>6.2</ele>
        <time>2016-10-09T09:20:53Z</time>
      </trkpt>
      <trkpt lat="47.22696" lon="-1.7017">
        <ele>5.2</ele>
        <time>2016-10-09T09:21:00Z</time>
      </trkpt>
      <trkpt lat="47.22686" lon="-1.70103">
        <ele>5.3</ele>
        <time>2016-10-09T09:21:09Z</time>
      </trkpt>
      <trkpt lat="47.22678" lon="-1.70033">
        <ele>5.4</ele>
        <time>2016-10-09T09:21:16Z</time>
      </trkpt>
      <trkpt lat="47.22677" lon="-1.69965">
        <ele>5.5</ele>
        <time>2016-10-09T09:21:23Z</time>
      </trkpt>
      <trkpt lat="47.22683" lon="-1.69925">
        <ele>5.6</ele>
        <time>2016-10-09T09:21:28Z</time>
      </trkpt>
      <trkpt lat="47.22691" lon="-1.69915">
        <ele>5.6</ele>
        <time>2016-10-09T09:21:30Z</time>
      </trkpt>
      <trkpt lat="47.22711" lon="-1.69908">
        <ele>5.9</ele>
        <time>2016-10-09T09:21:34Z</time>
      </trkpt>
      <trkpt lat="47.22735" lon="-1.69899">
        <ele>9.8</ele>
        <time>2016-10-09T09:21:39Z</time>
      </trkpt>
      <trkpt lat="47.22759" lon="-1.6988">
        <ele>8.3</ele>
        <time>2016-10-09T09:21:45Z</time>
      </trkpt>
      <trkpt lat="47.22766" lon="-1.69874">
        <ele>8.5</ele>
        <time>2016-10-09T09:21:47Z</time>
      </trkpt>
      <trkpt lat="47.22794" lon="-1.69841">
        <ele>9.7</ele>
        <time>2016-10-09T09:21:58Z</time>
      </trkpt>
      <trkpt lat="47.22797" lon="-1.69839">
        <ele>9.8</ele>
        <time>2016-10-09T09:21:59Z</time>
      </trkpt>
      <trkpt lat="47.22825" lon="-1.69823">
        <ele>10.7</ele>
        <time>2016-10-09T09:22:08Z</time>
      </trkpt>
      <trkpt lat="47.22837" lon="-1.69816">
        <ele>11.2</ele>
        <time>2016-10-09T09:22:12Z</time>
      </trkpt>
      <trkpt lat="47.22853" lon="-1.69801">
        <ele>12</ele>
        <time>2016-10-09T09:22:19Z</time>
      </trkpt>
      <trkpt lat="47.22866" lon="-1.69788">
        <ele>14.3</ele>
        <time>2016-10-09T09:22:25Z</time>
      </trkpt>
      <trkpt lat="47.22875" lon="-1.69779">
        <ele>14.9</ele>
        <time>2016-10-09T09:22:29Z</time>
      </trkpt>
      <trkpt lat="47.22874" lon="-1.69773">
        <ele>15</ele>
        <time>2016-10-09T09:22:31Z</time>
      </trkpt>
      <trkpt lat="47.22874" lon="-1.6977">
        <ele>14.8</ele>
        <time>2016-10-09T09:22:32Z</time>
      </trkpt>
      <trkpt lat="47.22852" lon="-1.6975">
        <ele>11.6</ele>
        <time>2016-10-09T09:22:43Z</time>
      </trkpt>
      <trkpt lat="47.22844" lon="-1.69741">
        <ele>10.5</ele>
        <time>2016-10-09T09:22:47Z</time>
      </trkpt>
      <trkpt lat="47.22843" lon="-1.69731">
        <ele>9.9</ele>
        <time>2016-10-09T09:22:49Z</time>
      </trkpt>
      <trkpt lat="47.22842" lon="-1.69725">
        <ele>9.6</ele>
        <time>2016-10-09T09:22:50Z</time>
      </trkpt>
      <trkpt lat="47.22826" lon="-1.69698">
        <ele>7.8</ele>
        <time>2016-10-09T09:22:55Z</time>
      </trkpt>
      <trkpt lat="47.22823" lon="-1.69692">
        <ele>7.7</ele>
        <time>2016-10-09T09:22:56Z</time>
      </trkpt>
      <trkpt lat="47.22811" lon="-1.69651">
        <ele>7.3</ele>
        <time>2016-10-09T09:23:05Z</time>
      </trkpt>
      <trkpt lat="47.22808" lon="-1.69638">
        <ele>9.7</ele>
        <time>2016-10-09T09:23:08Z</time>
      </trkpt>
      <trkpt lat="47.22812" lon="-1.69631">
        <ele>11.9</ele>
        <time>2016-10-09T09:23:11Z</time>
      </trkpt>
      <trkpt lat="47.2282" lon="-1.69617">
        <ele>13.3</ele>
        <time>2016-10-09T09:23:17Z</time>
      </trkpt>
      <trkpt lat="47.22827" lon="-1.69603">
        <ele>15.1</ele>
        <time>2016-10-09T09:23:23Z</time>
      </trkpt>
      <trkpt lat="47.22836" lon="-1.69587">
        <ele>16.2</ele>
        <time>2016-10-09T09:23:30Z</time>
      </trkpt>
      <trkpt lat="47.22842" lon="-1.69581">
        <ele>16.8</ele>
        <time>2016-10-09T09:23:34Z</time>
      </trkpt>
      <trkpt lat="47.22867" lon="-1.69557">
        <ele>20.2</ele>
        <time>2016-10-09T09:23:51Z</time>
      </trkpt>
      <trkpt lat="47.22874" lon="-1.6955">
        <ele>21</ele>
        <time>2016-10-09T09:23:56Z</time>
      </trkpt>
      <trkpt lat="47.229" lon="-1.6952">
        <ele>23.6</ele>
        <time>2016-10-09T09:24:13Z</time>
      </trkpt>
      <trkpt lat="47.2291" lon="-1.6951">
        <ele>24.9</ele>
        <time>2016-10-09T09:24:19Z</time>
      </trkpt>
      <trkpt lat="47.22927" lon="-1.69488">
        <ele>27.4</ele>
        <time>2016-10-09T09:24:30Z</time>
      </trkpt>
      <trkpt lat="47.22945" lon="-1.69466">
        <ele>28</ele>
        <time>2016-10-09T09:24:41Z</time>
      </trkpt>
      <trkpt lat="47.22957" lon="-1.69453">
        <ele>28.3</ele>
        <time>2016-10-09T09:24:47Z</time>
      </trkpt>
      <trkpt lat="47.22982" lon="-1.69426">
        <ele>29.7</ele>
        <time>2016-10-09T09:24:59Z</time>
      </trkpt>
      <trkpt lat="47.23011" lon="-1.6937">
        <ele>31.7</ele>
        <time>2016-10-09T09:25:16Z</time>
      </trkpt>
      <trkpt lat="47.23014" lon="-1.69352">
        <ele>32.2</ele>
        <time>2016-10-09T09:25:20Z</time>
      </trkpt>
      <trkpt lat="47.23023" lon="-1.69303">
        <ele>33.4</ele>
        <time>2016-10-09T09:25:31Z</time>
      </trkpt>
      <trkpt lat="47.23039" lon="-1.69252">
        <ele>34.5</ele>
        <time>2016-10-09T09:25:42Z</time>
      </trkpt>
      <trkpt lat="47.23042" lon="-1.69243">
        <ele>34.7</ele>
        <time>2016-10-09T09:25:44Z</time>
      </trkpt>
      <trkpt lat="47.23071" lon="-1.69193">
        <ele>35.3</ele>
        <time>2016-10-09T09:25:55Z</time>
      </trkpt>
      <trkpt lat="47.23106" lon="-1.69148">
        <ele>36</ele>
        <time>2016-10-09T09:26:06Z</time>
      </trkpt>
      <trkpt lat="47.23131" lon="-1.69111">
        <ele>36.6</ele>
        <time>2016-10-09T09:26:15Z</time>
      </trkpt>
      <trkpt lat="47.23131" lon="-1.69099">
        <ele>36.7</ele>
        <time>2016-10-09T09:26:17Z</time>
      </trkpt>
      <trkpt lat="47.23099" lon="-1.69051">
        <ele>37.3</ele>
        <time>2016-10-09T09:26:27Z</time>
      </trkpt>
      <trkpt lat="47.23077" lon="-1.68992">
        <ele>38</ele>
        <time>2016-10-09T09:26:38Z</time>
      </trkpt>
      <trkpt lat="47.23073" lon="-1.6897">
        <ele>38.2</ele>
        <time>2016-10-09T09:26:42Z</time>
      </trkpt>
      <trkpt lat="47.23065" lon="-1.68924">
        <ele>38.7</ele>
        <time>2016-10-09T09:26:50Z</time>
      </trkpt>
      <trkpt lat="47.23051" lon="-1.68856">
        <ele>39.4</ele>
        <time>2016-10-09T09:27:01Z</time>
      </trkpt>
      <trkpt lat="47.23032" lon="-1.68796">
        <ele>40</ele>
        <time>2016-10-09T09:27:10Z</time>
      </trkpt>
      <trkpt lat="47.22999" lon="-1.68752">
        <ele>40.7</ele>
        <time>2016-10-09T09:27:20Z</time>
      </trkpt>
      <trkpt lat="47.23" lon="-1.68745">
        <ele>40.8</ele>
        <time>2016-10-09T09:27:22Z</time>
      </trkpt>
      <trkpt lat="47.23045" lon="-1.68723">
        <ele>41.7</ele>
        <time>2016-10-09T09:27:36Z</time>
      </trkpt>
      <trkpt lat="47.23071" lon="-1.68711">
        <ele>42.2</ele>
        <time>2016-10-09T09:27:43Z</time>
      </trkpt>
      <trkpt lat="47.2309" lon="-1.68703">
        <ele>42.6</ele>
        <time>2016-10-09T09:27:48Z</time>
      </trkpt>
      <trkpt lat="47.23136" lon="-1.68685">
        <ele>43.6</ele>
        <time>2016-10-09T09:27:59Z</time>
      </trkpt>
      <trkpt lat="47.23139" lon="-1.68684">
        <ele>43.7</ele>
        <time>2016-10-09T09:28:00Z</time>
      </trkpt>
      <trkpt lat="47.2318" lon="-1.68665">
        <ele>44.9</ele>
        <time>2016-10-09T09:28:11Z</time>
      </trkpt>
      <trkpt lat="47.232" lon="-1.6866">
        <ele>45.4</ele>
        <time>2016-10-09T09:28:16Z</time>
      </trkpt>
      <trkpt lat="47.23228" lon="-1.68654">
        <ele>44.4</ele>
        <time>2016-10-09T09:28:23Z</time>
      </trkpt>
      <trkpt lat="47.23276" lon="-1.68653">
        <ele>43</ele>
        <time>2016-10-09T09:28:34Z</time>
      </trkpt>
      <trkpt lat="47.23322" lon="-1.68648">
        <ele>41.8</ele>
        <time>2016-10-09T09:28:43Z</time>
      </trkpt>
      <trkpt lat="47.23357" lon="-1.68645">
        <ele>41.4</ele>
        <time>2016-10-09T09:28:49Z</time>
      </trkpt>
      <trkpt lat="47.23368" lon="-1.68644">
        <ele>43.3</ele>
        <time>2016-10-09T09:28:51Z</time>
      </trkpt>
      <trkpt lat="47.23385" lon="-1.68644">
        <ele>45.6</ele>
        <time>2016-10-09T09:28:54Z</time>
      </trkpt>
      <trkpt lat="47.23413" lon="-1.68645">
        <ele>39.9</ele>
        <time>2016-10-09T09:28:59Z</time>
      </trkpt>
      <trkpt lat="47.23423" lon="-1.68657">
        <ele>39.7</ele>
        <time>2016-10-09T09:29:02Z</time>
      </trkpt>
      <trkpt lat="47.23429" lon="-1.68674">
        <ele>39.4</ele>
        <time>2016-10-09T09:29:05Z</time>
      </trkpt>
      <trkpt lat="47.23438" lon="-1.68704">
        <ele>37.8</ele>
        <time>2016-10-09T09:29:10Z</time>
      </trkpt>
      <trkpt lat="47.23444" lon="-1.68721">
        <ele>38.6</ele>
        <time>2016-10-09T09:29:13Z</time>
      </trkpt>
      <trkpt lat="47.23447" lon="-1.68732">
        <ele>39.2</ele>
        <time>2016-10-09T09:29:16Z</time>
      </trkpt>
      <trkpt lat="47.23453" lon="-1.68749">
        <ele>38.5</ele>
        <time>2016-10-09T09:29:21Z</time>
      </trkpt>
      <trkpt lat="47.2346" lon="-1.6877">
        <ele>35.1</ele>
        <time>2016-10-09T09:29:27Z</time>
      </trkpt>
      <trkpt lat="47.23463" lon="-1.6878">
        <ele>34.8</ele>
        <time>2016-10-09T09:29:30Z</time>
      </trkpt>
      <trkpt lat="47.23466" lon="-1.68786">
        <ele>34.4</ele>
        <time>2016-10-09T09:29:33Z</time>
      </trkpt>
      <trkpt lat="47.23475" lon="-1.68807">
        <ele>32.4</ele>
        <time>2016-10-09T09:29:44Z</time>
      </trkpt>
      <trkpt lat="47.2348" lon="-1.68819">
        <ele>31.9</ele>
        <time>2016-10-09T09:29:50Z</time>
      </trkpt>
      <trkpt lat="47.23489" lon="-1.68838">
        <ele>31.4</ele>
        <time>2016-10-09T09:30:00Z</time>
      </trkpt>
      <trkpt lat="47.23514" lon="-1.68894">
        <ele>30.6</ele>
        <time>2016-10-09T09:30:16Z</time>
      </trkpt>
      <trkpt lat="47.23541" lon="-1.68949">
        <ele>29.9</ele>
        <time>2016-10-09T09:30:29Z</time>
      </trkpt>
      <trkpt lat="47.23553" lon="-1.68977">
        <ele>29.7</ele>
        <time>2016-10-09T09:30:35Z</time>
      </trkpt>
      <trkpt lat="47.23559" lon="-1.68992">
        <ele>30.3</ele>
        <time>2016-10-09T09:30:38Z</time>
      </trkpt>
      <trkpt lat="47.23564" lon="-1.69015">
        <ele>30.9</ele>
        <time>2016-10-09T09:30:41Z</time>
      </trkpt>
      <trkpt lat="47.23565" lon="-1.69022">
        <ele>31</ele>
        <time>2016-10-09T09:30:42Z</time>
      </trkpt>
      <trkpt lat="47.23563" lon="-1.69033">
        <ele>31</ele>
        <time>2016-10-09T09:30:44Z</time>
      </trkpt>
      <trkpt lat="47.23531" lon="-1.69052">
        <ele>31.4</ele>
        <time>2016-10-09T09:30:51Z</time>
      </trkpt>
      <trkpt lat="47.2353" lon="-1.69061">
        <ele>31.5</ele>
        <time>2016-10-09T09:30:53Z</time>
      </trkpt>
      <trkpt lat="47.23571" lon="-1.69098">
        <ele>32.1</ele>
        <time>2016-10-09T09:31:06Z</time>
      </trkpt>
      <trkpt lat="47.23606" lon="-1.69148">
        <ele>32.6</ele>
        <time>2016-10-09T09:31:18Z</time>
      </trkpt>
      <trkpt lat="47.23615" lon="-1.6916">
        <ele>32.8</ele>
        <time>2016-10-09T09:31:21Z</time>
      </trkpt>
      <trkpt lat="47.2364" lon="-1.69194">
        <ele>34.3</ele>
        <time>2016-10-09T09:31:29Z</time>
      </trkpt>
      <trkpt lat="47.23673" lon="-1.6924">
        <ele>36.4</ele>
        <time>2016-10-09T09:31:40Z</time>
      </trkpt>
      <trkpt lat="47.23683" lon="-1.69251">
        <ele>36.9</ele>
        <time>2016-10-09T09:31:43Z</time>
      </trkpt>
      <trkpt lat="47.23712" lon="-1.69282">
        <ele>38</ele>
        <time>2016-10-09T09:31:52Z</time>
      </trkpt>
      <trkpt lat="47.23736" lon="-1.69306">
        <ele>38.8</ele>
        <time>2016-10-09T09:31:59Z</time>
      </trkpt>
      <trkpt lat="47.2375" lon="-1.6932">
        <ele>39.2</ele>
        <time>2016-10-09T09:32:03Z</time>
      </trkpt>
      <trkpt lat="47.23764" lon="-1.69335">
        <ele>39.5</ele>
        <time>2016-10-09T09:32:07Z</time>
      </trkpt>
      <trkpt lat="47.2377" lon="-1.69333">
        <ele>39.6</ele>
        <time>2016-10-09T09:32:09Z</time>
      </trkpt>
      <trkpt lat="47.23781" lon="-1.69269">
        <ele>40.5</ele>
        <time>2016-10-09T09:32:20Z</time>
      </trkpt>
      <trkpt lat="47.23792" lon="-1.692">
        <ele>41.2</ele>
        <time>2016-10-09T09:32:30Z</time>
      </trkpt>
      <trkpt lat="47.238" lon="-1.69135">
        <ele>42</ele>
        <time>2016-10-09T09:32:40Z</time>
      </trkpt>
      <trkpt lat="47.23806" lon="-1.69096">
        <ele>42.5</ele>
        <time>2016-10-09T09:32:47Z</time>
      </trkpt>
      <trkpt lat="47.23811" lon="-1.69068">
        <ele>41.9</ele>
        <time>2016-10-09T09:32:52Z</time>
      </trkpt>
      <trkpt lat="47.23812" lon="-1.69062">
        <ele>41.9</ele>
        <time>2016-10-09T09:32:53Z</time>
      </trkpt>
      <trkpt lat="47.23824" lon="-1.69003">
        <ele>44.7</ele>
        <time>2016-10-09T09:33:04Z</time>
      </trkpt>
      <trkpt lat="47.23825" lon="-1.68998">
        <ele>44.9</ele>
        <time>2016-10-09T09:33:05Z</time>
      </trkpt>
      <trkpt lat="47.23835" lon="-1.68967">
        <ele>44.4</ele>
        <time>2016-10-09T09:33:11Z</time>
      </trkpt>
      <trkpt lat="47.23842" lon="-1.68948">
        <ele>43.7</ele>
        <time>2016-10-09T09:33:15Z</time>
      </trkpt>
      <trkpt lat="47.23849" lon="-1.68946">
        <ele>43.6</ele>
        <time>2016-10-09T09:33:17Z</time>
      </trkpt>
      <trkpt lat="47.23867" lon="-1.6894">
        <ele>46.1</ele>
        <time>2016-10-09T09:33:22Z</time>
      </trkpt>
      <trkpt lat="47.23889" lon="-1.68934">
        <ele>47.3</ele>
        <time>2016-10-09T09:33:28Z</time>
      </trkpt>
      <trkpt lat="47.23935" lon="-1.68923">
        <ele>48.1</ele>
        <time>2016-10-09T09:33:41Z</time>
      </trkpt>
      <trkpt lat="47.23983" lon="-1.68918">
        <ele>48.7</ele>
        <time>2016-10-09T09:33:52Z</time>
      </trkpt>
      <trkpt lat="47.24031" lon="-1.68917">
        <ele>49.3</ele>
        <time>2016-10-09T09:34:03Z</time>
      </trkpt>
      <trkpt lat="47.24078" lon="-1.68915">
        <ele>50</ele>
        <time>2016-10-09T09:34:15Z</time>
      </trkpt>
      <trkpt lat="47.24095" lon="-1.68917">
        <ele>50.2</ele>
        <time>2016-10-09T09:34:19Z</time>
      </trkpt>
      <trkpt lat="47.24121" lon="-1.68922">
        <ele>50.9</ele>
        <time>2016-10-09T09:34:25Z</time>
      </trkpt>
      <trkpt lat="47.24125" lon="-1.68922">
        <ele>51</ele>
        <time>2016-10-09T09:34:26Z</time>
      </trkpt>
      <trkpt lat="47.24149" lon="-1.68925">
        <ele>51.2</ele>
        <time>2016-10-09T09:34:31Z</time>
      </trkpt>
      <trkpt lat="47.24172" lon="-1.68927">
        <ele>51.6</ele>
        <time>2016-10-09T09:34:36Z</time>
      </trkpt>
      <trkpt lat="47.24177" lon="-1.68927">
        <ele>51.7</ele>
        <time>2016-10-09T09:34:37Z</time>
      </trkpt>
      <trkpt lat="47.24221" lon="-1.68927">
        <ele>52.4</ele>
        <time>2016-10-09T09:34:46Z</time>
      </trkpt>
      <trkpt lat="47.24265" lon="-1.6893">
        <ele>53.2</ele>
        <time>2016-10-09T09:34:56Z</time>
      </trkpt>
      <trkpt lat="47.24314" lon="-1.68938">
        <ele>54.2</ele>
        <time>2016-10-09T09:35:09Z</time>
      </trkpt>
      <trkpt lat="47.24347" lon="-1.68944">
        <ele>54.7</ele>
        <time>2016-10-09T09:35:17Z</time>
      </trkpt>
      <trkpt lat="47.2436" lon="-1.68947">
        <ele>54.3</ele>
        <time>2016-10-09T09:35:20Z</time>
      </trkpt>
      <trkpt lat="47.24366" lon="-1.68956">
        <ele>54</ele>
        <time>2016-10-09T09:35:22Z</time>
      </trkpt>
      <trkpt lat="47.24371" lon="-1.68965">
        <ele>53.8</ele>
        <time>2016-10-09T09:35:24Z</time>
      </trkpt>
      <trkpt lat="47.24382" lon="-1.69034">
        <ele>52.9</ele>
        <time>2016-10-09T09:35:33Z</time>
      </trkpt>
      <trkpt lat="47.24392" lon="-1.69105">
        <ele>52</ele>
        <time>2016-10-09T09:35:42Z</time>
      </trkpt>
      <trkpt lat="47.24403" lon="-1.69163">
        <ele>51.5</ele>
        <time>2016-10-09T09:35:50Z</time>
      </trkpt>
      <trkpt lat="47.24409" lon="-1.69167">
        <ele>53.2</ele>
        <time>2016-10-09T09:35:52Z</time>
      </trkpt>
      <trkpt lat="47.24418" lon="-1.69158">
        <ele>55.4</ele>
        <time>2016-10-09T09:35:55Z</time>
      </trkpt>
      <trkpt lat="47.24449" lon="-1.6913">
        <ele>55</ele>
        <time>2016-10-09T09:36:05Z</time>
      </trkpt>
      <trkpt lat="47.2447" lon="-1.69112">
        <ele>54.9</ele>
        <time>2016-10-09T09:36:11Z</time>
      </trkpt>
      <trkpt lat="47.24477" lon="-1.69108">
        <ele>55.2</ele>
        <time>2016-10-09T09:36:13Z</time>
      </trkpt>
      <trkpt lat="47.24495" lon="-1.69113">
        <ele>55.7</ele>
        <time>2016-10-09T09:36:17Z</time>
      </trkpt>
      <trkpt lat="47.24514" lon="-1.69103">
        <ele>56.4</ele>
        <time>2016-10-09T09:36:21Z</time>
      </trkpt>
      <trkpt lat="47.24518" lon="-1.69099">
        <ele>56.6</ele>
        <time>2016-10-09T09:36:22Z</time>
      </trkpt>
      <trkpt lat="47.2455" lon="-1.69063">
        <ele>57.4</ele>
        <time>2016-10-09T09:36:31Z</time>
      </trkpt>
      <trkpt lat="47.24563" lon="-1.69057">
        <ele>57.6</ele>
        <time>2016-10-09T09:36:34Z</time>
      </trkpt>
      <trkpt lat="47.24594" lon="-1.69043">
        <ele>58.1</ele>
        <time>2016-10-09T09:36:41Z</time>
      </trkpt>
      <trkpt lat="47.24637" lon="-1.69017">
        <ele>58.8</ele>
        <time>2016-10-09T09:36:51Z</time>
      </trkpt>
      <trkpt lat="47.2468" lon="-1.68986">
        <ele>59.6</ele>
        <time>2016-10-09T09:37:01Z</time>
      </trkpt>
      <trkpt lat="47.24722" lon="-1.68959">
        <ele>60.3</ele>
        <time>2016-10-09T09:37:11Z</time>
      </trkpt>
      <trkpt lat="47.24767" lon="-1.68926">
        <ele>61</ele>
        <time>2016-10-09T09:37:21Z</time>
      </trkpt>
      <trkpt lat="47.24811" lon="-1.68897">
        <ele>61.6</ele>
        <time>2016-10-09T09:37:30Z</time>
      </trkpt>
      <trkpt lat="47.24853" lon="-1.68873">
        <ele>62.2</ele>
        <time>2016-10-09T09:37:39Z</time>
      </trkpt>
      <trkpt lat="47.24901" lon="-1.68856">
        <ele>62.9</ele>
        <time>2016-10-09T09:37:49Z</time>
      </trkpt>
      <trkpt lat="47.24946" lon="-1.68853">
        <ele>63.5</ele>
        <time>2016-10-09T09:37:58Z</time>
      </trkpt>
      <trkpt lat="47.24951" lon="-1.68851">
        <ele>63.6</ele>
        <time>2016-10-09T09:37:59Z</time>
      </trkpt>
      <trkpt lat="47.24961" lon="-1.68847">
        <ele>63.5</ele>
        <time>2016-10-09T09:38:01Z</time>
      </trkpt>
      <trkpt lat="47.24987" lon="-1.68837">
        <ele>61.6</ele>
        <time>2016-10-09T09:38:06Z</time>
      </trkpt>
      <trkpt lat="47.24992" lon="-1.68835">
        <ele>61.7</ele>
        <time>2016-10-09T09:38:07Z</time>
      </trkpt>
      <trkpt lat="47.25038" lon="-1.68802">
        <ele>62.2</ele>
        <time>2016-10-09T09:38:16Z</time>
      </trkpt>
      <trkpt lat="47.25081" lon="-1.68782">
        <ele>62.7</ele>
        <time>2016-10-09T09:38:24Z</time>
      </trkpt>
      <trkpt lat="47.25126" lon="-1.68755">
        <ele>63.3</ele>
        <time>2016-10-09T09:38:33Z</time>
      </trkpt>
      <trkpt lat="47.25156" lon="-1.68722">
        <ele>63.9</ele>
        <time>2016-10-09T09:38:42Z</time>
      </trkpt>
      <trkpt lat="47.25167" lon="-1.68701">
        <ele>64.2</ele>
        <time>2016-10-09T09:38:47Z</time>
      </trkpt>
      <trkpt lat="47.25172" lon="-1.68692">
        <ele>64.2</ele>
        <time>2016-10-09T09:38:49Z</time>
      </trkpt>
      <trkpt lat="47.25182" lon="-1.6867">
        <ele>63.5</ele>
        <time>2016-10-09T09:38:54Z</time>
      </trkpt>
      <trkpt lat="47.25193" lon="-1.68648">
        <ele>63.5</ele>
        <time>2016-10-09T09:38:59Z</time>
      </trkpt>
      <trkpt lat="47.25195" lon="-1.68644">
        <ele>63.3</ele>
        <time>2016-10-09T09:39:00Z</time>
      </trkpt>
      <trkpt lat="47.25212" lon="-1.68607">
        <ele>61.8</ele>
        <time>2016-10-09T09:39:08Z</time>
      </trkpt>
      <trkpt lat="47.25224" lon="-1.68598">
        <ele>61.8</ele>
        <time>2016-10-09T09:39:10Z</time>
      </trkpt>
      <trkpt lat="47.25236" lon="-1.68589">
        <ele>63.3</ele>
        <time>2016-10-09T09:39:12Z</time>
      </trkpt>
      <trkpt lat="47.25249" lon="-1.68573">
        <ele>64.5</ele>
        <time>2016-10-09T09:39:15Z</time>
      </trkpt>
      <trkpt lat="47.25263" lon="-1.68557">
        <ele>57</ele>
        <time>2016-10-09T09:39:18Z</time>
      </trkpt>
      <trkpt lat="47.25268" lon="-1.68554">
        <ele>54.5</ele>
        <time>2016-10-09T09:39:19Z</time>
      </trkpt>
      <trkpt lat="47.2527" lon="-1.6855">
        <ele>53</ele>
        <time>2016-10-09T09:39:20Z</time>
      </trkpt>
      <trkpt lat="47.25305" lon="-1.68521">
        <ele>55.3</ele>
        <time>2016-10-09T09:39:27Z</time>
      </trkpt>
      <trkpt lat="47.25319" lon="-1.68491">
        <ele>56.1</ele>
        <time>2016-10-09T09:39:31Z</time>
      </trkpt>
      <trkpt lat="47.25327" lon="-1.68449">
        <ele>49.9</ele>
        <time>2016-10-09T09:39:36Z</time>
      </trkpt>
      <trkpt lat="47.25331" lon="-1.68441">
        <ele>49.1</ele>
        <time>2016-10-09T09:39:37Z</time>
      </trkpt>
      <trkpt lat="47.25341" lon="-1.68418">
        <ele>49.1</ele>
        <time>2016-10-09T09:39:40Z</time>
      </trkpt>
      <trkpt lat="47.25339" lon="-1.68405">
        <ele>49.1</ele>
        <time>2016-10-09T09:39:42Z</time>
      </trkpt>
      <trkpt lat="47.25311" lon="-1.6836">
        <ele>49.1</ele>
        <time>2016-10-09T09:39:51Z</time>
      </trkpt>
      <trkpt lat="47.25301" lon="-1.68344">
        <ele>49.1</ele>
        <time>2016-10-09T09:39:54Z</time>
      </trkpt>
      <trkpt lat="47.25298" lon="-1.68338">
        <ele>49.4</ele>
        <time>2016-10-09T09:39:55Z</time>
      </trkpt>
      <trkpt lat="47.25293" lon="-1.68312">
        <ele>50.1</ele>
        <time>2016-10-09T09:39:58Z</time>
      </trkpt>
      <trkpt lat="47.25295" lon="-1.68297">
        <ele>50.5</ele>
        <time>2016-10-09T09:40:00Z</time>
      </trkpt>
      <trkpt lat="47.25303" lon="-1.68242">
        <ele>50.1</ele>
        <time>2016-10-09T09:40:07Z</time>
      </trkpt>
      <trkpt lat="47.25306" lon="-1.68206">
        <ele>49.9</ele>
        <time>2016-10-09T09:40:11Z</time>
      </trkpt>
      <trkpt lat="47.25296" lon="-1.68158">
        <ele>49.6</ele>
        <time>2016-10-09T09:40:16Z</time>
      </trkpt>
      <trkpt lat="47.25274" lon="-1.68117">
        <ele>49.3</ele>
        <time>2016-10-09T09:40:22Z</time>
      </trkpt>
      <trkpt lat="47.2524" lon="-1.68067">
        <ele>48.8</ele>
        <time>2016-10-09T09:40:30Z</time>
      </trkpt>
      <trkpt lat="47.25215" lon="-1.68021">
        <ele>48.5</ele>
        <time>2016-10-09T09:40:37Z</time>
      </trkpt>
      <trkpt lat="47.25206" lon="-1.67988">
        <ele>48.3</ele>
        <time>2016-10-09T09:40:41Z</time>
      </trkpt>
      <trkpt lat="47.25207" lon="-1.67912">
        <ele>47.9</ele>
        <time>2016-10-09T09:40:48Z</time>
      </trkpt>
      <trkpt lat="47.25209" lon="-1.67889">
        <ele>47.8</ele>
        <time>2016-10-09T09:40:50Z</time>
      </trkpt>
      <trkpt lat="47.25209" lon="-1.67879">
        <ele>47.7</ele>
        <time>2016-10-09T09:40:51Z</time>
      </trkpt>
      <trkpt lat="47.25222" lon="-1.67841">
        <ele>47.5</ele>
        <time>2016-10-09T09:40:55Z</time>
      </trkpt>
      <trkpt lat="47.25264" lon="-1.67794">
        <ele>47.1</ele>
        <time>2016-10-09T09:41:02Z</time>
      </trkpt>
      <trkpt lat="47.25277" lon="-1.67782">
        <ele>47.1</ele>
        <time>2016-10-09T09:41:04Z</time>
      </trkpt>
      <trkpt lat="47.25305" lon="-1.67759">
        <ele>47.4</ele>
        <time>2016-10-09T09:41:08Z</time>
      </trkpt>
      <trkpt lat="47.25316" lon="-1.67743">
        <ele>47.5</ele>
        <time>2016-10-09T09:41:10Z</time>
      </trkpt>
      <trkpt lat="47.2532" lon="-1.67734">
        <ele>47.1</ele>
        <time>2016-10-09T09:41:11Z</time>
      </trkpt>
      <trkpt lat="47.25322" lon="-1.67712">
        <ele>46.5</ele>
        <time>2016-10-09T09:41:13Z</time>
      </trkpt>
      <trkpt lat="47.25316" lon="-1.67694">
        <ele>45.9</ele>
        <time>2016-10-09T09:41:15Z</time>
      </trkpt>
      <trkpt lat="47.25302" lon="-1.67648">
        <ele>44.4</ele>
        <time>2016-10-09T09:41:20Z</time>
      </trkpt>
      <trkpt lat="47.25287" lon="-1.67592">
        <ele>43.5</ele>
        <time>2016-10-09T09:41:28Z</time>
      </trkpt>
      <trkpt lat="47.25325" lon="-1.67555">
        <ele>42.5</ele>
        <time>2016-10-09T09:41:36Z</time>
      </trkpt>
      <trkpt lat="47.25338" lon="-1.67536">
        <ele>42.2</ele>
        <time>2016-10-09T09:41:39Z</time>
      </trkpt>
      <trkpt lat="47.25342" lon="-1.6751">
        <ele>41.7</ele>
        <time>2016-10-09T09:41:42Z</time>
      </trkpt>
      <trkpt lat="47.25348" lon="-1.67475">
        <ele>39.7</ele>
        <time>2016-10-09T09:41:46Z</time>
      </trkpt>
      <trkpt lat="47.2537" lon="-1.67426">
        <ele>36.7</ele>
        <time>2016-10-09T09:41:52Z</time>
      </trkpt>
      <trkpt lat="47.25374" lon="-1.67421">
        <ele>36.5</ele>
        <time>2016-10-09T09:41:53Z</time>
      </trkpt>
      <trkpt lat="47.25385" lon="-1.67405">
        <ele>37.6</ele>
        <time>2016-10-09T09:41:56Z</time>
      </trkpt>
      <trkpt lat="47.25385" lon="-1.67385">
        <ele>38.7</ele>
        <time>2016-10-09T09:41:59Z</time>
      </trkpt>
      <trkpt lat="47.25385" lon="-1.67372">
        <ele>39</ele>
        <time>2016-10-09T09:42:01Z</time>
      </trkpt>
      <trkpt lat="47.25376" lon="-1.67328">
        <ele>40.5</ele>
        <time>2016-10-09T09:42:09Z</time>
      </trkpt>
      <trkpt lat="47.25373" lon="-1.67306">
        <ele>41.4</ele>
        <time>2016-10-09T09:42:14Z</time>
      </trkpt>
      <trkpt lat="47.25368" lon="-1.67279">
        <ele>43.9</ele>
        <time>2016-10-09T09:42:20Z</time>
      </trkpt>
      <trkpt lat="47.25366" lon="-1.67261">
        <ele>44.2</ele>
        <time>2016-10-09T09:42:24Z</time>
      </trkpt>
      <trkpt lat="47.25361" lon="-1.67223">
        <ele>44.8</ele>
        <time>2016-10-09T09:42:32Z</time>
      </trkpt>
      <trkpt lat="47.25358" lon="-1.67198">
        <ele>45.2</ele>
        <time>2016-10-09T09:42:37Z</time>
      </trkpt>
      <trkpt lat="47.25359" lon="-1.67154">
        <ele>45.7</ele>
        <time>2016-10-09T09:42:43Z</time>
      </trkpt>
      <trkpt lat="47.25356" lon="-1.67123">
        <ele>46.5</ele>
        <time>2016-10-09T09:42:48Z</time>
      </trkpt>
      <trkpt lat="47.25353" lon="-1.67091">
        <ele>45.5</ele>
        <time>2016-10-09T09:42:53Z</time>
      </trkpt>
      <trkpt lat="47.25352" lon="-1.67084">
        <ele>45.4</ele>
        <time>2016-10-09T09:42:54Z</time>
      </trkpt>
      <trkpt lat="47.25349" lon="-1.67071">
        <ele>45.6</ele>
        <time>2016-10-09T09:42:56Z</time>
      </trkpt>
      <trkpt lat="47.25347" lon="-1.67">
        <ele>46.6</ele>
        <time>2016-10-09T09:43:06Z</time>
      </trkpt>
      <trkpt lat="47.25342" lon="-1.66928">
        <ele>47.5</ele>
        <time>2016-10-09T09:43:17Z</time>
      </trkpt>
      <trkpt lat="47.2534" lon="-1.66888">
        <ele>46.7</ele>
        <time>2016-10-09T09:43:22Z</time>
      </trkpt>
      <trkpt lat="47.25338" lon="-1.66857">
        <ele>46.3</ele>
        <time>2016-10-09T09:43:26Z</time>
      </trkpt>
      <trkpt lat="47.25337" lon="-1.66785">
        <ele>45.3</ele>
        <time>2016-10-09T09:43:36Z</time>
      </trkpt>
      <trkpt lat="47.25337" lon="-1.66718">
        <ele>44.5</ele>
        <time>2016-10-09T09:43:44Z</time>
      </trkpt>
      <trkpt lat="47.25337" lon="-1.66648">
        <ele>43.7</ele>
        <time>2016-10-09T09:43:52Z</time>
      </trkpt>
      <trkpt lat="47.25336" lon="-1.66622">
        <ele>43.8</ele>
        <time>2016-10-09T09:43:55Z</time>
      </trkpt>
      <trkpt lat="47.25335" lon="-1.66578">
        <ele>47.3</ele>
        <time>2016-10-09T09:44:00Z</time>
      </trkpt>
      <trkpt lat="47.25329" lon="-1.66518">
        <ele>41.8</ele>
        <time>2016-10-09T09:44:07Z</time>
      </trkpt>
      <trkpt lat="47.2533" lon="-1.66484">
        <ele>39</ele>
        <time>2016-10-09T09:44:11Z</time>
      </trkpt>
      <trkpt lat="47.25331" lon="-1.66451">
        <ele>39.9</ele>
        <time>2016-10-09T09:44:15Z</time>
      </trkpt>
      <trkpt lat="47.25328" lon="-1.66408">
        <ele>41.6</ele>
        <time>2016-10-09T09:44:23Z</time>
      </trkpt>
      <trkpt lat="47.25326" lon="-1.66381">
        <ele>40.8</ele>
        <time>2016-10-09T09:44:28Z</time>
      </trkpt>
      <trkpt lat="47.25326" lon="-1.66347">
        <ele>41.3</ele>
        <time>2016-10-09T09:44:34Z</time>
      </trkpt>
      <trkpt lat="47.25326" lon="-1.66313">
        <ele>41.6</ele>
        <time>2016-10-09T09:44:40Z</time>
      </trkpt>
      <trkpt lat="47.25325" lon="-1.66282">
        <ele>41.8</ele>
        <time>2016-10-09T09:44:45Z</time>
      </trkpt>
      <trkpt lat="47.25323" lon="-1.66243">
        <ele>40.8</ele>
        <time>2016-10-09T09:44:51Z</time>
      </trkpt>
      <trkpt lat="47.25322" lon="-1.66201">
        <ele>40.1</ele>
        <time>2016-10-09T09:44:57Z</time>
      </trkpt>
      <trkpt lat="47.25321" lon="-1.66174">
        <ele>42.9</ele>
        <time>2016-10-09T09:45:01Z</time>
      </trkpt>
      <trkpt lat="47.25322" lon="-1.6616">
        <ele>44</ele>
        <time>2016-10-09T09:45:03Z</time>
      </trkpt>
      <trkpt lat="47.25325" lon="-1.66108">
        <ele>43.6</ele>
        <time>2016-10-09T09:45:11Z</time>
      </trkpt>
      <trkpt lat="47.25321" lon="-1.6609">
        <ele>43.5</ele>
        <time>2016-10-09T09:45:13Z</time>
      </trkpt>
      <trkpt lat="47.25318" lon="-1.66082">
        <ele>43.8</ele>
        <time>2016-10-09T09:45:14Z</time>
      </trkpt>
      <trkpt lat="47.25287" lon="-1.66025">
        <ele>45.7</ele>
        <time>2016-10-09T09:45:23Z</time>
      </trkpt>
      <trkpt lat="47.25283" lon="-1.66018">
        <ele>45.7</ele>
        <time>2016-10-09T09:45:24Z</time>
      </trkpt>
      <trkpt lat="47.25256" lon="-1.65966">
        <ele>44.5</ele>
        <time>2016-10-09T09:45:32Z</time>
      </trkpt>
      <trkpt lat="47.25235" lon="-1.65899">
        <ele>43.2</ele>
        <time>2016-10-09T09:45:40Z</time>
      </trkpt>
      <trkpt lat="47.25213" lon="-1.65835">
        <ele>42</ele>
        <time>2016-10-09T09:45:47Z</time>
      </trkpt>
      <trkpt lat="47.25192" lon="-1.65766">
        <ele>40.9</ele>
        <time>2016-10-09T09:45:54Z</time>
      </trkpt>
      <trkpt lat="47.25181" lon="-1.65718">
        <ele>39.6</ele>
        <time>2016-10-09T09:45:59Z</time>
      </trkpt>
      <trkpt lat="47.25177" lon="-1.65711">
        <ele>39.4</ele>
        <time>2016-10-09T09:46:00Z</time>
      </trkpt>
      <trkpt lat="47.25167" lon="-1.65704">
        <ele>39.1</ele>
        <time>2016-10-09T09:46:02Z</time>
      </trkpt>
      <trkpt lat="47.25117" lon="-1.65691">
        <ele>38.1</ele>
        <time>2016-10-09T09:46:09Z</time>
      </trkpt>
      <trkpt lat="47.25102" lon="-1.65683">
        <ele>37.6</ele>
        <time>2016-10-09T09:46:11Z</time>
      </trkpt>
      <trkpt lat="47.25074" lon="-1.65668">
        <ele>33.9</ele>
        <time>2016-10-09T09:46:15Z</time>
      </trkpt>
      <trkpt lat="47.25071" lon="-1.65663">
        <ele>33</ele>
        <time>2016-10-09T09:46:16Z</time>
      </trkpt>
      <trkpt lat="47.2507" lon="-1.65656">
        <ele>32.7</ele>
        <time>2016-10-09T09:46:17Z</time>
      </trkpt>
      <trkpt lat="47.25068" lon="-1.65641">
        <ele>33.8</ele>
        <time>2016-10-09T09:46:19Z</time>
      </trkpt>
      <trkpt lat="47.25073" lon="-1.65616">
        <ele>34.9</ele>
        <time>2016-10-09T09:46:22Z</time>
      </trkpt>
      <trkpt lat="47.25082" lon="-1.65575">
        <ele>30.7</ele>
        <time>2016-10-09T09:46:27Z</time>
      </trkpt>
      <trkpt lat="47.25085" lon="-1.65568">
        <ele>30.3</ele>
        <time>2016-10-09T09:46:28Z</time>
      </trkpt>
      <trkpt lat="47.25097" lon="-1.65536">
        <ele>33.1</ele>
        <time>2016-10-09T09:46:33Z</time>
      </trkpt>
      <trkpt lat="47.25099" lon="-1.65529">
        <ele>33.3</ele>
        <time>2016-10-09T09:46:34Z</time>
      </trkpt>
      <trkpt lat="47.25102" lon="-1.65505">
        <ele>34.1</ele>
        <time>2016-10-09T09:46:38Z</time>
      </trkpt>
      <trkpt lat="47.25107" lon="-1.65463">
        <ele>35.3</ele>
        <time>2016-10-09T09:46:45Z</time>
      </trkpt>
      <trkpt lat="47.25111" lon="-1.65439">
        <ele>36.2</ele>
        <time>2016-10-09T09:46:50Z</time>
      </trkpt>
      <trkpt lat="47.25116" lon="-1.65416">
        <ele>37.3</ele>
        <time>2016-10-09T09:46:55Z</time>
      </trkpt>
      <trkpt lat="47.25138" lon="-1.65361">
        <ele>38.6</ele>
        <time>2016-10-09T09:47:10Z</time>
      </trkpt>
      <trkpt lat="47.25139" lon="-1.65357">
        <ele>39</ele>
        <time>2016-10-09T09:47:11Z</time>
      </trkpt>
      <trkpt lat="47.25144" lon="-1.65336">
        <ele>40.9</ele>
        <time>2016-10-09T09:47:16Z</time>
      </trkpt>
      <trkpt lat="47.2515" lon="-1.6531">
        <ele>39.9</ele>
        <time>2016-10-09T09:47:22Z</time>
      </trkpt>
      <trkpt lat="47.25154" lon="-1.65294">
        <ele>41.1</ele>
        <time>2016-10-09T09:47:26Z</time>
      </trkpt>
      <trkpt lat="47.25154" lon="-1.65285">
        <ele>41.6</ele>
        <time>2016-10-09T09:47:28Z</time>
      </trkpt>
      <trkpt lat="47.25154" lon="-1.65263">
        <ele>41.4</ele>
        <time>2016-10-09T09:47:33Z</time>
      </trkpt>
      <trkpt lat="47.25154" lon="-1.65237">
        <ele>42.9</ele>
        <time>2016-10-09T09:47:39Z</time>
      </trkpt>
      <trkpt lat="47.25154" lon="-1.65224">
        <ele>43.5</ele>
        <time>2016-10-09T09:47:42Z</time>
      </trkpt>
      <trkpt lat="47.25153" lon="-1.652">
        <ele>44.6</ele>
        <time>2016-10-09T09:47:48Z</time>
      </trkpt>
      <trkpt lat="47.25165" lon="-1.65162">
        <ele>46</ele>
        <time>2016-10-09T09:47:56Z</time>
      </trkpt>
      <trkpt lat="47.25171" lon="-1.65138">
        <ele>45.9</ele>
        <time>2016-10-09T09:48:01Z</time>
      </trkpt>
      <trkpt lat="47.25174" lon="-1.65107">
        <ele>45.8</ele>
        <time>2016-10-09T09:48:07Z</time>
      </trkpt>
      <trkpt lat="47.25178" lon="-1.65069">
        <ele>46.4</ele>
        <time>2016-10-09T09:48:14Z</time>
      </trkpt>
      <trkpt lat="47.25176" lon="-1.65">
        <ele>47.3</ele>
        <time>2016-10-09T09:48:24Z</time>
      </trkpt>
      <trkpt lat="47.25172" lon="-1.64927">
        <ele>48.1</ele>
        <time>2016-10-09T09:48:34Z</time>
      </trkpt>
      <trkpt lat="47.25163" lon="-1.64884">
        <ele>48.6</ele>
        <time>2016-10-09T09:48:40Z</time>
      </trkpt>
      <trkpt lat="47.25148" lon="-1.6487">
        <ele>48.5</ele>
        <time>2016-10-09T09:48:44Z</time>
      </trkpt>
      <trkpt lat="47.25138" lon="-1.64859">
        <ele>45.1</ele>
        <time>2016-10-09T09:48:47Z</time>
      </trkpt>
      <trkpt lat="47.2513" lon="-1.64854">
        <ele>43.1</ele>
        <time>2016-10-09T09:48:49Z</time>
      </trkpt>
      <trkpt lat="47.25106" lon="-1.64837">
        <ele>40.9</ele>
        <time>2016-10-09T09:48:55Z</time>
      </trkpt>
      <trkpt lat="47.25095" lon="-1.64829">
        <ele>42.6</ele>
        <time>2016-10-09T09:48:58Z</time>
      </trkpt>
      <trkpt lat="47.25087" lon="-1.64821">
        <ele>43.8</ele>
        <time>2016-10-09T09:49:01Z</time>
      </trkpt>
      <trkpt lat="47.25085" lon="-1.64817">
        <ele>43</ele>
        <time>2016-10-09T09:49:02Z</time>
      </trkpt>
      <trkpt lat="47.25088" lon="-1.6479">
        <ele>39.2</ele>
        <time>2016-10-09T09:49:07Z</time>
      </trkpt>
      <trkpt lat="47.25091" lon="-1.64764">
        <ele>40.9</ele>
        <time>2016-10-09T09:49:12Z</time>
      </trkpt>
      <trkpt lat="47.25093" lon="-1.64747">
        <ele>41.6</ele>
        <time>2016-10-09T09:49:15Z</time>
      </trkpt>
      <trkpt lat="47.25094" lon="-1.64736">
        <ele>42</ele>
        <time>2016-10-09T09:49:17Z</time>
      </trkpt>
      <trkpt lat="47.25097" lon="-1.64701">
        <ele>43</ele>
        <time>2016-10-09T09:49:23Z</time>
      </trkpt>
      <trkpt lat="47.251" lon="-1.64677">
        <ele>43.2</ele>
        <time>2016-10-09T09:49:27Z</time>
      </trkpt>
      <trkpt lat="47.25106" lon="-1.64605">
        <ele>43.8</ele>
        <time>2016-10-09T09:49:38Z</time>
      </trkpt>
      <trkpt lat="47.25103" lon="-1.64553">
        <ele>44.2</ele>
        <time>2016-10-09T09:49:45Z</time>
      </trkpt>
      <trkpt lat="47.25102" lon="-1.64539">
        <ele>44.5</ele>
        <time>2016-10-09T09:49:47Z</time>
      </trkpt>
      <trkpt lat="47.25104" lon="-1.64496">
        <ele>45.7</ele>
        <time>2016-10-09T09:49:54Z</time>
      </trkpt>
      <trkpt lat="47.25089" lon="-1.64462">
        <ele>46.8</ele>
        <time>2016-10-09T09:50:01Z</time>
      </trkpt>
      <trkpt lat="47.25095" lon="-1.64445">
        <ele>47.5</ele>
        <time>2016-10-09T09:50:05Z</time>
      </trkpt>
      <trkpt lat="47.25101" lon="-1.64437">
        <ele>47.8</ele>
        <time>2016-10-09T09:50:07Z</time>
      </trkpt>
      <trkpt lat="47.25129" lon="-1.64397">
        <ele>49.9</ele>
        <time>2016-10-09T09:50:18Z</time>
      </trkpt>
      <trkpt lat="47.25136" lon="-1.64374">
        <ele>50.8</ele>
        <time>2016-10-09T09:50:23Z</time>
      </trkpt>
      <trkpt lat="47.25138" lon="-1.64361">
        <ele>50.9</ele>
        <time>2016-10-09T09:50:26Z</time>
      </trkpt>
      <trkpt lat="47.25119" lon="-1.64331">
        <ele>51.2</ele>
        <time>2016-10-09T09:50:34Z</time>
      </trkpt>
      <trkpt lat="47.25106" lon="-1.64311">
        <ele>50.2</ele>
        <time>2016-10-09T09:50:39Z</time>
      </trkpt>
      <trkpt lat="47.25074" lon="-1.64262">
        <ele>48.3</ele>
        <time>2016-10-09T09:50:49Z</time>
      </trkpt>
      <trkpt lat="47.25062" lon="-1.64205">
        <ele>47.2</ele>
        <time>2016-10-09T09:50:57Z</time>
      </trkpt>
      <trkpt lat="47.25059" lon="-1.64175">
        <ele>51.1</ele>
        <time>2016-10-09T09:51:02Z</time>
      </trkpt>
      <trkpt lat="47.25048" lon="-1.64155">
        <ele>48.9</ele>
        <time>2016-10-09T09:51:06Z</time>
      </trkpt>
      <trkpt lat="47.25044" lon="-1.64141">
        <ele>48</ele>
        <time>2016-10-09T09:51:08Z</time>
      </trkpt>
      <trkpt lat="47.25032" lon="-1.64091">
        <ele>48.4</ele>
        <time>2016-10-09T09:51:15Z</time>
      </trkpt>
      <trkpt lat="47.25016" lon="-1.64028">
        <ele>48.9</ele>
        <time>2016-10-09T09:51:25Z</time>
      </trkpt>
      <trkpt lat="47.25007" lon="-1.63984">
        <ele>49.1</ele>
        <time>2016-10-09T09:51:31Z</time>
      </trkpt>
      <trkpt lat="47.25002" lon="-1.63962">
        <ele>48.7</ele>
        <time>2016-10-09T09:51:34Z</time>
      </trkpt>
      <trkpt lat="47.25" lon="-1.63956">
        <ele>48.5</ele>
        <time>2016-10-09T09:51:35Z</time>
      </trkpt>
      <trkpt lat="47.2498" lon="-1.63951">
        <ele>47.8</ele>
        <time>2016-10-09T09:51:40Z</time>
      </trkpt>
      <trkpt lat="47.24936" lon="-1.63981">
        <ele>46.3</ele>
        <time>2016-10-09T09:51:50Z</time>
      </trkpt>
      <trkpt lat="47.24896" lon="-1.6402">
        <ele>44.8</ele>
        <time>2016-10-09T09:52:00Z</time>
      </trkpt>
      <trkpt lat="47.24894" lon="-1.64025">
        <ele>44.4</ele>
        <time>2016-10-09T09:52:03Z</time>
      </trkpt>
      <trkpt lat="47.24883" lon="-1.64052">
        <ele>42.5</ele>
        <time>2016-10-09T09:52:17Z</time>
      </trkpt>
      <trkpt lat="47.24876" lon="-1.64052">
        <ele>41.5</ele>
        <time>2016-10-09T09:52:25Z</time>
      </trkpt>
      <trkpt lat="47.24872" lon="-1.64051">
        <ele>41.8</ele>
        <time>2016-10-09T09:52:30Z</time>
      </trkpt>
      <trkpt lat="47.24856" lon="-1.6405">
        <ele>39.5</ele>
        <time>2016-10-09T09:52:50Z</time>
      </trkpt>
      <trkpt lat="47.24849" lon="-1.64082">
        <ele>38.4</ele>
        <time>2016-10-09T09:52:59Z</time>
      </trkpt>
      <trkpt lat="47.24843" lon="-1.6409">
        <ele>37.5</ele>
        <time>2016-10-09T09:53:07Z</time>
      </trkpt>
      <trkpt lat="47.24837" lon="-1.64097">
        <ele>37.6</ele>
        <time>2016-10-09T09:53:15Z</time>
      </trkpt>
      <trkpt lat="47.24836" lon="-1.64096">
        <ele>37.7</ele>
        <time>2016-10-09T09:53:24Z</time>
      </trkpt>
      <trkpt lat="47.24835" lon="-1.64094">
        <ele>37.9</ele>
        <time>2016-10-09T09:53:46Z</time>
      </trkpt>
    </trkseg>
  </trk>
</gpx>